<?xml version="1.0" encoding="UTF-8"?>
<gpx version="1.1" creator="2bulu-scraper" xmlns="http://www.topografix.com/GPX/1/1">
  <metadata><name>宜宾少峨山徒步</name><desc>source: 2bulu.com trackId=79743915; exported 2026-08-31T01:50:45.660Z</desc>
    <bounds minlat="28.697236" minlon="104.484783" maxlat="28.706717" maxlon="104.520029"/>
    <link href="https://www.2bulu.com/track/t-SEVPsRNl0ITp%252FR2KBg5Tzw%253D%253D.htm"><text>2bulu 源页面</text></link>
  </metadata>
  <wpt lat="28.69762" lon="104.519378"><ele>325</ele><name></name></wpt>
  <wpt lat="28.698387" lon="104.51905"><ele>320</ele><name></name></wpt>
  <wpt lat="28.702575" lon="104.51387"><ele>344</ele><name></name></wpt>
  <wpt lat="28.701822" lon="104.513062"><ele>379</ele><name></name></wpt>
  <wpt lat="28.701825" lon="104.512925"><ele>383</ele><name></name></wpt>
  <wpt lat="28.702213" lon="104.511413"><ele>409</ele><name></name></wpt>
  <wpt lat="28.702622" lon="104.509613"><ele>454</ele><name></name></wpt>
  <wpt lat="28.702428" lon="104.509462"><ele>460</ele><name></name></wpt>
  <wpt lat="28.702642" lon="104.507813"><ele>494</ele><name></name></wpt>
  <wpt lat="28.703597" lon="104.503625"><ele>578</ele><name></name></wpt>
  <wpt lat="28.704195" lon="104.50142"><ele>591</ele><name></name></wpt>
  <wpt lat="28.704387" lon="104.499763"><ele>596</ele><name></name></wpt>
  <wpt lat="28.705012" lon="104.49755"><ele>630</ele><name></name></wpt>
  <wpt lat="28.705688" lon="104.496733"><ele>658</ele><name></name></wpt>
  <wpt lat="28.705667" lon="104.496238"><ele>659</ele><name></name></wpt>
  <wpt lat="28.705662" lon="104.496238"><ele>659</ele><name></name></wpt>
  <wpt lat="28.705708" lon="104.496162"><ele>660</ele><name></name></wpt>
  <wpt lat="28.705995" lon="104.49498"><ele>678</ele><name></name></wpt>
  <wpt lat="28.706158" lon="104.49492"><ele>684</ele><name></name></wpt>
  <wpt lat="28.706317" lon="104.494903"><ele>688</ele><name></name></wpt>
  <wpt lat="28.706728" lon="104.494788"><ele>711</ele><name></name></wpt>
  <wpt lat="28.705895" lon="104.494203"><ele>692</ele><name></name></wpt>
  <wpt lat="28.705128" lon="104.491112"><ele>693</ele><name></name></wpt>
  <wpt lat="28.705128" lon="104.491112"><ele>693</ele><name></name></wpt>
  <wpt lat="28.705342" lon="104.490753"><ele>697</ele><name></name></wpt>
  <wpt lat="28.705272" lon="104.490538"><ele>699</ele><name></name></wpt>
  <wpt lat="28.706158" lon="104.489967"><ele>703</ele><name></name></wpt>
  <wpt lat="28.706558" lon="104.489272"><ele>697</ele><name></name></wpt>
  <wpt lat="28.706608" lon="104.48893"><ele>690</ele><name></name></wpt>
  <wpt lat="28.706313" lon="104.488547"><ele>688</ele><name></name></wpt>
  <wpt lat="28.705642" lon="104.487792"><ele>672</ele><name></name></wpt>
  <wpt lat="28.705642" lon="104.48783"><ele>673</ele><name></name></wpt>
  <wpt lat="28.705645" lon="104.487678"><ele>671</ele><name></name></wpt>
  <wpt lat="28.704855" lon="104.49002"><ele>702</ele><name></name></wpt>
  <wpt lat="28.705555" lon="104.494025"><ele>687</ele><name></name></wpt>
  <wpt lat="28.705745" lon="104.496238"><ele>661</ele><name></name></wpt>
  <wpt lat="28.704312" lon="104.501022"><ele>588</ele><name></name></wpt>
  <wpt lat="28.704258" lon="104.501542"><ele>596</ele><name></name></wpt>
  <wpt lat="28.70425" lon="104.501533"><ele>595</ele><name></name></wpt>
  <wpt lat="28.702472" lon="104.510642"><ele>424</ele><name></name></wpt>
  <trk><name>宜宾少峨山徒步</name>
      <trkseg>
        <trkpt lat="28.697336" lon="104.51993"><ele>322.26627</ele><time>2026-02-28T17:13:02.000Z</time></trkpt>
        <trkpt lat="28.697312" lon="104.519969"><ele>322.03403</ele><time>2026-02-28T17:13:13.000Z</time></trkpt>
        <trkpt lat="28.697284" lon="104.520014"><ele>321.8638</ele><time>2026-02-28T17:13:18.000Z</time></trkpt>
        <trkpt lat="28.697236" lon="104.520029"><ele>322.2745</ele><time>2026-02-28T17:13:27.000Z</time></trkpt>
        <trkpt lat="28.697259" lon="104.519983"><ele>322.33322</ele><time>2026-02-28T17:13:40.000Z</time></trkpt>
        <trkpt lat="28.697289" lon="104.519933"><ele>321.9844</ele><time>2026-02-28T17:13:46.000Z</time></trkpt>
        <trkpt lat="28.697309" lon="104.519877"><ele>321.98834</ele><time>2026-02-28T17:13:51.000Z</time></trkpt>
        <trkpt lat="28.697326" lon="104.519824"><ele>321.75366</ele><time>2026-02-28T17:13:55.000Z</time></trkpt>
        <trkpt lat="28.697352" lon="104.519776"><ele>322.25012</ele><time>2026-02-28T17:13:59.000Z</time></trkpt>
        <trkpt lat="28.697402" lon="104.519755"><ele>323.62253</ele><time>2026-02-28T17:14:08.000Z</time></trkpt>
        <trkpt lat="28.697443" lon="104.519768"><ele>323.953</ele><time>2026-02-28T17:14:12.000Z</time></trkpt>
        <trkpt lat="28.697488" lon="104.519736"><ele>322.71777</ele><time>2026-02-28T17:14:18.000Z</time></trkpt>
        <trkpt lat="28.697519" lon="104.519692"><ele>321.4914</ele><time>2026-02-28T17:14:23.000Z</time></trkpt>
        <trkpt lat="28.697545" lon="104.519638"><ele>320.81747</ele><time>2026-02-28T17:14:28.000Z</time></trkpt>
        <trkpt lat="28.697567" lon="104.519593"><ele>320.56113</ele><time>2026-02-28T17:14:32.000Z</time></trkpt>
        <trkpt lat="28.697588" lon="104.519546"><ele>320.37393</ele><time>2026-02-28T17:14:36.000Z</time></trkpt>
        <trkpt lat="28.697605" lon="104.519483"><ele>321.9315</ele><time>2026-02-28T17:14:41.000Z</time></trkpt>
        <trkpt lat="28.69761" lon="104.519424"><ele>323.30804</ele><time>2026-02-28T17:14:45.000Z</time></trkpt>
        <trkpt lat="28.69762" lon="104.519358"><ele>324.79202</ele><time>2026-02-28T17:14:54.000Z</time></trkpt>
        <trkpt lat="28.69764" lon="104.519312"><ele>324.62158</ele><time>2026-02-28T17:14:59.000Z</time></trkpt>
        <trkpt lat="28.697656" lon="104.519265"><ele>324.56174</ele><time>2026-02-28T17:15:03.000Z</time></trkpt>
        <trkpt lat="28.697669" lon="104.51921"><ele>324.62125</ele><time>2026-02-28T17:15:08.000Z</time></trkpt>
        <trkpt lat="28.697689" lon="104.519155"><ele>326.05197</ele><time>2026-02-28T17:15:35.000Z</time></trkpt>
        <trkpt lat="28.697722" lon="104.519126"><ele>325.84012</ele><time>2026-02-28T17:15:42.000Z</time></trkpt>
        <trkpt lat="28.697737" lon="104.519078"><ele>325.67477</ele><time>2026-02-28T17:15:46.000Z</time></trkpt>
        <trkpt lat="28.69776" lon="104.519021"><ele>326.74954</ele><time>2026-02-28T17:15:51.000Z</time></trkpt>
        <trkpt lat="28.697783" lon="104.518969"><ele>327.918</ele><time>2026-02-28T17:15:56.000Z</time></trkpt>
        <trkpt lat="28.697806" lon="104.518915"><ele>329.01303</ele><time>2026-02-28T17:16:02.000Z</time></trkpt>
        <trkpt lat="28.69783" lon="104.518865"><ele>329.98163</ele><time>2026-02-28T17:16:09.000Z</time></trkpt>
        <trkpt lat="28.697848" lon="104.51882"><ele>331.66248</ele><time>2026-02-28T17:16:13.000Z</time></trkpt>
        <trkpt lat="28.697871" lon="104.518773"><ele>332.08395</ele><time>2026-02-28T17:16:17.000Z</time></trkpt>
        <trkpt lat="28.697885" lon="104.518717"><ele>333.16013</ele><time>2026-02-28T17:16:21.000Z</time></trkpt>
        <trkpt lat="28.697901" lon="104.518653"><ele>335.4622</ele><time>2026-02-28T17:16:26.000Z</time></trkpt>
        <trkpt lat="28.697915" lon="104.518602"><ele>336.68176</ele><time>2026-02-28T17:16:30.000Z</time></trkpt>
        <trkpt lat="28.697921" lon="104.518546"><ele>338.34457</ele><time>2026-02-28T17:16:34.000Z</time></trkpt>
        <trkpt lat="28.697933" lon="104.518478"><ele>340.02252</ele><time>2026-02-28T17:16:40.000Z</time></trkpt>
        <trkpt lat="28.697941" lon="104.518427"><ele>341.324</ele><time>2026-02-28T17:16:44.000Z</time></trkpt>
        <trkpt lat="28.697956" lon="104.518456"><ele>340.86264</ele><time>2026-02-28T17:16:51.000Z</time></trkpt>
        <trkpt lat="28.697955" lon="104.518506"><ele>340.21698</ele><time>2026-02-28T17:16:54.000Z</time></trkpt>
        <trkpt lat="28.697948" lon="104.518573"><ele>339.39597</ele><time>2026-02-28T17:16:58.000Z</time></trkpt>
        <trkpt lat="28.697935" lon="104.518638"><ele>338.51062</ele><time>2026-02-28T17:17:02.000Z</time></trkpt>
        <trkpt lat="28.697912" lon="104.518693"><ele>337.57</ele><time>2026-02-28T17:17:06.000Z</time></trkpt>
        <trkpt lat="28.697892" lon="104.51875"><ele>336.71237</ele><time>2026-02-28T17:17:10.000Z</time></trkpt>
        <trkpt lat="28.69787" lon="104.518807"><ele>335.7021</ele><time>2026-02-28T17:17:14.000Z</time></trkpt>
        <trkpt lat="28.697852" lon="104.518867"><ele>334.4515</ele><time>2026-02-28T17:17:18.000Z</time></trkpt>
        <trkpt lat="28.697837" lon="104.518923"><ele>333.19476</ele><time>2026-02-28T17:17:22.000Z</time></trkpt>
        <trkpt lat="28.697819" lon="104.518977"><ele>331.78873</ele><time>2026-02-28T17:17:26.000Z</time></trkpt>
        <trkpt lat="28.697796" lon="104.519028"><ele>330.4008</ele><time>2026-02-28T17:17:30.000Z</time></trkpt>
        <trkpt lat="28.697772" lon="104.519079"><ele>329.13022</ele><time>2026-02-28T17:17:34.000Z</time></trkpt>
        <trkpt lat="28.697757" lon="104.519125"><ele>328.43365</ele><time>2026-02-28T17:17:37.000Z</time></trkpt>
        <trkpt lat="28.697737" lon="104.519185"><ele>327.16544</ele><time>2026-02-28T17:17:41.000Z</time></trkpt>
        <trkpt lat="28.697753" lon="104.519243"><ele>325.473</ele><time>2026-02-28T17:17:47.000Z</time></trkpt>
        <trkpt lat="28.6978" lon="104.519232"><ele>323.66287</ele><time>2026-02-28T17:17:53.000Z</time></trkpt>
        <trkpt lat="28.697846" lon="104.519206"><ele>323.22052</ele><time>2026-02-28T17:17:57.000Z</time></trkpt>
        <trkpt lat="28.69789" lon="104.519177"><ele>323.0286</ele><time>2026-02-28T17:18:01.000Z</time></trkpt>
        <trkpt lat="28.697938" lon="104.519147"><ele>322.29105</ele><time>2026-02-28T17:18:06.000Z</time></trkpt>
        <trkpt lat="28.697989" lon="104.519156"><ele>321.92276</ele><time>2026-02-28T17:18:12.000Z</time></trkpt>
        <trkpt lat="28.698039" lon="104.519178"><ele>321.42154</ele><time>2026-02-28T17:18:18.000Z</time></trkpt>
        <trkpt lat="28.698068" lon="104.519208"><ele>321.55676</ele><time>2026-02-28T17:18:21.000Z</time></trkpt>
        <trkpt lat="28.698105" lon="104.519255"><ele>321.72705</ele><time>2026-02-28T17:18:26.000Z</time></trkpt>
        <trkpt lat="28.698145" lon="104.519283"><ele>321.5437</ele><time>2026-02-28T17:18:30.000Z</time></trkpt>
        <trkpt lat="28.698182" lon="104.519252"><ele>320.0187</ele><time>2026-02-28T17:18:38.000Z</time></trkpt>
        <trkpt lat="28.698207" lon="104.519212"><ele>319.7702</ele><time>2026-02-28T17:18:42.000Z</time></trkpt>
        <trkpt lat="28.698251" lon="104.519172"><ele>319.51395</ele><time>2026-02-28T17:18:47.000Z</time></trkpt>
        <trkpt lat="28.698292" lon="104.519137"><ele>319.46405</ele><time>2026-02-28T17:18:51.000Z</time></trkpt>
        <trkpt lat="28.698334" lon="104.519104"><ele>319.2103</ele><time>2026-02-28T17:18:55.000Z</time></trkpt>
        <trkpt lat="28.69837" lon="104.519067"><ele>319.0376</ele><time>2026-02-28T17:18:59.000Z</time></trkpt>
        <trkpt lat="28.698408" lon="104.519016"><ele>318.7657</ele><time>2026-02-28T17:19:07.000Z</time></trkpt>
        <trkpt lat="28.698433" lon="104.518986"><ele>318.72433</ele><time>2026-02-28T17:19:11.000Z</time></trkpt>
        <trkpt lat="28.698477" lon="104.518964"><ele>318.8242</ele><time>2026-02-28T17:19:15.000Z</time></trkpt>
        <trkpt lat="28.698519" lon="104.518935"><ele>318.3932</ele><time>2026-02-28T17:19:19.000Z</time></trkpt>
        <trkpt lat="28.698564" lon="104.518897"><ele>318.41495</ele><time>2026-02-28T17:19:23.000Z</time></trkpt>
        <trkpt lat="28.698603" lon="104.518855"><ele>318.57797</ele><time>2026-02-28T17:19:27.000Z</time></trkpt>
        <trkpt lat="28.698646" lon="104.518819"><ele>318.15607</ele><time>2026-02-28T17:19:31.000Z</time></trkpt>
        <trkpt lat="28.698687" lon="104.518782"><ele>317.6698</ele><time>2026-02-28T17:19:35.000Z</time></trkpt>
        <trkpt lat="28.698726" lon="104.518749"><ele>316.34412</ele><time>2026-02-28T17:19:39.000Z</time></trkpt>
        <trkpt lat="28.698776" lon="104.518716"><ele>315.17447</ele><time>2026-02-28T17:19:44.000Z</time></trkpt>
        <trkpt lat="28.698819" lon="104.51869"><ele>314.2277</ele><time>2026-02-28T17:19:48.000Z</time></trkpt>
        <trkpt lat="28.698865" lon="104.518662"><ele>313.1088</ele><time>2026-02-28T17:19:52.000Z</time></trkpt>
        <trkpt lat="28.69891" lon="104.518628"><ele>312.21362</ele><time>2026-02-28T17:19:56.000Z</time></trkpt>
        <trkpt lat="28.698956" lon="104.518591"><ele>311.50272</ele><time>2026-02-28T17:20:00.000Z</time></trkpt>
        <trkpt lat="28.698999" lon="104.518552"><ele>311.14413</ele><time>2026-02-28T17:20:04.000Z</time></trkpt>
        <trkpt lat="28.699039" lon="104.518518"><ele>310.5719</ele><time>2026-02-28T17:20:08.000Z</time></trkpt>
        <trkpt lat="28.699081" lon="104.518483"><ele>310.01666</ele><time>2026-02-28T17:20:12.000Z</time></trkpt>
        <trkpt lat="28.699123" lon="104.518445"><ele>309.0933</ele><time>2026-02-28T17:20:16.000Z</time></trkpt>
        <trkpt lat="28.69917" lon="104.518405"><ele>308.96317</ele><time>2026-02-28T17:20:20.000Z</time></trkpt>
        <trkpt lat="28.699211" lon="104.518369"><ele>308.37064</ele><time>2026-02-28T17:20:24.000Z</time></trkpt>
        <trkpt lat="28.699253" lon="104.518328"><ele>308.44107</ele><time>2026-02-28T17:20:28.000Z</time></trkpt>
        <trkpt lat="28.699296" lon="104.518286"><ele>308.8858</ele><time>2026-02-28T17:20:32.000Z</time></trkpt>
        <trkpt lat="28.699341" lon="104.518248"><ele>309.78793</ele><time>2026-02-28T17:20:36.000Z</time></trkpt>
        <trkpt lat="28.699381" lon="104.518203"><ele>310.55014</ele><time>2026-02-28T17:20:40.000Z</time></trkpt>
        <trkpt lat="28.699423" lon="104.518163"><ele>310.93362</ele><time>2026-02-28T17:20:44.000Z</time></trkpt>
        <trkpt lat="28.699467" lon="104.518121"><ele>311.38626</ele><time>2026-02-28T17:20:48.000Z</time></trkpt>
        <trkpt lat="28.699511" lon="104.518085"><ele>310.89697</ele><time>2026-02-28T17:20:52.000Z</time></trkpt>
        <trkpt lat="28.699552" lon="104.518049"><ele>310.21338</ele><time>2026-02-28T17:20:56.000Z</time></trkpt>
        <trkpt lat="28.699595" lon="104.518022"><ele>308.74628</ele><time>2026-02-28T17:21:00.000Z</time></trkpt>
        <trkpt lat="28.699646" lon="104.517999"><ele>307.41226</ele><time>2026-02-28T17:21:04.000Z</time></trkpt>
        <trkpt lat="28.699696" lon="104.517967"><ele>306.92584</ele><time>2026-02-28T17:21:08.000Z</time></trkpt>
        <trkpt lat="28.699738" lon="104.517933"><ele>306.46188</ele><time>2026-02-28T17:21:12.000Z</time></trkpt>
        <trkpt lat="28.699769" lon="104.517897"><ele>306.9833</ele><time>2026-02-28T17:21:15.000Z</time></trkpt>
        <trkpt lat="28.699801" lon="104.517858"><ele>307.75385</ele><time>2026-02-28T17:21:18.000Z</time></trkpt>
        <trkpt lat="28.699842" lon="104.51783"><ele>307.74246</ele><time>2026-02-28T17:21:21.000Z</time></trkpt>
        <trkpt lat="28.699881" lon="104.517799"><ele>307.89163</ele><time>2026-02-28T17:21:24.000Z</time></trkpt>
        <trkpt lat="28.699919" lon="104.51777"><ele>308.3088</ele><time>2026-02-28T17:21:27.000Z</time></trkpt>
        <trkpt lat="28.699955" lon="104.517737"><ele>308.28027</ele><time>2026-02-28T17:21:30.000Z</time></trkpt>
        <trkpt lat="28.699986" lon="104.517698"><ele>308.09393</ele><time>2026-02-28T17:21:33.000Z</time></trkpt>
        <trkpt lat="28.700035" lon="104.517664"><ele>307.5201</ele><time>2026-02-28T17:21:37.000Z</time></trkpt>
        <trkpt lat="28.700083" lon="104.517632"><ele>307.29013</ele><time>2026-02-28T17:21:41.000Z</time></trkpt>
        <trkpt lat="28.700124" lon="104.517591"><ele>307.52045</ele><time>2026-02-28T17:21:45.000Z</time></trkpt>
        <trkpt lat="28.700162" lon="104.51757"><ele>307.6343</ele><time>2026-02-28T17:21:48.000Z</time></trkpt>
        <trkpt lat="28.700207" lon="104.517538"><ele>308.02957</ele><time>2026-02-28T17:21:52.000Z</time></trkpt>
        <trkpt lat="28.700248" lon="104.517498"><ele>308.63287</ele><time>2026-02-28T17:21:56.000Z</time></trkpt>
        <trkpt lat="28.700289" lon="104.517452"><ele>309.53284</ele><time>2026-02-28T17:22:01.000Z</time></trkpt>
        <trkpt lat="28.700314" lon="104.517417"><ele>309.10754</ele><time>2026-02-28T17:22:04.000Z</time></trkpt>
        <trkpt lat="28.700348" lon="104.517378"><ele>308.53253</ele><time>2026-02-28T17:22:08.000Z</time></trkpt>
        <trkpt lat="28.700392" lon="104.51735"><ele>308.85596</ele><time>2026-02-28T17:22:12.000Z</time></trkpt>
        <trkpt lat="28.700435" lon="104.517315"><ele>308.9317</ele><time>2026-02-28T17:22:16.000Z</time></trkpt>
        <trkpt lat="28.700478" lon="104.51728"><ele>309.40036</ele><time>2026-02-28T17:22:20.000Z</time></trkpt>
        <trkpt lat="28.700513" lon="104.517228"><ele>308.84113</ele><time>2026-02-28T17:22:24.000Z</time></trkpt>
        <trkpt lat="28.700548" lon="104.517183"><ele>309.13925</ele><time>2026-02-28T17:22:28.000Z</time></trkpt>
        <trkpt lat="28.700587" lon="104.517142"><ele>309.533</ele><time>2026-02-28T17:22:32.000Z</time></trkpt>
        <trkpt lat="28.700626" lon="104.517104"><ele>309.8982</ele><time>2026-02-28T17:22:36.000Z</time></trkpt>
        <trkpt lat="28.700657" lon="104.517057"><ele>310.8531</ele><time>2026-02-28T17:22:40.000Z</time></trkpt>
        <trkpt lat="28.700685" lon="104.517012"><ele>311.52872</ele><time>2026-02-28T17:22:44.000Z</time></trkpt>
        <trkpt lat="28.700709" lon="104.516974"><ele>312.3425</ele><time>2026-02-28T17:22:47.000Z</time></trkpt>
        <trkpt lat="28.700739" lon="104.516929"><ele>312.60483</ele><time>2026-02-28T17:22:51.000Z</time></trkpt>
        <trkpt lat="28.700767" lon="104.516882"><ele>312.7692</ele><time>2026-02-28T17:22:55.000Z</time></trkpt>
        <trkpt lat="28.700801" lon="104.516839"><ele>313.40186</ele><time>2026-02-28T17:22:59.000Z</time></trkpt>
        <trkpt lat="28.700836" lon="104.5168"><ele>313.71927</ele><time>2026-02-28T17:23:03.000Z</time></trkpt>
        <trkpt lat="28.700871" lon="104.516762"><ele>314.16736</ele><time>2026-02-28T17:23:07.000Z</time></trkpt>
        <trkpt lat="28.700903" lon="104.516722"><ele>313.8421</ele><time>2026-02-28T17:23:11.000Z</time></trkpt>
        <trkpt lat="28.700936" lon="104.516667"><ele>313.14984</ele><time>2026-02-28T17:23:15.000Z</time></trkpt>
        <trkpt lat="28.700962" lon="104.516605"><ele>312.65213</ele><time>2026-02-28T17:23:21.000Z</time></trkpt>
        <trkpt lat="28.70096" lon="104.516552"><ele>312.427</ele><time>2026-02-28T17:23:25.000Z</time></trkpt>
        <trkpt lat="28.700954" lon="104.516498"><ele>313.11472</ele><time>2026-02-28T17:23:28.000Z</time></trkpt>
        <trkpt lat="28.700972" lon="104.516439"><ele>314.35736</ele><time>2026-02-28T17:23:32.000Z</time></trkpt>
        <trkpt lat="28.701007" lon="104.516389"><ele>316.1844</ele><time>2026-02-28T17:23:36.000Z</time></trkpt>
        <trkpt lat="28.701048" lon="104.516345"><ele>318.09</ele><time>2026-02-28T17:23:40.000Z</time></trkpt>
        <trkpt lat="28.701076" lon="104.516303"><ele>319.13202</ele><time>2026-02-28T17:23:43.000Z</time></trkpt>
        <trkpt lat="28.701119" lon="104.516265"><ele>320.5958</ele><time>2026-02-28T17:23:47.000Z</time></trkpt>
        <trkpt lat="28.701157" lon="104.516223"><ele>321.98752</ele><time>2026-02-28T17:23:51.000Z</time></trkpt>
        <trkpt lat="28.701201" lon="104.516191"><ele>322.72833</ele><time>2026-02-28T17:23:55.000Z</time></trkpt>
        <trkpt lat="28.701246" lon="104.51615"><ele>322.0739</ele><time>2026-02-28T17:24:01.000Z</time></trkpt>
        <trkpt lat="28.701276" lon="104.516117"><ele>323.12997</ele><time>2026-02-28T17:24:05.000Z</time></trkpt>
        <trkpt lat="28.701308" lon="104.516082"><ele>324.3017</ele><time>2026-02-28T17:24:09.000Z</time></trkpt>
        <trkpt lat="28.701344" lon="104.516047"><ele>325.1785</ele><time>2026-02-28T17:24:13.000Z</time></trkpt>
        <trkpt lat="28.701383" lon="104.516006"><ele>325.50702</ele><time>2026-02-28T17:24:18.000Z</time></trkpt>
        <trkpt lat="28.701417" lon="104.515965"><ele>327.07513</ele><time>2026-02-28T17:24:22.000Z</time></trkpt>
        <trkpt lat="28.70146" lon="104.51592"><ele>327.12384</ele><time>2026-02-28T17:24:27.000Z</time></trkpt>
        <trkpt lat="28.7015" lon="104.515874"><ele>327.31635</ele><time>2026-02-28T17:24:31.000Z</time></trkpt>
        <trkpt lat="28.701537" lon="104.515829"><ele>327.38507</ele><time>2026-02-28T17:24:36.000Z</time></trkpt>
        <trkpt lat="28.701569" lon="104.515787"><ele>328.69067</ele><time>2026-02-28T17:24:41.000Z</time></trkpt>
        <trkpt lat="28.701602" lon="104.515754"><ele>328.1413</ele><time>2026-02-28T17:24:45.000Z</time></trkpt>
        <trkpt lat="28.701641" lon="104.515715"><ele>328.68127</ele><time>2026-02-28T17:24:50.000Z</time></trkpt>
        <trkpt lat="28.701671" lon="104.515677"><ele>329.28726</ele><time>2026-02-28T17:24:54.000Z</time></trkpt>
        <trkpt lat="28.701715" lon="104.515633"><ele>329.55493</ele><time>2026-02-28T17:24:59.000Z</time></trkpt>
        <trkpt lat="28.70174" lon="104.515584"><ele>329.37122</ele><time>2026-02-28T17:25:04.000Z</time></trkpt>
        <trkpt lat="28.701764" lon="104.515543"><ele>330.4478</ele><time>2026-02-28T17:25:08.000Z</time></trkpt>
        <trkpt lat="28.701809" lon="104.515496"><ele>331.8118</ele><time>2026-02-28T17:25:13.000Z</time></trkpt>
        <trkpt lat="28.701852" lon="104.51545"><ele>332.56244</ele><time>2026-02-28T17:25:18.000Z</time></trkpt>
        <trkpt lat="28.701889" lon="104.515409"><ele>333.59647</ele><time>2026-02-28T17:25:23.000Z</time></trkpt>
        <trkpt lat="28.701922" lon="104.515371"><ele>334.29886</ele><time>2026-02-28T17:25:27.000Z</time></trkpt>
        <trkpt lat="28.701962" lon="104.515316"><ele>334.47482</ele><time>2026-02-28T17:25:33.000Z</time></trkpt>
        <trkpt lat="28.701992" lon="104.515273"><ele>333.66547</ele><time>2026-02-28T17:25:38.000Z</time></trkpt>
        <trkpt lat="28.702021" lon="104.515229"><ele>334.26624</ele><time>2026-02-28T17:25:42.000Z</time></trkpt>
        <trkpt lat="28.702045" lon="104.515178"><ele>334.37994</ele><time>2026-02-28T17:25:46.000Z</time></trkpt>
        <trkpt lat="28.702065" lon="104.515126"><ele>335.10995</ele><time>2026-02-28T17:25:50.000Z</time></trkpt>
        <trkpt lat="28.702095" lon="104.515083"><ele>334.38388</ele><time>2026-02-28T17:25:54.000Z</time></trkpt>
        <trkpt lat="28.702125" lon="104.515037"><ele>335.17303</ele><time>2026-02-28T17:25:58.000Z</time></trkpt>
        <trkpt lat="28.702155" lon="104.514983"><ele>335.47357</ele><time>2026-02-28T17:26:03.000Z</time></trkpt>
        <trkpt lat="28.702184" lon="104.514931"><ele>337.0674</ele><time>2026-02-28T17:26:07.000Z</time></trkpt>
        <trkpt lat="28.702206" lon="104.514867"><ele>337.31244</ele><time>2026-02-28T17:26:12.000Z</time></trkpt>
        <trkpt lat="28.702231" lon="104.51482"><ele>337.73276</ele><time>2026-02-28T17:26:16.000Z</time></trkpt>
        <trkpt lat="28.702264" lon="104.514764"><ele>336.52554</ele><time>2026-02-28T17:26:22.000Z</time></trkpt>
        <trkpt lat="28.702285" lon="104.514713"><ele>336.93924</ele><time>2026-02-28T17:26:26.000Z</time></trkpt>
        <trkpt lat="28.702315" lon="104.514656"><ele>336.91742</ele><time>2026-02-28T17:26:31.000Z</time></trkpt>
        <trkpt lat="28.702342" lon="104.51461"><ele>337.05887</ele><time>2026-02-28T17:26:35.000Z</time></trkpt>
        <trkpt lat="28.702366" lon="104.51456"><ele>338.14197</ele><time>2026-02-28T17:26:39.000Z</time></trkpt>
        <trkpt lat="28.702393" lon="104.514509"><ele>338.12646</ele><time>2026-02-28T17:26:43.000Z</time></trkpt>
        <trkpt lat="28.70242" lon="104.514445"><ele>339.28552</ele><time>2026-02-28T17:26:48.000Z</time></trkpt>
        <trkpt lat="28.702452" lon="104.514389"><ele>339.6846</ele><time>2026-02-28T17:26:53.000Z</time></trkpt>
        <trkpt lat="28.702485" lon="104.514334"><ele>339.98703</ele><time>2026-02-28T17:26:58.000Z</time></trkpt>
        <trkpt lat="28.702507" lon="104.514288"><ele>339.64075</ele><time>2026-02-28T17:27:02.000Z</time></trkpt>
        <trkpt lat="28.702524" lon="104.514235"><ele>339.3158</ele><time>2026-02-28T17:27:07.000Z</time></trkpt>
        <trkpt lat="28.702537" lon="104.514181"><ele>339.42413</ele><time>2026-02-28T17:27:11.000Z</time></trkpt>
        <trkpt lat="28.702549" lon="104.514125"><ele>340.1454</ele><time>2026-02-28T17:27:15.000Z</time></trkpt>
        <trkpt lat="28.702564" lon="104.514061"><ele>340.55798</ele><time>2026-02-28T17:27:19.000Z</time></trkpt>
        <trkpt lat="28.702586" lon="104.513993"><ele>339.66568</ele><time>2026-02-28T17:27:25.000Z</time></trkpt>
        <trkpt lat="28.702586" lon="104.513948"><ele>340.30576</ele><time>2026-02-28T17:27:28.000Z</time></trkpt>
        <trkpt lat="28.702599" lon="104.51389"><ele>340.283</ele><time>2026-02-28T17:27:33.000Z</time></trkpt>
        <trkpt lat="28.702617" lon="104.513839"><ele>341.02216</ele><time>2026-02-28T17:27:38.000Z</time></trkpt>
        <trkpt lat="28.70263" lon="104.513793"><ele>342.23184</ele><time>2026-02-28T17:27:42.000Z</time></trkpt>
        <trkpt lat="28.702646" lon="104.513736"><ele>343.17813</ele><time>2026-02-28T17:27:47.000Z</time></trkpt>
        <trkpt lat="28.702664" lon="104.513771"><ele>343.78024</ele><time>2026-02-28T17:27:54.000Z</time></trkpt>
        <trkpt lat="28.702664" lon="104.51383"><ele>343.66446</ele><time>2026-02-28T17:27:58.000Z</time></trkpt>
        <trkpt lat="28.702644" lon="104.513887"><ele>343.3375</ele><time>2026-02-28T17:28:02.000Z</time></trkpt>
        <trkpt lat="28.702598" lon="104.513897"><ele>343.16104</ele><time>2026-02-28T17:28:07.000Z</time></trkpt>
        <trkpt lat="28.70257" lon="104.513837"><ele>344.37436</ele><time>2026-02-28T17:28:22.000Z</time></trkpt>
        <trkpt lat="28.702537" lon="104.513802"><ele>345.6087</ele><time>2026-02-28T17:28:30.000Z</time></trkpt>
        <trkpt lat="28.702523" lon="104.513762"><ele>346.25076</ele><time>2026-02-28T17:28:35.000Z</time></trkpt>
        <trkpt lat="28.702487" lon="104.513728"><ele>347.15973</ele><time>2026-02-28T17:28:41.000Z</time></trkpt>
        <trkpt lat="28.702443" lon="104.513718"><ele>348.13034</ele><time>2026-02-28T17:28:46.000Z</time></trkpt>
        <trkpt lat="28.702396" lon="104.513701"><ele>348.3323</ele><time>2026-02-28T17:28:51.000Z</time></trkpt>
        <trkpt lat="28.70235" lon="104.513674"><ele>348.77264</ele><time>2026-02-28T17:28:56.000Z</time></trkpt>
        <trkpt lat="28.702302" lon="104.513643"><ele>349.77792</ele><time>2026-02-28T17:29:01.000Z</time></trkpt>
        <trkpt lat="28.702248" lon="104.513625"><ele>351.03772</ele><time>2026-02-28T17:29:06.000Z</time></trkpt>
        <trkpt lat="28.70219" lon="104.51362"><ele>352.23038</ele><time>2026-02-28T17:29:11.000Z</time></trkpt>
        <trkpt lat="28.702132" lon="104.513635"><ele>353.7861</ele><time>2026-02-28T17:29:16.000Z</time></trkpt>
        <trkpt lat="28.702096" lon="104.513613"><ele>355.07013</ele><time>2026-02-28T17:29:20.000Z</time></trkpt>
        <trkpt lat="28.702101" lon="104.513564"><ele>355.96878</ele><time>2026-02-28T17:29:24.000Z</time></trkpt>
        <trkpt lat="28.702105" lon="104.513509"><ele>357.1751</ele><time>2026-02-28T17:29:28.000Z</time></trkpt>
        <trkpt lat="28.702075" lon="104.513503"><ele>358.46524</ele><time>2026-02-28T17:29:34.000Z</time></trkpt>
        <trkpt lat="28.702039" lon="104.513552"><ele>358.9772</ele><time>2026-02-28T17:29:40.000Z</time></trkpt>
        <trkpt lat="28.702002" lon="104.513595"><ele>359.35446</ele><time>2026-02-28T17:29:45.000Z</time></trkpt>
        <trkpt lat="28.701965" lon="104.513625"><ele>359.74847</ele><time>2026-02-28T17:29:49.000Z</time></trkpt>
        <trkpt lat="28.701922" lon="104.513663"><ele>360.14743</ele><time>2026-02-28T17:29:54.000Z</time></trkpt>
        <trkpt lat="28.701881" lon="104.513693"><ele>360.38528</ele><time>2026-02-28T17:29:59.000Z</time></trkpt>
        <trkpt lat="28.701846" lon="104.513672"><ele>360.66727</ele><time>2026-02-28T17:30:04.000Z</time></trkpt>
        <trkpt lat="28.70184" lon="104.513612"><ele>361.46545</ele><time>2026-02-28T17:30:11.000Z</time></trkpt>
        <trkpt lat="28.701848" lon="104.51355"><ele>362.86926</ele><time>2026-02-28T17:30:19.000Z</time></trkpt>
        <trkpt lat="28.701847" lon="104.513497"><ele>364.7508</ele><time>2026-02-28T17:30:31.000Z</time></trkpt>
        <trkpt lat="28.701833" lon="104.513424"><ele>366.28912</ele><time>2026-02-28T17:33:20.000Z</time></trkpt>
        <trkpt lat="28.701806" lon="104.513372"><ele>368.50854</ele><time>2026-02-28T17:33:31.000Z</time></trkpt>
        <trkpt lat="28.701803" lon="104.513299"><ele>370.00696</ele><time>2026-02-28T17:33:40.000Z</time></trkpt>
        <trkpt lat="28.701812" lon="104.513233"><ele>371.6135</ele><time>2026-02-28T17:33:49.000Z</time></trkpt>
        <trkpt lat="28.701813" lon="104.513172"><ele>374.61258</ele><time>2026-02-28T17:33:57.000Z</time></trkpt>
        <trkpt lat="28.701813" lon="104.513117"><ele>376.8525</ele><time>2026-02-28T17:34:05.000Z</time></trkpt>
        <trkpt lat="28.701819" lon="104.513062"><ele>378.80475</ele><time>2026-02-28T17:34:19.000Z</time></trkpt>
        <trkpt lat="28.701834" lon="104.513013"><ele>379.82297</ele><time>2026-02-28T17:34:42.000Z</time></trkpt>
        <trkpt lat="28.701816" lon="104.512972"><ele>380.66855</ele><time>2026-02-28T17:34:50.000Z</time></trkpt>
        <trkpt lat="28.701827" lon="104.512915"><ele>382.82962</ele><time>2026-02-28T17:35:05.000Z</time></trkpt>
        <trkpt lat="28.701846" lon="104.512851"><ele>383.19583</ele><time>2026-02-28T17:35:23.000Z</time></trkpt>
        <trkpt lat="28.701837" lon="104.512806"><ele>384.77365</ele><time>2026-02-28T17:35:29.000Z</time></trkpt>
        <trkpt lat="28.701872" lon="104.512771"><ele>387.3288</ele><time>2026-02-28T17:35:41.000Z</time></trkpt>
        <trkpt lat="28.701869" lon="104.512728"><ele>387.5238</ele><time>2026-02-28T17:35:47.000Z</time></trkpt>
        <trkpt lat="28.701867" lon="104.512659"><ele>389.0658</ele><time>2026-02-28T17:35:54.000Z</time></trkpt>
        <trkpt lat="28.701907" lon="104.512635"><ele>389.47095</ele><time>2026-02-28T17:35:59.000Z</time></trkpt>
        <trkpt lat="28.701959" lon="104.512606"><ele>391.10507</ele><time>2026-02-28T17:36:06.000Z</time></trkpt>
        <trkpt lat="28.701975" lon="104.512558"><ele>392.8036</ele><time>2026-02-28T17:36:15.000Z</time></trkpt>
        <trkpt lat="28.702013" lon="104.512536"><ele>393.48877</ele><time>2026-02-28T17:36:22.000Z</time></trkpt>
        <trkpt lat="28.702028" lon="104.512489"><ele>394.29816</ele><time>2026-02-28T17:36:30.000Z</time></trkpt>
        <trkpt lat="28.702017" lon="104.512431"><ele>396.25415</ele><time>2026-02-28T17:36:43.000Z</time></trkpt>
        <trkpt lat="28.702003" lon="104.512385"><ele>397.49866</ele><time>2026-02-28T17:36:50.000Z</time></trkpt>
        <trkpt lat="28.70201" lon="104.512331"><ele>399.01715</ele><time>2026-02-28T17:36:56.000Z</time></trkpt>
        <trkpt lat="28.702025" lon="104.512282"><ele>399.22937</ele><time>2026-02-28T17:37:01.000Z</time></trkpt>
        <trkpt lat="28.70202" lon="104.512225"><ele>400.5679</ele><time>2026-02-28T17:37:08.000Z</time></trkpt>
        <trkpt lat="28.702005" lon="104.512172"><ele>402.17334</ele><time>2026-02-28T17:37:16.000Z</time></trkpt>
        <trkpt lat="28.701997" lon="104.512121"><ele>403.32367</ele><time>2026-02-28T17:37:22.000Z</time></trkpt>
        <trkpt lat="28.701995" lon="104.512066"><ele>404.31635</ele><time>2026-02-28T17:37:28.000Z</time></trkpt>
        <trkpt lat="28.701992" lon="104.512005"><ele>405.60876</ele><time>2026-02-28T17:37:36.000Z</time></trkpt>
        <trkpt lat="28.701995" lon="104.511942"><ele>405.26117</ele><time>2026-02-28T17:37:44.000Z</time></trkpt>
        <trkpt lat="28.702017" lon="104.511904"><ele>405.53195</ele><time>2026-02-28T17:37:47.000Z</time></trkpt>
        <trkpt lat="28.702025" lon="104.511838"><ele>405.15466</ele><time>2026-02-28T17:37:53.000Z</time></trkpt>
        <trkpt lat="28.702025" lon="104.511775"><ele>406.13986</ele><time>2026-02-28T17:38:01.000Z</time></trkpt>
        <trkpt lat="28.702035" lon="104.511726"><ele>406.68625</ele><time>2026-02-28T17:38:06.000Z</time></trkpt>
        <trkpt lat="28.702063" lon="104.511678"><ele>406.8377</ele><time>2026-02-28T17:38:13.000Z</time></trkpt>
        <trkpt lat="28.702095" lon="104.511636"><ele>407.27026</ele><time>2026-02-28T17:38:20.000Z</time></trkpt>
        <trkpt lat="28.702137" lon="104.5116"><ele>408.38925</ele><time>2026-02-28T17:38:25.000Z</time></trkpt>
        <trkpt lat="28.702175" lon="104.511556"><ele>407.76175</ele><time>2026-02-28T17:38:30.000Z</time></trkpt>
        <trkpt lat="28.702204" lon="104.511503"><ele>407.9137</ele><time>2026-02-28T17:38:35.000Z</time></trkpt>
        <trkpt lat="28.702218" lon="104.511442"><ele>408.0553</ele><time>2026-02-28T17:38:41.000Z</time></trkpt>
        <trkpt lat="28.702243" lon="104.511383"><ele>409.28848</ele><time>2026-02-28T17:38:56.000Z</time></trkpt>
        <trkpt lat="28.702257" lon="104.511343"><ele>409.90186</ele><time>2026-02-28T17:39:01.000Z</time></trkpt>
        <trkpt lat="28.702278" lon="104.51129"><ele>409.52823</ele><time>2026-02-28T17:39:06.000Z</time></trkpt>
        <trkpt lat="28.7023" lon="104.511242"><ele>408.81808</ele><time>2026-02-28T17:39:10.000Z</time></trkpt>
        <trkpt lat="28.70231" lon="104.511182"><ele>408.52112</ele><time>2026-02-28T17:39:16.000Z</time></trkpt>
        <trkpt lat="28.702317" lon="104.511128"><ele>410.05667</ele><time>2026-02-28T17:39:29.000Z</time></trkpt>
        <trkpt lat="28.702336" lon="104.511084"><ele>410.47623</ele><time>2026-02-28T17:39:39.000Z</time></trkpt>
        <trkpt lat="28.702346" lon="104.511034"><ele>410.8623</ele><time>2026-02-28T17:39:46.000Z</time></trkpt>
        <trkpt lat="28.702366" lon="104.510987"><ele>412.32635</ele><time>2026-02-28T17:39:52.000Z</time></trkpt>
        <trkpt lat="28.702381" lon="104.510929"><ele>413.63495</ele><time>2026-02-28T17:39:59.000Z</time></trkpt>
        <trkpt lat="28.702409" lon="104.510886"><ele>413.9243</ele><time>2026-02-28T17:40:07.000Z</time></trkpt>
        <trkpt lat="28.702405" lon="104.510829"><ele>415.28275</ele><time>2026-02-28T17:40:15.000Z</time></trkpt>
        <trkpt lat="28.702413" lon="104.510768"><ele>416.39105</ele><time>2026-02-28T17:40:23.000Z</time></trkpt>
        <trkpt lat="28.702419" lon="104.51071"><ele>417.95047</ele><time>2026-02-28T17:40:31.000Z</time></trkpt>
        <trkpt lat="28.702418" lon="104.510653"><ele>420.39172</ele><time>2026-02-28T17:40:40.000Z</time></trkpt>
        <trkpt lat="28.702426" lon="104.510595"><ele>422.3612</ele><time>2026-02-28T17:40:48.000Z</time></trkpt>
        <trkpt lat="28.702447" lon="104.510536"><ele>424.5288</ele><time>2026-02-28T17:40:56.000Z</time></trkpt>
        <trkpt lat="28.702421" lon="104.510585"><ele>425.4179</ele><time>2026-02-28T17:43:51.000Z</time></trkpt>
        <trkpt lat="28.702433" lon="104.510533"><ele>425.8682</ele><time>2026-02-28T17:44:34.000Z</time></trkpt>
        <trkpt lat="28.702471" lon="104.510571"><ele>424.9369</ele><time>2026-02-28T17:45:07.000Z</time></trkpt>
        <trkpt lat="28.702475" lon="104.510522"><ele>427.20966</ele><time>2026-02-28T17:45:28.000Z</time></trkpt>
        <trkpt lat="28.702507" lon="104.51048"><ele>428.66656</ele><time>2026-02-28T17:45:36.000Z</time></trkpt>
        <trkpt lat="28.702525" lon="104.510436"><ele>429.9111</ele><time>2026-02-28T17:45:44.000Z</time></trkpt>
        <trkpt lat="28.702532" lon="104.51038"><ele>430.64594</ele><time>2026-02-28T17:45:55.000Z</time></trkpt>
        <trkpt lat="28.702568" lon="104.510342"><ele>431.95392</ele><time>2026-02-28T17:46:02.000Z</time></trkpt>
        <trkpt lat="28.702613" lon="104.51031"><ele>432.57614</ele><time>2026-02-28T17:46:08.000Z</time></trkpt>
        <trkpt lat="28.702653" lon="104.510279"><ele>433.53033</ele><time>2026-02-28T17:46:14.000Z</time></trkpt>
        <trkpt lat="28.702652" lon="104.510231"><ele>433.51605</ele><time>2026-02-28T17:46:21.000Z</time></trkpt>
        <trkpt lat="28.702635" lon="104.510175"><ele>435.08636</ele><time>2026-02-28T17:46:28.000Z</time></trkpt>
        <trkpt lat="28.702615" lon="104.510122"><ele>435.93854</ele><time>2026-02-28T17:46:40.000Z</time></trkpt>
        <trkpt lat="28.702615" lon="104.510067"><ele>437.73483</ele><time>2026-02-28T17:46:46.000Z</time></trkpt>
        <trkpt lat="28.702611" lon="104.510002"><ele>438.7001</ele><time>2026-02-28T17:46:56.000Z</time></trkpt>
        <trkpt lat="28.702599" lon="104.509943"><ele>440.7481</ele><time>2026-02-28T17:47:07.000Z</time></trkpt>
        <trkpt lat="28.702573" lon="104.509903"><ele>443.0963</ele><time>2026-02-28T17:47:15.000Z</time></trkpt>
        <trkpt lat="28.702564" lon="104.509846"><ele>445.39935</ele><time>2026-02-28T17:47:24.000Z</time></trkpt>
        <trkpt lat="28.702579" lon="104.509789"><ele>447.61966</ele><time>2026-02-28T17:47:50.000Z</time></trkpt>
        <trkpt lat="28.702583" lon="104.509747"><ele>448.93268</ele><time>2026-02-28T17:47:56.000Z</time></trkpt>
        <trkpt lat="28.702582" lon="104.509681"><ele>449.7018</ele><time>2026-02-28T17:48:05.000Z</time></trkpt>
        <trkpt lat="28.702596" lon="104.509631"><ele>452.23337</ele><time>2026-02-28T17:48:13.000Z</time></trkpt>
        <trkpt lat="28.702595" lon="104.509576"><ele>453.53265</ele><time>2026-02-28T17:48:38.000Z</time></trkpt>
        <trkpt lat="28.702551" lon="104.509581"><ele>454.01532</ele><time>2026-02-28T17:48:44.000Z</time></trkpt>
        <trkpt lat="28.702502" lon="104.50956"><ele>455.4817</ele><time>2026-02-28T17:48:49.000Z</time></trkpt>
        <trkpt lat="28.702458" lon="104.50954"><ele>456.85333</ele><time>2026-02-28T17:48:53.000Z</time></trkpt>
        <trkpt lat="28.702421" lon="104.509507"><ele>457.74472</ele><time>2026-02-28T17:48:57.000Z</time></trkpt>
        <trkpt lat="28.702456" lon="104.509468"><ele>459.98328</ele><time>2026-02-28T17:49:17.000Z</time></trkpt>
        <trkpt lat="28.702507" lon="104.509486"><ele>460.43094</ele><time>2026-02-28T17:49:25.000Z</time></trkpt>
        <trkpt lat="28.702551" lon="104.509487"><ele>460.03754</ele><time>2026-02-28T17:49:33.000Z</time></trkpt>
        <trkpt lat="28.702587" lon="104.509442"><ele>458.7561</ele><time>2026-02-28T17:49:48.000Z</time></trkpt>
        <trkpt lat="28.702585" lon="104.509386"><ele>460.72855</ele><time>2026-02-28T17:50:24.000Z</time></trkpt>
        <trkpt lat="28.702595" lon="104.509346"><ele>462.05444</ele><time>2026-02-28T17:50:30.000Z</time></trkpt>
        <trkpt lat="28.70261" lon="104.509287"><ele>463.85675</ele><time>2026-02-28T17:50:40.000Z</time></trkpt>
        <trkpt lat="28.702632" lon="104.509235"><ele>463.94876</ele><time>2026-02-28T17:50:49.000Z</time></trkpt>
        <trkpt lat="28.702635" lon="104.509186"><ele>464.28183</ele><time>2026-02-28T17:50:54.000Z</time></trkpt>
        <trkpt lat="28.702641" lon="104.509126"><ele>465.13873</ele><time>2026-02-28T17:51:01.000Z</time></trkpt>
        <trkpt lat="28.702653" lon="104.509068"><ele>467.02792</ele><time>2026-02-28T17:51:10.000Z</time></trkpt>
        <trkpt lat="28.702657" lon="104.509022"><ele>468.10458</ele><time>2026-02-28T17:51:15.000Z</time></trkpt>
        <trkpt lat="28.702671" lon="104.508968"><ele>468.9746</ele><time>2026-02-28T17:51:22.000Z</time></trkpt>
        <trkpt lat="28.702679" lon="104.508896"><ele>470.82193</ele><time>2026-02-28T17:51:31.000Z</time></trkpt>
        <trkpt lat="28.702677" lon="104.508836"><ele>473.12305</ele><time>2026-02-28T17:51:53.000Z</time></trkpt>
        <trkpt lat="28.702685" lon="104.50879"><ele>473.60056</ele><time>2026-02-28T17:52:00.000Z</time></trkpt>
        <trkpt lat="28.702688" lon="104.508732"><ele>475.33914</ele><time>2026-02-28T17:52:05.000Z</time></trkpt>
        <trkpt lat="28.70267" lon="104.508672"><ele>475.96475</ele><time>2026-02-28T17:52:11.000Z</time></trkpt>
        <trkpt lat="28.702697" lon="104.508641"><ele>476.3111</ele><time>2026-02-28T17:52:17.000Z</time></trkpt>
        <trkpt lat="28.702698" lon="104.508602"><ele>477.2486</ele><time>2026-02-28T17:52:22.000Z</time></trkpt>
        <trkpt lat="28.702698" lon="104.508542"><ele>478.65518</ele><time>2026-02-28T17:52:30.000Z</time></trkpt>
        <trkpt lat="28.702678" lon="104.508503"><ele>479.24475</ele><time>2026-02-28T17:52:34.000Z</time></trkpt>
        <trkpt lat="28.702662" lon="104.508435"><ele>480.75476</ele><time>2026-02-28T17:52:44.000Z</time></trkpt>
        <trkpt lat="28.70266" lon="104.50838"><ele>481.81555</ele><time>2026-02-28T17:52:51.000Z</time></trkpt>
        <trkpt lat="28.702656" lon="104.508319"><ele>484.2146</ele><time>2026-02-28T17:53:02.000Z</time></trkpt>
        <trkpt lat="28.702662" lon="104.508271"><ele>484.3247</ele><time>2026-02-28T17:53:07.000Z</time></trkpt>
        <trkpt lat="28.702677" lon="104.508215"><ele>484.19037</ele><time>2026-02-28T17:53:14.000Z</time></trkpt>
        <trkpt lat="28.702675" lon="104.508164"><ele>485.2343</ele><time>2026-02-28T17:53:20.000Z</time></trkpt>
        <trkpt lat="28.702659" lon="104.508104"><ele>486.69055</ele><time>2026-02-28T17:53:30.000Z</time></trkpt>
        <trkpt lat="28.702654" lon="104.508052"><ele>487.90152</ele><time>2026-02-28T17:53:39.000Z</time></trkpt>
        <trkpt lat="28.702647" lon="104.507991"><ele>488.80307</ele><time>2026-02-28T17:53:47.000Z</time></trkpt>
        <trkpt lat="28.702639" lon="104.507929"><ele>490.66745</ele><time>2026-02-28T17:53:55.000Z</time></trkpt>
        <trkpt lat="28.702624" lon="104.507866"><ele>489.81134</ele><time>2026-02-28T17:54:04.000Z</time></trkpt>
        <trkpt lat="28.702622" lon="104.507804"><ele>492.40295</ele><time>2026-02-28T17:54:11.000Z</time></trkpt>
        <trkpt lat="28.70257" lon="104.507802"><ele>496.06213</ele><time>2026-02-28T17:54:42.000Z</time></trkpt>
        <trkpt lat="28.702536" lon="104.507803"><ele>496.011</ele><time>2026-02-28T17:54:46.000Z</time></trkpt>
        <trkpt lat="28.702506" lon="104.507733"><ele>496.94702</ele><time>2026-02-28T17:54:56.000Z</time></trkpt>
        <trkpt lat="28.702546" lon="104.507703"><ele>497.62424</ele><time>2026-02-28T17:55:04.000Z</time></trkpt>
        <trkpt lat="28.702552" lon="104.507646"><ele>497.54816</ele><time>2026-02-28T17:55:11.000Z</time></trkpt>
        <trkpt lat="28.702534" lon="104.50759"><ele>498.7717</ele><time>2026-02-28T17:55:17.000Z</time></trkpt>
        <trkpt lat="28.702523" lon="104.507529"><ele>500.13245</ele><time>2026-02-28T17:55:36.000Z</time></trkpt>
        <trkpt lat="28.702536" lon="104.507477"><ele>501.47446</ele><time>2026-02-28T17:56:27.000Z</time></trkpt>
        <trkpt lat="28.702532" lon="104.50742"><ele>504.62277</ele><time>2026-02-28T17:56:35.000Z</time></trkpt>
        <trkpt lat="28.702533" lon="104.507357"><ele>506.11536</ele><time>2026-02-28T17:56:44.000Z</time></trkpt>
        <trkpt lat="28.70252" lon="104.507299"><ele>506.7998</ele><time>2026-02-28T17:56:53.000Z</time></trkpt>
        <trkpt lat="28.702499" lon="104.507245"><ele>509.51642</ele><time>2026-02-28T17:57:05.000Z</time></trkpt>
        <trkpt lat="28.702481" lon="104.507209"><ele>510.3534</ele><time>2026-02-28T17:57:09.000Z</time></trkpt>
        <trkpt lat="28.702463" lon="104.507154"><ele>512.24255</ele><time>2026-02-28T17:57:15.000Z</time></trkpt>
        <trkpt lat="28.70244" lon="104.507098"><ele>513.53375</ele><time>2026-02-28T17:57:21.000Z</time></trkpt>
        <trkpt lat="28.702423" lon="104.507039"><ele>514.51196</ele><time>2026-02-28T17:57:34.000Z</time></trkpt>
        <trkpt lat="28.702409" lon="104.506984"><ele>515.34155</ele><time>2026-02-28T17:57:41.000Z</time></trkpt>
        <trkpt lat="28.702419" lon="104.506913"><ele>517.48706</ele><time>2026-02-28T17:57:55.000Z</time></trkpt>
        <trkpt lat="28.702416" lon="104.506867"><ele>517.9334</ele><time>2026-02-28T17:58:01.000Z</time></trkpt>
        <trkpt lat="28.702417" lon="104.506805"><ele>519.6697</ele><time>2026-02-28T17:58:07.000Z</time></trkpt>
        <trkpt lat="28.702422" lon="104.506746"><ele>521.8001</ele><time>2026-02-28T17:58:15.000Z</time></trkpt>
        <trkpt lat="28.702427" lon="104.506694"><ele>523.83026</ele><time>2026-02-28T17:58:22.000Z</time></trkpt>
        <trkpt lat="28.702425" lon="104.506639"><ele>525.6115</ele><time>2026-02-28T17:58:32.000Z</time></trkpt>
        <trkpt lat="28.702423" lon="104.506589"><ele>526.865</ele><time>2026-02-28T17:58:40.000Z</time></trkpt>
        <trkpt lat="28.702408" lon="104.506541"><ele>527.4117</ele><time>2026-02-28T17:58:47.000Z</time></trkpt>
        <trkpt lat="28.702398" lon="104.506488"><ele>528.96936</ele><time>2026-02-28T17:58:54.000Z</time></trkpt>
        <trkpt lat="28.702392" lon="104.506428"><ele>529.80273</ele><time>2026-02-28T17:59:04.000Z</time></trkpt>
        <trkpt lat="28.702388" lon="104.50637"><ele>531.5159</ele><time>2026-02-28T17:59:14.000Z</time></trkpt>
        <trkpt lat="28.702378" lon="104.50631"><ele>532.7052</ele><time>2026-02-28T17:59:26.000Z</time></trkpt>
        <trkpt lat="28.70238" lon="104.506257"><ele>534.7991</ele><time>2026-02-28T17:59:37.000Z</time></trkpt>
        <trkpt lat="28.702363" lon="104.506211"><ele>536.295</ele><time>2026-02-28T17:59:44.000Z</time></trkpt>
        <trkpt lat="28.702356" lon="104.506155"><ele>537.53516</ele><time>2026-02-28T17:59:51.000Z</time></trkpt>
        <trkpt lat="28.702367" lon="104.506097"><ele>538.83453</ele><time>2026-02-28T18:00:02.000Z</time></trkpt>
        <trkpt lat="28.702364" lon="104.506045"><ele>538.2255</ele><time>2026-02-28T18:00:10.000Z</time></trkpt>
        <trkpt lat="28.702365" lon="104.505992"><ele>538.92804</ele><time>2026-02-28T18:00:17.000Z</time></trkpt>
        <trkpt lat="28.702373" lon="104.505929"><ele>540.3972</ele><time>2026-02-28T18:00:24.000Z</time></trkpt>
        <trkpt lat="28.702378" lon="104.505881"><ele>540.8093</ele><time>2026-02-28T18:00:28.000Z</time></trkpt>
        <trkpt lat="28.702371" lon="104.505816"><ele>542.55035</ele><time>2026-02-28T18:00:32.000Z</time></trkpt>
        <trkpt lat="28.702378" lon="104.505745"><ele>541.9756</ele><time>2026-02-28T18:00:38.000Z</time></trkpt>
        <trkpt lat="28.702391" lon="104.505692"><ele>541.7988</ele><time>2026-02-28T18:00:44.000Z</time></trkpt>
        <trkpt lat="28.702407" lon="104.505647"><ele>541.89374</ele><time>2026-02-28T18:00:48.000Z</time></trkpt>
        <trkpt lat="28.702408" lon="104.505582"><ele>541.3388</ele><time>2026-02-28T18:00:53.000Z</time></trkpt>
        <trkpt lat="28.702394" lon="104.505519"><ele>541.8246</ele><time>2026-02-28T18:00:58.000Z</time></trkpt>
        <trkpt lat="28.702385" lon="104.505461"><ele>541.27985</ele><time>2026-02-28T18:01:04.000Z</time></trkpt>
        <trkpt lat="28.702413" lon="104.505411"><ele>541.5601</ele><time>2026-02-28T18:01:09.000Z</time></trkpt>
        <trkpt lat="28.702457" lon="104.505381"><ele>542.6868</ele><time>2026-02-28T18:01:14.000Z</time></trkpt>
        <trkpt lat="28.7025" lon="104.505339"><ele>542.8308</ele><time>2026-02-28T18:01:21.000Z</time></trkpt>
        <trkpt lat="28.702519" lon="104.505295"><ele>542.57965</ele><time>2026-02-28T18:01:26.000Z</time></trkpt>
        <trkpt lat="28.702546" lon="104.505249"><ele>541.34625</ele><time>2026-02-28T18:01:33.000Z</time></trkpt>
        <trkpt lat="28.702577" lon="104.50521"><ele>540.54895</ele><time>2026-02-28T18:01:40.000Z</time></trkpt>
        <trkpt lat="28.702606" lon="104.505165"><ele>539.35596</ele><time>2026-02-28T18:01:45.000Z</time></trkpt>
        <trkpt lat="28.702606" lon="104.505117"><ele>539.53674</ele><time>2026-02-28T18:01:49.000Z</time></trkpt>
        <trkpt lat="28.702611" lon="104.50506"><ele>539.02747</ele><time>2026-02-28T18:01:53.000Z</time></trkpt>
        <trkpt lat="28.702626" lon="104.505007"><ele>539.01227</ele><time>2026-02-28T18:01:57.000Z</time></trkpt>
        <trkpt lat="28.702661" lon="104.504961"><ele>538.6359</ele><time>2026-02-28T18:02:02.000Z</time></trkpt>
        <trkpt lat="28.702716" lon="104.50495"><ele>538.9105</ele><time>2026-02-28T18:02:29.000Z</time></trkpt>
        <trkpt lat="28.702705" lon="104.504913"><ele>538.8912</ele><time>2026-02-28T18:02:34.000Z</time></trkpt>
        <trkpt lat="28.702707" lon="104.504845"><ele>539.54034</ele><time>2026-02-28T18:02:42.000Z</time></trkpt>
        <trkpt lat="28.702729" lon="104.504792"><ele>541.05505</ele><time>2026-02-28T18:02:50.000Z</time></trkpt>
        <trkpt lat="28.702771" lon="104.504774"><ele>542.8866</ele><time>2026-02-28T18:02:57.000Z</time></trkpt>
        <trkpt lat="28.702823" lon="104.504746"><ele>543.768</ele><time>2026-02-28T18:03:04.000Z</time></trkpt>
        <trkpt lat="28.702864" lon="104.504712"><ele>545.2117</ele><time>2026-02-28T18:03:14.000Z</time></trkpt>
        <trkpt lat="28.702907" lon="104.504692"><ele>546.1788</ele><time>2026-02-28T18:03:22.000Z</time></trkpt>
        <trkpt lat="28.702942" lon="104.504653"><ele>548.3715</ele><time>2026-02-28T18:03:34.000Z</time></trkpt>
        <trkpt lat="28.702973" lon="104.504622"><ele>549.5899</ele><time>2026-02-28T18:03:41.000Z</time></trkpt>
        <trkpt lat="28.703016" lon="104.504597"><ele>551.48334</ele><time>2026-02-28T18:03:50.000Z</time></trkpt>
        <trkpt lat="28.703044" lon="104.504552"><ele>553.4519</ele><time>2026-02-28T18:04:01.000Z</time></trkpt>
        <trkpt lat="28.70307" lon="104.50451"><ele>554.74677</ele><time>2026-02-28T18:04:09.000Z</time></trkpt>
        <trkpt lat="28.703098" lon="104.504466"><ele>556.9021</ele><time>2026-02-28T18:04:18.000Z</time></trkpt>
        <trkpt lat="28.703121" lon="104.504421"><ele>558.0761</ele><time>2026-02-28T18:04:27.000Z</time></trkpt>
        <trkpt lat="28.703146" lon="104.504373"><ele>559.576</ele><time>2026-02-28T18:04:35.000Z</time></trkpt>
        <trkpt lat="28.703188" lon="104.50433"><ele>560.44635</ele><time>2026-02-28T18:04:42.000Z</time></trkpt>
        <trkpt lat="28.703181" lon="104.50427"><ele>562.019</ele><time>2026-02-28T18:04:51.000Z</time></trkpt>
        <trkpt lat="28.703183" lon="104.504219"><ele>563.29834</ele><time>2026-02-28T18:04:58.000Z</time></trkpt>
        <trkpt lat="28.703209" lon="104.504169"><ele>564.9774</ele><time>2026-02-28T18:05:08.000Z</time></trkpt>
        <trkpt lat="28.703227" lon="104.504118"><ele>565.8108</ele><time>2026-02-28T18:05:17.000Z</time></trkpt>
        <trkpt lat="28.703268" lon="104.504087"><ele>567.2605</ele><time>2026-02-28T18:05:26.000Z</time></trkpt>
        <trkpt lat="28.703307" lon="104.504051"><ele>568.7939</ele><time>2026-02-28T18:05:34.000Z</time></trkpt>
        <trkpt lat="28.703316" lon="104.503999"><ele>569.4784</ele><time>2026-02-28T18:05:41.000Z</time></trkpt>
        <trkpt lat="28.70333" lon="104.503941"><ele>571.01294</ele><time>2026-02-28T18:05:55.000Z</time></trkpt>
        <trkpt lat="28.703364" lon="104.503904"><ele>572.087</ele><time>2026-02-28T18:06:02.000Z</time></trkpt>
        <trkpt lat="28.703398" lon="104.503859"><ele>572.6596</ele><time>2026-02-28T18:06:08.000Z</time></trkpt>
        <trkpt lat="28.703428" lon="104.503804"><ele>573.13947</ele><time>2026-02-28T18:06:14.000Z</time></trkpt>
        <trkpt lat="28.703455" lon="104.503754"><ele>573.47644</ele><time>2026-02-28T18:06:20.000Z</time></trkpt>
        <trkpt lat="28.70348" lon="104.503707"><ele>574.04663</ele><time>2026-02-28T18:06:26.000Z</time></trkpt>
        <trkpt lat="28.703509" lon="104.503667"><ele>575.15826</ele><time>2026-02-28T18:06:32.000Z</time></trkpt>
        <trkpt lat="28.70354" lon="104.503628"><ele>575.66064</ele><time>2026-02-28T18:06:39.000Z</time></trkpt>
        <trkpt lat="28.703591" lon="104.503623"><ele>577.39374</ele><time>2026-02-28T18:06:54.000Z</time></trkpt>
        <trkpt lat="28.703638" lon="104.503605"><ele>578.23785</ele><time>2026-02-28T18:07:06.000Z</time></trkpt>
        <trkpt lat="28.70368" lon="104.503603"><ele>578.68207</ele><time>2026-02-28T18:07:12.000Z</time></trkpt>
        <trkpt lat="28.703723" lon="104.503634"><ele>578.7682</ele><time>2026-02-28T18:07:20.000Z</time></trkpt>
        <trkpt lat="28.703675" lon="104.503607"><ele>576.3747</ele><time>2026-02-28T18:12:01.000Z</time></trkpt>
        <trkpt lat="28.703634" lon="104.503599"><ele>576.2285</ele><time>2026-02-28T18:12:06.000Z</time></trkpt>
        <trkpt lat="28.703586" lon="104.503615"><ele>576.2714</ele><time>2026-02-28T18:12:11.000Z</time></trkpt>
        <trkpt lat="28.703587" lon="104.503573"><ele>574.834</ele><time>2026-02-28T18:12:19.000Z</time></trkpt>
        <trkpt lat="28.703632" lon="104.503541"><ele>575.7003</ele><time>2026-02-28T18:12:24.000Z</time></trkpt>
        <trkpt lat="28.703681" lon="104.503532"><ele>575.91156</ele><time>2026-02-28T18:12:28.000Z</time></trkpt>
        <trkpt lat="28.703734" lon="104.503515"><ele>575.67737</ele><time>2026-02-28T18:12:33.000Z</time></trkpt>
        <trkpt lat="28.703781" lon="104.503511"><ele>576.00775</ele><time>2026-02-28T18:12:37.000Z</time></trkpt>
        <trkpt lat="28.703819" lon="104.503496"><ele>575.88275</ele><time>2026-02-28T18:12:40.000Z</time></trkpt>
        <trkpt lat="28.703852" lon="104.503453"><ele>575.7358</ele><time>2026-02-28T18:12:44.000Z</time></trkpt>
        <trkpt lat="28.703864" lon="104.503393"><ele>576.2181</ele><time>2026-02-28T18:12:48.000Z</time></trkpt>
        <trkpt lat="28.703872" lon="104.503335"><ele>575.80457</ele><time>2026-02-28T18:12:52.000Z</time></trkpt>
        <trkpt lat="28.703875" lon="104.50326"><ele>577.02734</ele><time>2026-02-28T18:12:57.000Z</time></trkpt>
        <trkpt lat="28.703893" lon="104.50319"><ele>578.51776</ele><time>2026-02-28T18:13:03.000Z</time></trkpt>
        <trkpt lat="28.703914" lon="104.50313"><ele>579.19714</ele><time>2026-02-28T18:13:09.000Z</time></trkpt>
        <trkpt lat="28.703923" lon="104.503083"><ele>579.0662</ele><time>2026-02-28T18:13:13.000Z</time></trkpt>
        <trkpt lat="28.703938" lon="104.503033"><ele>579.57574</ele><time>2026-02-28T18:13:17.000Z</time></trkpt>
        <trkpt lat="28.703951" lon="104.50298"><ele>578.98474</ele><time>2026-02-28T18:13:21.000Z</time></trkpt>
        <trkpt lat="28.703964" lon="104.502921"><ele>578.36224</ele><time>2026-02-28T18:13:26.000Z</time></trkpt>
        <trkpt lat="28.70398" lon="104.50287"><ele>578.7173</ele><time>2026-02-28T18:13:30.000Z</time></trkpt>
        <trkpt lat="28.703998" lon="104.502816"><ele>578.5643</ele><time>2026-02-28T18:13:34.000Z</time></trkpt>
        <trkpt lat="28.704019" lon="104.502765"><ele>578.94037</ele><time>2026-02-28T18:13:38.000Z</time></trkpt>
        <trkpt lat="28.704039" lon="104.502716"><ele>578.7331</ele><time>2026-02-28T18:13:42.000Z</time></trkpt>
        <trkpt lat="28.704055" lon="104.502666"><ele>579.0824</ele><time>2026-02-28T18:13:46.000Z</time></trkpt>
        <trkpt lat="28.704057" lon="104.502612"><ele>578.7984</ele><time>2026-02-28T18:13:50.000Z</time></trkpt>
        <trkpt lat="28.704058" lon="104.502557"><ele>579.64355</ele><time>2026-02-28T18:13:54.000Z</time></trkpt>
        <trkpt lat="28.704081" lon="104.502503"><ele>580.10345</ele><time>2026-02-28T18:13:59.000Z</time></trkpt>
        <trkpt lat="28.70411" lon="104.502458"><ele>581.0589</ele><time>2026-02-28T18:14:03.000Z</time></trkpt>
        <trkpt lat="28.704127" lon="104.5024"><ele>580.168</ele><time>2026-02-28T18:14:07.000Z</time></trkpt>
        <trkpt lat="28.704148" lon="104.502332"><ele>580.1821</ele><time>2026-02-28T18:14:13.000Z</time></trkpt>
        <trkpt lat="28.704158" lon="104.502284"><ele>580.80695</ele><time>2026-02-28T18:14:17.000Z</time></trkpt>
        <trkpt lat="28.704169" lon="104.502232"><ele>581.4027</ele><time>2026-02-28T18:14:21.000Z</time></trkpt>
        <trkpt lat="28.704175" lon="104.502164"><ele>582.2648</ele><time>2026-02-28T18:14:26.000Z</time></trkpt>
        <trkpt lat="28.704185" lon="104.502099"><ele>582.38025</ele><time>2026-02-28T18:14:31.000Z</time></trkpt>
        <trkpt lat="28.704188" lon="104.502042"><ele>582.03265</ele><time>2026-02-28T18:14:36.000Z</time></trkpt>
        <trkpt lat="28.704177" lon="104.501997"><ele>581.68207</ele><time>2026-02-28T18:14:39.000Z</time></trkpt>
        <trkpt lat="28.704167" lon="104.501939"><ele>582.4704</ele><time>2026-02-28T18:14:43.000Z</time></trkpt>
        <trkpt lat="28.704168" lon="104.501881"><ele>582.42334</ele><time>2026-02-28T18:14:47.000Z</time></trkpt>
        <trkpt lat="28.704184" lon="104.50182"><ele>583.2756</ele><time>2026-02-28T18:14:51.000Z</time></trkpt>
        <trkpt lat="28.704199" lon="104.501757"><ele>584.3295</ele><time>2026-02-28T18:14:56.000Z</time></trkpt>
        <trkpt lat="28.7042" lon="104.501694"><ele>585.1666</ele><time>2026-02-28T18:15:02.000Z</time></trkpt>
        <trkpt lat="28.704201" lon="104.501642"><ele>584.6721</ele><time>2026-02-28T18:15:07.000Z</time></trkpt>
        <trkpt lat="28.70419" lon="104.501581"><ele>585.29395</ele><time>2026-02-28T18:15:13.000Z</time></trkpt>
        <trkpt lat="28.704184" lon="104.501529"><ele>586.01483</ele><time>2026-02-28T18:15:17.000Z</time></trkpt>
        <trkpt lat="28.704186" lon="104.501469"><ele>587.87506</ele><time>2026-02-28T18:15:22.000Z</time></trkpt>
        <trkpt lat="28.704194" lon="104.501415"><ele>588.5259</ele><time>2026-02-28T18:15:27.000Z</time></trkpt>
        <trkpt lat="28.704195" lon="104.501353"><ele>593.1003</ele><time>2026-02-28T18:16:13.000Z</time></trkpt>
        <trkpt lat="28.704194" lon="104.501318"><ele>594.4623</ele><time>2026-02-28T18:16:18.000Z</time></trkpt>
        <trkpt lat="28.704192" lon="104.50125"><ele>595.70984</ele><time>2026-02-28T18:16:23.000Z</time></trkpt>
        <trkpt lat="28.704204" lon="104.501179"><ele>596.7441</ele><time>2026-02-28T18:16:28.000Z</time></trkpt>
        <trkpt lat="28.704223" lon="104.501118"><ele>594.6381</ele><time>2026-02-28T18:16:32.000Z</time></trkpt>
        <trkpt lat="28.704243" lon="104.501061"><ele>592.5425</ele><time>2026-02-28T18:16:36.000Z</time></trkpt>
        <trkpt lat="28.704267" lon="104.501014"><ele>589.9425</ele><time>2026-02-28T18:16:40.000Z</time></trkpt>
        <trkpt lat="28.704284" lon="104.50096"><ele>587.7824</ele><time>2026-02-28T18:16:44.000Z</time></trkpt>
        <trkpt lat="28.7043" lon="104.500897"><ele>586.1581</ele><time>2026-02-28T18:16:49.000Z</time></trkpt>
        <trkpt lat="28.704304" lon="104.500851"><ele>586.1054</ele><time>2026-02-28T18:16:52.000Z</time></trkpt>
        <trkpt lat="28.70431" lon="104.500793"><ele>585.90015</ele><time>2026-02-28T18:16:56.000Z</time></trkpt>
        <trkpt lat="28.704316" lon="104.500738"><ele>585.7874</ele><time>2026-02-28T18:17:00.000Z</time></trkpt>
        <trkpt lat="28.704324" lon="104.500685"><ele>586.1799</ele><time>2026-02-28T18:17:04.000Z</time></trkpt>
        <trkpt lat="28.704329" lon="104.500634"><ele>586.0179</ele><time>2026-02-28T18:17:07.000Z</time></trkpt>
        <trkpt lat="28.704336" lon="104.500582"><ele>586.2058</ele><time>2026-02-28T18:17:10.000Z</time></trkpt>
        <trkpt lat="28.704342" lon="104.500515"><ele>587.0667</ele><time>2026-02-28T18:17:14.000Z</time></trkpt>
        <trkpt lat="28.704353" lon="104.500452"><ele>586.626</ele><time>2026-02-28T18:17:19.000Z</time></trkpt>
        <trkpt lat="28.704376" lon="104.500403"><ele>585.6344</ele><time>2026-02-28T18:17:29.000Z</time></trkpt>
        <trkpt lat="28.704395" lon="104.500365"><ele>586.3448</ele><time>2026-02-28T18:17:35.000Z</time></trkpt>
        <trkpt lat="28.704417" lon="104.500317"><ele>586.9633</ele><time>2026-02-28T18:17:39.000Z</time></trkpt>
        <trkpt lat="28.704412" lon="104.500269"><ele>586.24774</ele><time>2026-02-28T18:17:42.000Z</time></trkpt>
        <trkpt lat="28.704408" lon="104.50021"><ele>587.37787</ele><time>2026-02-28T18:17:46.000Z</time></trkpt>
        <trkpt lat="28.704409" lon="104.500153"><ele>588.1676</ele><time>2026-02-28T18:17:49.000Z</time></trkpt>
        <trkpt lat="28.704428" lon="104.50008"><ele>588.9585</ele><time>2026-02-28T18:17:54.000Z</time></trkpt>
        <trkpt lat="28.704446" lon="104.500016"><ele>589.7186</ele><time>2026-02-28T18:17:59.000Z</time></trkpt>
        <trkpt lat="28.70445" lon="104.499963"><ele>589.4442</ele><time>2026-02-28T18:18:03.000Z</time></trkpt>
        <trkpt lat="28.704435" lon="104.499905"><ele>590.72797</ele><time>2026-02-28T18:18:21.000Z</time></trkpt>
        <trkpt lat="28.704391" lon="104.499916"><ele>592.9424</ele><time>2026-02-28T18:18:29.000Z</time></trkpt>
        <trkpt lat="28.704384" lon="104.499875"><ele>593.2006</ele><time>2026-02-28T18:18:34.000Z</time></trkpt>
        <trkpt lat="28.704381" lon="104.499818"><ele>593.628</ele><time>2026-02-28T18:18:39.000Z</time></trkpt>
        <trkpt lat="28.704395" lon="104.49972"><ele>595.9274</ele><time>2026-02-28T18:19:01.000Z</time></trkpt>
        <trkpt lat="28.704394" lon="104.499682"><ele>596.59534</ele><time>2026-02-28T18:19:05.000Z</time></trkpt>
        <trkpt lat="28.70437" lon="104.499619"><ele>598.22003</ele><time>2026-02-28T18:19:15.000Z</time></trkpt>
        <trkpt lat="28.704373" lon="104.499572"><ele>598.62</ele><time>2026-02-28T18:19:20.000Z</time></trkpt>
        <trkpt lat="28.704395" lon="104.499513"><ele>600.5314</ele><time>2026-02-28T18:19:28.000Z</time></trkpt>
        <trkpt lat="28.704423" lon="104.499457"><ele>602.5047</ele><time>2026-02-28T18:19:34.000Z</time></trkpt>
        <trkpt lat="28.70444" lon="104.499403"><ele>603.6977</ele><time>2026-02-28T18:19:41.000Z</time></trkpt>
        <trkpt lat="28.704464" lon="104.49936"><ele>604.3233</ele><time>2026-02-28T18:19:48.000Z</time></trkpt>
        <trkpt lat="28.70447" lon="104.499318"><ele>604.2466</ele><time>2026-02-28T18:19:52.000Z</time></trkpt>
        <trkpt lat="28.704476" lon="104.499255"><ele>604.9658</ele><time>2026-02-28T18:19:59.000Z</time></trkpt>
        <trkpt lat="28.704468" lon="104.499198"><ele>605.55695</ele><time>2026-02-28T18:20:05.000Z</time></trkpt>
        <trkpt lat="28.704477" lon="104.499147"><ele>607.5314</ele><time>2026-02-28T18:20:11.000Z</time></trkpt>
        <trkpt lat="28.704493" lon="104.499095"><ele>608.8819</ele><time>2026-02-28T18:20:18.000Z</time></trkpt>
        <trkpt lat="28.704482" lon="104.499047"><ele>609.5795</ele><time>2026-02-28T18:20:25.000Z</time></trkpt>
        <trkpt lat="28.704472" lon="104.499"><ele>610.2262</ele><time>2026-02-28T18:20:30.000Z</time></trkpt>
        <trkpt lat="28.704471" lon="104.498938"><ele>612.0343</ele><time>2026-02-28T18:20:38.000Z</time></trkpt>
        <trkpt lat="28.704486" lon="104.498881"><ele>612.39417</ele><time>2026-02-28T18:20:45.000Z</time></trkpt>
        <trkpt lat="28.7045" lon="104.498826"><ele>613.7708</ele><time>2026-02-28T18:20:51.000Z</time></trkpt>
        <trkpt lat="28.704516" lon="104.49877"><ele>614.2824</ele><time>2026-02-28T18:21:02.000Z</time></trkpt>
        <trkpt lat="28.70452" lon="104.498717"><ele>614.48816</ele><time>2026-02-28T18:21:12.000Z</time></trkpt>
        <trkpt lat="28.704532" lon="104.498663"><ele>616.0524</ele><time>2026-02-28T18:21:24.000Z</time></trkpt>
        <trkpt lat="28.70455" lon="104.498614"><ele>616.5604</ele><time>2026-02-28T18:21:30.000Z</time></trkpt>
        <trkpt lat="28.704579" lon="104.498565"><ele>617.3642</ele><time>2026-02-28T18:21:36.000Z</time></trkpt>
        <trkpt lat="28.70461" lon="104.498524"><ele>618.06647</ele><time>2026-02-28T18:21:41.000Z</time></trkpt>
        <trkpt lat="28.704639" lon="104.498473"><ele>617.85236</ele><time>2026-02-28T18:21:49.000Z</time></trkpt>
        <trkpt lat="28.70465" lon="104.498416"><ele>618.7067</ele><time>2026-02-28T18:21:57.000Z</time></trkpt>
        <trkpt lat="28.704653" lon="104.498359"><ele>619.75256</ele><time>2026-02-28T18:22:04.000Z</time></trkpt>
        <trkpt lat="28.70467" lon="104.498314"><ele>619.37775</ele><time>2026-02-28T18:22:08.000Z</time></trkpt>
        <trkpt lat="28.704684" lon="104.498246"><ele>620.1678</ele><time>2026-02-28T18:22:17.000Z</time></trkpt>
        <trkpt lat="28.704703" lon="104.498205"><ele>621.07104</ele><time>2026-02-28T18:22:23.000Z</time></trkpt>
        <trkpt lat="28.704723" lon="104.498151"><ele>620.0183</ele><time>2026-02-28T18:22:33.000Z</time></trkpt>
        <trkpt lat="28.704756" lon="104.498108"><ele>618.50116</ele><time>2026-02-28T18:22:42.000Z</time></trkpt>
        <trkpt lat="28.704776" lon="104.498065"><ele>618.32184</ele><time>2026-02-28T18:22:46.000Z</time></trkpt>
        <trkpt lat="28.704786" lon="104.497996"><ele>619.55896</ele><time>2026-02-28T18:22:54.000Z</time></trkpt>
        <trkpt lat="28.704793" lon="104.49795"><ele>621.3373</ele><time>2026-02-28T18:22:58.000Z</time></trkpt>
        <trkpt lat="28.704812" lon="104.497892"><ele>622.8588</ele><time>2026-02-28T18:23:06.000Z</time></trkpt>
        <trkpt lat="28.704839" lon="104.497849"><ele>622.594</ele><time>2026-02-28T18:23:11.000Z</time></trkpt>
        <trkpt lat="28.704879" lon="104.497817"><ele>623.1602</ele><time>2026-02-28T18:23:17.000Z</time></trkpt>
        <trkpt lat="28.704932" lon="104.497775"><ele>624.4101</ele><time>2026-02-28T18:23:24.000Z</time></trkpt>
        <trkpt lat="28.704967" lon="104.497719"><ele>625.6591</ele><time>2026-02-28T18:23:32.000Z</time></trkpt>
        <trkpt lat="28.705" lon="104.49768"><ele>626.5459</ele><time>2026-02-28T18:23:37.000Z</time></trkpt>
        <trkpt lat="28.705016" lon="104.497612"><ele>625.9317</ele><time>2026-02-28T18:23:48.000Z</time></trkpt>
        <trkpt lat="28.705032" lon="104.497557"><ele>627.324</ele><time>2026-02-28T18:24:04.000Z</time></trkpt>
        <trkpt lat="28.705068" lon="104.497517"><ele>629.8191</ele><time>2026-02-28T18:24:53.000Z</time></trkpt>
        <trkpt lat="28.705094" lon="104.497495"><ele>629.5969</ele><time>2026-02-28T18:24:57.000Z</time></trkpt>
        <trkpt lat="28.705132" lon="104.497454"><ele>629.3734</ele><time>2026-02-28T18:25:03.000Z</time></trkpt>
        <trkpt lat="28.705159" lon="104.4974"><ele>630.0778</ele><time>2026-02-28T18:25:09.000Z</time></trkpt>
        <trkpt lat="28.705186" lon="104.497342"><ele>632.3226</ele><time>2026-02-28T18:25:20.000Z</time></trkpt>
        <trkpt lat="28.705219" lon="104.49731"><ele>632.7355</ele><time>2026-02-28T18:25:24.000Z</time></trkpt>
        <trkpt lat="28.705277" lon="104.497286"><ele>633.9326</ele><time>2026-02-28T18:25:32.000Z</time></trkpt>
        <trkpt lat="28.705318" lon="104.497265"><ele>634.932</ele><time>2026-02-28T18:25:38.000Z</time></trkpt>
        <trkpt lat="28.705356" lon="104.497223"><ele>635.25415</ele><time>2026-02-28T18:25:45.000Z</time></trkpt>
        <trkpt lat="28.705398" lon="104.497183"><ele>635.6696</ele><time>2026-02-28T18:25:54.000Z</time></trkpt>
        <trkpt lat="28.705422" lon="104.497146"><ele>636.71356</ele><time>2026-02-28T18:25:59.000Z</time></trkpt>
        <trkpt lat="28.705454" lon="104.497094"><ele>638.5202</ele><time>2026-02-28T18:26:26.000Z</time></trkpt>
        <trkpt lat="28.705467" lon="104.497058"><ele>639.3361</ele><time>2026-02-28T18:26:31.000Z</time></trkpt>
        <trkpt lat="28.705499" lon="104.496998"><ele>639.85486</ele><time>2026-02-28T18:26:38.000Z</time></trkpt>
        <trkpt lat="28.705515" lon="104.49694"><ele>643.4924</ele><time>2026-02-28T18:26:44.000Z</time></trkpt>
        <trkpt lat="28.705534" lon="104.496884"><ele>649.8831</ele><time>2026-02-28T18:26:55.000Z</time></trkpt>
        <trkpt lat="28.705563" lon="104.496854"><ele>649.50757</ele><time>2026-02-28T18:27:01.000Z</time></trkpt>
        <trkpt lat="28.705604" lon="104.496818"><ele>650.19836</ele><time>2026-02-28T18:27:07.000Z</time></trkpt>
        <trkpt lat="28.705643" lon="104.496777"><ele>651.28546</ele><time>2026-02-28T18:27:14.000Z</time></trkpt>
        <trkpt lat="28.70567" lon="104.496731"><ele>651.8023</ele><time>2026-02-28T18:27:20.000Z</time></trkpt>
        <trkpt lat="28.705709" lon="104.496696"><ele>652.7382</ele><time>2026-02-28T18:27:28.000Z</time></trkpt>
        <trkpt lat="28.705682" lon="104.496653"><ele>652.2226</ele><time>2026-02-28T18:28:02.000Z</time></trkpt>
        <trkpt lat="28.705692" lon="104.496613"><ele>652.14954</ele><time>2026-02-28T18:28:07.000Z</time></trkpt>
        <trkpt lat="28.705694" lon="104.496557"><ele>653.36566</ele><time>2026-02-28T18:28:12.000Z</time></trkpt>
        <trkpt lat="28.705676" lon="104.496487"><ele>654.568</ele><time>2026-02-28T18:28:24.000Z</time></trkpt>
        <trkpt lat="28.705655" lon="104.496445"><ele>655.02167</ele><time>2026-02-28T18:28:29.000Z</time></trkpt>
        <trkpt lat="28.705651" lon="104.496388"><ele>655.8709</ele><time>2026-02-28T18:28:35.000Z</time></trkpt>
        <trkpt lat="28.70565" lon="104.496326"><ele>657.7028</ele><time>2026-02-28T18:28:41.000Z</time></trkpt>
        <trkpt lat="28.705651" lon="104.49626"><ele>659.132</ele><time>2026-02-28T18:28:49.000Z</time></trkpt>
        <trkpt lat="28.705659" lon="104.496204"><ele>659.2351</ele><time>2026-02-28T18:29:19.000Z</time></trkpt>
        <trkpt lat="28.705686" lon="104.496168"><ele>660.3516</ele><time>2026-02-28T18:29:28.000Z</time></trkpt>
        <trkpt lat="28.705728" lon="104.496135"><ele>659.8336</ele><time>2026-02-28T18:29:44.000Z</time></trkpt>
        <trkpt lat="28.705769" lon="104.4961"><ele>659.2597</ele><time>2026-02-28T18:30:15.000Z</time></trkpt>
        <trkpt lat="28.70579" lon="104.496059"><ele>660.39264</ele><time>2026-02-28T18:30:22.000Z</time></trkpt>
        <trkpt lat="28.705786" lon="104.496002"><ele>661.6907</ele><time>2026-02-28T18:30:27.000Z</time></trkpt>
        <trkpt lat="28.705772" lon="104.495943"><ele>663.0898</ele><time>2026-02-28T18:30:36.000Z</time></trkpt>
        <trkpt lat="28.705765" lon="104.495894"><ele>663.8665</ele><time>2026-02-28T18:30:42.000Z</time></trkpt>
        <trkpt lat="28.705744" lon="104.49585"><ele>664.79706</ele><time>2026-02-28T18:30:47.000Z</time></trkpt>
        <trkpt lat="28.705721" lon="104.495802"><ele>665.5134</ele><time>2026-02-28T18:30:52.000Z</time></trkpt>
        <trkpt lat="28.705701" lon="104.495753"><ele>666.001</ele><time>2026-02-28T18:30:57.000Z</time></trkpt>
        <trkpt lat="28.705694" lon="104.495701"><ele>666.34094</ele><time>2026-02-28T18:31:02.000Z</time></trkpt>
        <trkpt lat="28.705704" lon="104.495637"><ele>666.32874</ele><time>2026-02-28T18:31:11.000Z</time></trkpt>
        <trkpt lat="28.705715" lon="104.495585"><ele>666.8753</ele><time>2026-02-28T18:31:16.000Z</time></trkpt>
        <trkpt lat="28.705724" lon="104.49553"><ele>667.81323</ele><time>2026-02-28T18:31:21.000Z</time></trkpt>
        <trkpt lat="28.705739" lon="104.495469"><ele>668.6837</ele><time>2026-02-28T18:31:26.000Z</time></trkpt>
        <trkpt lat="28.705742" lon="104.49541"><ele>669.4791</ele><time>2026-02-28T18:31:31.000Z</time></trkpt>
        <trkpt lat="28.705735" lon="104.495352"><ele>669.6424</ele><time>2026-02-28T18:31:36.000Z</time></trkpt>
        <trkpt lat="28.705715" lon="104.495296"><ele>669.9219</ele><time>2026-02-28T18:31:41.000Z</time></trkpt>
        <trkpt lat="28.705712" lon="104.495247"><ele>670.0221</ele><time>2026-02-28T18:31:45.000Z</time></trkpt>
        <trkpt lat="28.705736" lon="104.495197"><ele>671.15076</ele><time>2026-02-28T18:31:51.000Z</time></trkpt>
        <trkpt lat="28.705791" lon="104.495181"><ele>672.1888</ele><time>2026-02-28T18:32:04.000Z</time></trkpt>
        <trkpt lat="28.705841" lon="104.495161"><ele>673.20374</ele><time>2026-02-28T18:32:24.000Z</time></trkpt>
        <trkpt lat="28.70588" lon="104.495135"><ele>674.41315</ele><time>2026-02-28T18:32:32.000Z</time></trkpt>
        <trkpt lat="28.705932" lon="104.495111"><ele>675.77185</ele><time>2026-02-28T18:32:41.000Z</time></trkpt>
        <trkpt lat="28.705961" lon="104.495072"><ele>676.33356</ele><time>2026-02-28T18:32:47.000Z</time></trkpt>
        <trkpt lat="28.705984" lon="104.495016"><ele>677.6552</ele><time>2026-02-28T18:32:54.000Z</time></trkpt>
        <trkpt lat="28.706012" lon="104.494964"><ele>678.7963</ele><time>2026-02-28T18:33:37.000Z</time></trkpt>
        <trkpt lat="28.706048" lon="104.494965"><ele>679.35254</ele><time>2026-02-28T18:33:43.000Z</time></trkpt>
        <trkpt lat="28.70611" lon="104.494948"><ele>681.36</ele><time>2026-02-28T18:33:53.000Z</time></trkpt>
        <trkpt lat="28.706156" lon="104.494938"><ele>681.85657</ele><time>2026-02-28T18:33:57.000Z</time></trkpt>
        <trkpt lat="28.706212" lon="104.494915"><ele>684.7957</ele><time>2026-02-28T18:34:43.000Z</time></trkpt>
        <trkpt lat="28.706251" lon="104.494894"><ele>685.9205</ele><time>2026-02-28T18:34:53.000Z</time></trkpt>
        <trkpt lat="28.706306" lon="104.494878"><ele>687.0553</ele><time>2026-02-28T18:35:01.000Z</time></trkpt>
        <trkpt lat="28.706352" lon="104.494853"><ele>688.14087</ele><time>2026-02-28T18:35:33.000Z</time></trkpt>
        <trkpt lat="28.70639" lon="104.494837"><ele>689.88055</ele><time>2026-02-28T18:35:45.000Z</time></trkpt>
        <trkpt lat="28.706431" lon="104.494806"><ele>691.65356</ele><time>2026-02-28T18:35:53.000Z</time></trkpt>
        <trkpt lat="28.70648" lon="104.494784"><ele>692.4179</ele><time>2026-02-28T18:36:09.000Z</time></trkpt>
        <trkpt lat="28.706465" lon="104.494736"><ele>693.4627</ele><time>2026-02-28T18:36:32.000Z</time></trkpt>
        <trkpt lat="28.706506" lon="104.494764"><ele>694.2057</ele><time>2026-02-28T18:36:45.000Z</time></trkpt>
        <trkpt lat="28.706532" lon="104.494807"><ele>693.849</ele><time>2026-02-28T18:36:50.000Z</time></trkpt>
        <trkpt lat="28.706558" lon="104.494859"><ele>693.1702</ele><time>2026-02-28T18:36:55.000Z</time></trkpt>
        <trkpt lat="28.706591" lon="104.494899"><ele>691.8137</ele><time>2026-02-28T18:36:59.000Z</time></trkpt>
        <trkpt lat="28.706628" lon="104.494948"><ele>690.0852</ele><time>2026-02-28T18:37:06.000Z</time></trkpt>
        <trkpt lat="28.706589" lon="104.49492"><ele>688.59265</ele><time>2026-02-28T18:37:27.000Z</time></trkpt>
        <trkpt lat="28.70656" lon="104.494874"><ele>689.09656</ele><time>2026-02-28T18:37:32.000Z</time></trkpt>
        <trkpt lat="28.706521" lon="104.494836"><ele>690.06006</ele><time>2026-02-28T18:37:37.000Z</time></trkpt>
        <trkpt lat="28.706478" lon="104.494798"><ele>691.2567</ele><time>2026-02-28T18:37:42.000Z</time></trkpt>
        <trkpt lat="28.706479" lon="104.494741"><ele>692.4176</ele><time>2026-02-28T18:37:59.000Z</time></trkpt>
        <trkpt lat="28.706513" lon="104.494782"><ele>693.9416</ele><time>2026-02-28T18:38:13.000Z</time></trkpt>
        <trkpt lat="28.70653" lon="104.494831"><ele>692.7545</ele><time>2026-02-28T18:38:24.000Z</time></trkpt>
        <trkpt lat="28.706564" lon="104.494863"><ele>691.3358</ele><time>2026-02-28T18:38:30.000Z</time></trkpt>
        <trkpt lat="28.706596" lon="104.494915"><ele>689.61084</ele><time>2026-02-28T18:38:40.000Z</time></trkpt>
        <trkpt lat="28.706625" lon="104.494954"><ele>689.2174</ele><time>2026-02-28T18:38:47.000Z</time></trkpt>
        <trkpt lat="28.706674" lon="104.49496"><ele>689.3651</ele><time>2026-02-28T18:38:55.000Z</time></trkpt>
        <trkpt lat="28.706694" lon="104.495005"><ele>694.36035</ele><time>2026-02-28T18:39:08.000Z</time></trkpt>
        <trkpt lat="28.706694" lon="104.495054"><ele>697.6794</ele><time>2026-02-28T18:39:14.000Z</time></trkpt>
        <trkpt lat="28.706681" lon="104.495108"><ele>699.5044</ele><time>2026-02-28T18:39:20.000Z</time></trkpt>
        <trkpt lat="28.706692" lon="104.495063"><ele>703.36945</ele><time>2026-02-28T18:39:53.000Z</time></trkpt>
        <trkpt lat="28.706677" lon="104.495011"><ele>706.77106</ele><time>2026-02-28T18:40:12.000Z</time></trkpt>
        <trkpt lat="28.706669" lon="104.494972"><ele>707.3331</ele><time>2026-02-28T18:40:18.000Z</time></trkpt>
        <trkpt lat="28.706677" lon="104.494911"><ele>707.3928</ele><time>2026-02-28T18:40:25.000Z</time></trkpt>
        <trkpt lat="28.706697" lon="104.494855"><ele>708.30145</ele><time>2026-02-28T18:40:32.000Z</time></trkpt>
        <trkpt lat="28.706709" lon="104.494804"><ele>708.7735</ele><time>2026-02-28T18:40:38.000Z</time></trkpt>
        <trkpt lat="28.706717" lon="104.494855"><ele>710.4021</ele><time>2026-02-28T18:41:06.000Z</time></trkpt>
        <trkpt lat="28.706713" lon="104.494911"><ele>710.19324</ele><time>2026-02-28T18:41:12.000Z</time></trkpt>
        <trkpt lat="28.706697" lon="104.494965"><ele>709.2997</ele><time>2026-02-28T18:41:19.000Z</time></trkpt>
        <trkpt lat="28.706657" lon="104.494993"><ele>708.37885</ele><time>2026-02-28T18:41:26.000Z</time></trkpt>
        <trkpt lat="28.706611" lon="104.494978"><ele>707.55853</ele><time>2026-02-28T18:41:31.000Z</time></trkpt>
        <trkpt lat="28.706583" lon="104.494938"><ele>706.7331</ele><time>2026-02-28T18:41:35.000Z</time></trkpt>
        <trkpt lat="28.706552" lon="104.494889"><ele>706.36096</ele><time>2026-02-28T18:41:40.000Z</time></trkpt>
        <trkpt lat="28.706516" lon="104.494848"><ele>706.4852</ele><time>2026-02-28T18:41:45.000Z</time></trkpt>
        <trkpt lat="28.706481" lon="104.49481"><ele>706.7771</ele><time>2026-02-28T18:41:50.000Z</time></trkpt>
        <trkpt lat="28.706442" lon="104.494774"><ele>707.23016</ele><time>2026-02-28T18:41:59.000Z</time></trkpt>
        <trkpt lat="28.706418" lon="104.494729"><ele>705.84595</ele><time>2026-02-28T18:42:20.000Z</time></trkpt>
        <trkpt lat="28.706382" lon="104.494714"><ele>704.5975</ele><time>2026-02-28T18:42:27.000Z</time></trkpt>
        <trkpt lat="28.70634" lon="104.494678"><ele>703.73206</ele><time>2026-02-28T18:42:34.000Z</time></trkpt>
        <trkpt lat="28.706294" lon="104.494652"><ele>702.3638</ele><time>2026-02-28T18:42:40.000Z</time></trkpt>
        <trkpt lat="28.706256" lon="104.494617"><ele>699.4035</ele><time>2026-02-28T18:42:45.000Z</time></trkpt>
        <trkpt lat="28.706217" lon="104.494571"><ele>695.32574</ele><time>2026-02-28T18:42:51.000Z</time></trkpt>
        <trkpt lat="28.706197" lon="104.494526"><ele>694.0116</ele><time>2026-02-28T18:42:55.000Z</time></trkpt>
        <trkpt lat="28.706159" lon="104.494482"><ele>693.79474</ele><time>2026-02-28T18:43:07.000Z</time></trkpt>
        <trkpt lat="28.706121" lon="104.494478"><ele>693.60645</ele><time>2026-02-28T18:43:12.000Z</time></trkpt>
        <trkpt lat="28.706078" lon="104.494472"><ele>693.32245</ele><time>2026-02-28T18:43:16.000Z</time></trkpt>
        <trkpt lat="28.706039" lon="104.494439"><ele>692.569</ele><time>2026-02-28T18:43:20.000Z</time></trkpt>
        <trkpt lat="28.706004" lon="104.494395"><ele>692.0719</ele><time>2026-02-28T18:43:24.000Z</time></trkpt>
        <trkpt lat="28.705975" lon="104.494347"><ele>691.3035</ele><time>2026-02-28T18:43:28.000Z</time></trkpt>
        <trkpt lat="28.70595" lon="104.494284"><ele>691.3164</ele><time>2026-02-28T18:43:33.000Z</time></trkpt>
        <trkpt lat="28.705925" lon="104.494225"><ele>691.7084</ele><time>2026-02-28T18:43:38.000Z</time></trkpt>
        <trkpt lat="28.705881" lon="104.494193"><ele>691.47565</ele><time>2026-02-28T18:43:49.000Z</time></trkpt>
        <trkpt lat="28.70585" lon="104.494168"><ele>690.9074</ele><time>2026-02-28T18:43:54.000Z</time></trkpt>
        <trkpt lat="28.705821" lon="104.494127"><ele>691.44824</ele><time>2026-02-28T18:43:58.000Z</time></trkpt>
        <trkpt lat="28.705798" lon="104.494065"><ele>692.1807</ele><time>2026-02-28T18:44:03.000Z</time></trkpt>
        <trkpt lat="28.705771" lon="104.494012"><ele>692.76843</ele><time>2026-02-28T18:44:08.000Z</time></trkpt>
        <trkpt lat="28.705746" lon="104.493963"><ele>693.3062</ele><time>2026-02-28T18:44:12.000Z</time></trkpt>
        <trkpt lat="28.705716" lon="104.493909"><ele>693.4112</ele><time>2026-02-28T18:44:17.000Z</time></trkpt>
        <trkpt lat="28.705702" lon="104.49386"><ele>693.9967</ele><time>2026-02-28T18:44:21.000Z</time></trkpt>
        <trkpt lat="28.705684" lon="104.493804"><ele>694.7055</ele><time>2026-02-28T18:44:25.000Z</time></trkpt>
        <trkpt lat="28.705653" lon="104.493764"><ele>694.90533</ele><time>2026-02-28T18:44:29.000Z</time></trkpt>
        <trkpt lat="28.70561" lon="104.493729"><ele>695.29224</ele><time>2026-02-28T18:44:34.000Z</time></trkpt>
        <trkpt lat="28.70556" lon="104.493707"><ele>694.6999</ele><time>2026-02-28T18:44:39.000Z</time></trkpt>
        <trkpt lat="28.705521" lon="104.493668"><ele>694.4127</ele><time>2026-02-28T18:44:44.000Z</time></trkpt>
        <trkpt lat="28.705489" lon="104.493633"><ele>693.90656</ele><time>2026-02-28T18:44:48.000Z</time></trkpt>
        <trkpt lat="28.705453" lon="104.493599"><ele>693.57605</ele><time>2026-02-28T18:44:52.000Z</time></trkpt>
        <trkpt lat="28.705416" lon="104.493575"><ele>693.90436</ele><time>2026-02-28T18:44:55.000Z</time></trkpt>
        <trkpt lat="28.705367" lon="104.493526"><ele>694.11365</ele><time>2026-02-28T18:45:00.000Z</time></trkpt>
        <trkpt lat="28.70534" lon="104.493466"><ele>694.3735</ele><time>2026-02-28T18:45:05.000Z</time></trkpt>
        <trkpt lat="28.705328" lon="104.493421"><ele>695.3349</ele><time>2026-02-28T18:45:08.000Z</time></trkpt>
        <trkpt lat="28.705304" lon="104.493364"><ele>696.07</ele><time>2026-02-28T18:45:14.000Z</time></trkpt>
        <trkpt lat="28.705287" lon="104.493312"><ele>695.9912</ele><time>2026-02-28T18:45:20.000Z</time></trkpt>
        <trkpt lat="28.705262" lon="104.493266"><ele>696.51355</ele><time>2026-02-28T18:45:25.000Z</time></trkpt>
        <trkpt lat="28.705227" lon="104.493222"><ele>697.2073</ele><time>2026-02-28T18:45:31.000Z</time></trkpt>
        <trkpt lat="28.705201" lon="104.493178"><ele>697.5102</ele><time>2026-02-28T18:45:36.000Z</time></trkpt>
        <trkpt lat="28.705162" lon="104.493159"><ele>698.87384</ele><time>2026-02-28T18:45:40.000Z</time></trkpt>
        <trkpt lat="28.705121" lon="104.493135"><ele>699.15906</ele><time>2026-02-28T18:45:44.000Z</time></trkpt>
        <trkpt lat="28.705073" lon="104.493104"><ele>698.24664</ele><time>2026-02-28T18:45:49.000Z</time></trkpt>
        <trkpt lat="28.705025" lon="104.493062"><ele>698.8222</ele><time>2026-02-28T18:45:54.000Z</time></trkpt>
        <trkpt lat="28.704994" lon="104.493015"><ele>699.9173</ele><time>2026-02-28T18:45:59.000Z</time></trkpt>
        <trkpt lat="28.704967" lon="104.492965"><ele>699.20496</ele><time>2026-02-28T18:46:03.000Z</time></trkpt>
        <trkpt lat="28.704931" lon="104.492924"><ele>699.7734</ele><time>2026-02-28T18:46:07.000Z</time></trkpt>
        <trkpt lat="28.704899" lon="104.492881"><ele>699.541</ele><time>2026-02-28T18:46:11.000Z</time></trkpt>
        <trkpt lat="28.704869" lon="104.492833"><ele>699.5091</ele><time>2026-02-28T18:46:16.000Z</time></trkpt>
        <trkpt lat="28.704843" lon="104.492777"><ele>699.6035</ele><time>2026-02-28T18:46:25.000Z</time></trkpt>
        <trkpt lat="28.704822" lon="104.492727"><ele>699.0102</ele><time>2026-02-28T18:46:30.000Z</time></trkpt>
        <trkpt lat="28.704806" lon="104.492672"><ele>698.4716</ele><time>2026-02-28T18:46:34.000Z</time></trkpt>
        <trkpt lat="28.704795" lon="104.492606"><ele>697.93335</ele><time>2026-02-28T18:46:39.000Z</time></trkpt>
        <trkpt lat="28.704792" lon="104.492544"><ele>697.4833</ele><time>2026-02-28T18:46:43.000Z</time></trkpt>
        <trkpt lat="28.704802" lon="104.492489"><ele>697.46387</ele><time>2026-02-28T18:46:47.000Z</time></trkpt>
        <trkpt lat="28.70483" lon="104.492437"><ele>697.517</ele><time>2026-02-28T18:46:51.000Z</time></trkpt>
        <trkpt lat="28.70487" lon="104.492394"><ele>698.0095</ele><time>2026-02-28T18:46:55.000Z</time></trkpt>
        <trkpt lat="28.704916" lon="104.492357"><ele>699.528</ele><time>2026-02-28T18:46:59.000Z</time></trkpt>
        <trkpt lat="28.704967" lon="104.492329"><ele>701.0244</ele><time>2026-02-28T18:47:04.000Z</time></trkpt>
        <trkpt lat="28.705005" lon="104.492292"><ele>702.2934</ele><time>2026-02-28T18:47:09.000Z</time></trkpt>
        <trkpt lat="28.704992" lon="104.492331"><ele>704.064</ele><time>2026-02-28T18:47:18.000Z</time></trkpt>
        <trkpt lat="28.704937" lon="104.492357"><ele>702.151</ele><time>2026-02-28T18:47:38.000Z</time></trkpt>
        <trkpt lat="28.704908" lon="104.492308"><ele>701.2192</ele><time>2026-02-28T18:47:48.000Z</time></trkpt>
        <trkpt lat="28.704888" lon="104.492266"><ele>700.9343</ele><time>2026-02-28T18:47:53.000Z</time></trkpt>
        <trkpt lat="28.704876" lon="104.492207"><ele>699.775</ele><time>2026-02-28T18:48:02.000Z</time></trkpt>
        <trkpt lat="28.70486" lon="104.492165"><ele>699.6601</ele><time>2026-02-28T18:48:06.000Z</time></trkpt>
        <trkpt lat="28.704832" lon="104.492116"><ele>699.6202</ele><time>2026-02-28T18:48:11.000Z</time></trkpt>
        <trkpt lat="28.7048" lon="104.492066"><ele>698.8484</ele><time>2026-02-28T18:48:16.000Z</time></trkpt>
        <trkpt lat="28.70477" lon="104.492014"><ele>698.1389</ele><time>2026-02-28T18:48:21.000Z</time></trkpt>
        <trkpt lat="28.704756" lon="104.491958"><ele>697.2812</ele><time>2026-02-28T18:48:26.000Z</time></trkpt>
        <trkpt lat="28.704749" lon="104.491899"><ele>696.18585</ele><time>2026-02-28T18:48:31.000Z</time></trkpt>
        <trkpt lat="28.704753" lon="104.491848"><ele>695.21906</ele><time>2026-02-28T18:48:35.000Z</time></trkpt>
        <trkpt lat="28.704765" lon="104.491795"><ele>695.2074</ele><time>2026-02-28T18:48:39.000Z</time></trkpt>
        <trkpt lat="28.704796" lon="104.491739"><ele>694.5767</ele><time>2026-02-28T18:48:45.000Z</time></trkpt>
        <trkpt lat="28.704826" lon="104.491703"><ele>693.9612</ele><time>2026-02-28T18:48:49.000Z</time></trkpt>
        <trkpt lat="28.704866" lon="104.491675"><ele>693.57434</ele><time>2026-02-28T18:48:53.000Z</time></trkpt>
        <trkpt lat="28.704908" lon="104.491645"><ele>693.8374</ele><time>2026-02-28T18:48:57.000Z</time></trkpt>
        <trkpt lat="28.704959" lon="104.491617"><ele>694.3817</ele><time>2026-02-28T18:49:02.000Z</time></trkpt>
        <trkpt lat="28.705001" lon="104.491589"><ele>694.7327</ele><time>2026-02-28T18:49:07.000Z</time></trkpt>
        <trkpt lat="28.705026" lon="104.49155"><ele>694.8758</ele><time>2026-02-28T18:49:11.000Z</time></trkpt>
        <trkpt lat="28.705049" lon="104.491497"><ele>695.0823</ele><time>2026-02-28T18:49:16.000Z</time></trkpt>
        <trkpt lat="28.705054" lon="104.49143"><ele>694.5369</ele><time>2026-02-28T18:49:25.000Z</time></trkpt>
        <trkpt lat="28.70505" lon="104.491379"><ele>694.3261</ele><time>2026-02-28T18:49:30.000Z</time></trkpt>
        <trkpt lat="28.705054" lon="104.491311"><ele>693.6808</ele><time>2026-02-28T18:49:36.000Z</time></trkpt>
        <trkpt lat="28.70505" lon="104.491251"><ele>693.7595</ele><time>2026-02-28T18:49:44.000Z</time></trkpt>
        <trkpt lat="28.705042" lon="104.491201"><ele>693.78894</ele><time>2026-02-28T18:49:49.000Z</time></trkpt>
        <trkpt lat="28.705052" lon="104.491145"><ele>693.59595</ele><time>2026-02-28T18:49:55.000Z</time></trkpt>
        <trkpt lat="28.705072" lon="104.491102"><ele>693.85077</ele><time>2026-02-28T18:49:59.000Z</time></trkpt>
        <trkpt lat="28.705123" lon="104.491086"><ele>693.5737</ele><time>2026-02-28T18:50:09.000Z</time></trkpt>
        <trkpt lat="28.705139" lon="104.491039"><ele>694.43884</ele><time>2026-02-28T18:50:38.000Z</time></trkpt>
        <trkpt lat="28.705147" lon="104.491002"><ele>694.8835</ele><time>2026-02-28T18:50:42.000Z</time></trkpt>
        <trkpt lat="28.70517" lon="104.490952"><ele>695.3803</ele><time>2026-02-28T18:50:46.000Z</time></trkpt>
        <trkpt lat="28.705203" lon="104.490895"><ele>695.3793</ele><time>2026-02-28T18:50:51.000Z</time></trkpt>
        <trkpt lat="28.705226" lon="104.49084"><ele>695.2376</ele><time>2026-02-28T18:50:56.000Z</time></trkpt>
        <trkpt lat="28.705261" lon="104.490802"><ele>695.271</ele><time>2026-02-28T18:51:01.000Z</time></trkpt>
        <trkpt lat="28.7053" lon="104.490772"><ele>695.3677</ele><time>2026-02-28T18:51:06.000Z</time></trkpt>
        <trkpt lat="28.705344" lon="104.490734"><ele>696.3579</ele><time>2026-02-28T18:51:21.000Z</time></trkpt>
        <trkpt lat="28.705342" lon="104.490688"><ele>696.1919</ele><time>2026-02-28T18:51:25.000Z</time></trkpt>
        <trkpt lat="28.705321" lon="104.490635"><ele>696.6598</ele><time>2026-02-28T18:51:29.000Z</time></trkpt>
        <trkpt lat="28.705288" lon="104.490577"><ele>697.69775</ele><time>2026-02-28T18:51:34.000Z</time></trkpt>
        <trkpt lat="28.705279" lon="104.490515"><ele>698.34845</ele><time>2026-02-28T18:51:43.000Z</time></trkpt>
        <trkpt lat="28.705266" lon="104.490472"><ele>698.8262</ele><time>2026-02-28T18:51:47.000Z</time></trkpt>
        <trkpt lat="28.705246" lon="104.490423"><ele>699.1045</ele><time>2026-02-28T18:51:51.000Z</time></trkpt>
        <trkpt lat="28.705248" lon="104.490354"><ele>699.4551</ele><time>2026-02-28T18:52:02.000Z</time></trkpt>
        <trkpt lat="28.705263" lon="104.490321"><ele>700.05005</ele><time>2026-02-28T18:52:05.000Z</time></trkpt>
        <trkpt lat="28.705298" lon="104.490276"><ele>701.2111</ele><time>2026-02-28T18:52:10.000Z</time></trkpt>
        <trkpt lat="28.705344" lon="104.490245"><ele>702.0208</ele><time>2026-02-28T18:52:15.000Z</time></trkpt>
        <trkpt lat="28.705378" lon="104.490206"><ele>702.9049</ele><time>2026-02-28T18:52:20.000Z</time></trkpt>
        <trkpt lat="28.705399" lon="104.490159"><ele>703.9164</ele><time>2026-02-28T18:52:25.000Z</time></trkpt>
        <trkpt lat="28.705431" lon="104.490111"><ele>705.2375</ele><time>2026-02-28T18:52:31.000Z</time></trkpt>
        <trkpt lat="28.705457" lon="104.490065"><ele>705.9961</ele><time>2026-02-28T18:52:36.000Z</time></trkpt>
        <trkpt lat="28.705486" lon="104.490012"><ele>706.7416</ele><time>2026-02-28T18:52:42.000Z</time></trkpt>
        <trkpt lat="28.705524" lon="104.489983"><ele>707.65454</ele><time>2026-02-28T18:52:47.000Z</time></trkpt>
        <trkpt lat="28.705564" lon="104.489966"><ele>708.18085</ele><time>2026-02-28T18:52:51.000Z</time></trkpt>
        <trkpt lat="28.70561" lon="104.489961"><ele>708.1627</ele><time>2026-02-28T18:52:55.000Z</time></trkpt>
        <trkpt lat="28.705671" lon="104.489967"><ele>707.9741</ele><time>2026-02-28T18:53:03.000Z</time></trkpt>
        <trkpt lat="28.705709" lon="104.489948"><ele>707.91925</ele><time>2026-02-28T18:53:07.000Z</time></trkpt>
        <trkpt lat="28.705761" lon="104.489944"><ele>707.20386</ele><time>2026-02-28T18:53:11.000Z</time></trkpt>
        <trkpt lat="28.705811" lon="104.489944"><ele>707.15234</ele><time>2026-02-28T18:53:15.000Z</time></trkpt>
        <trkpt lat="28.705874" lon="104.489951"><ele>707.32764</ele><time>2026-02-28T18:53:20.000Z</time></trkpt>
        <trkpt lat="28.705922" lon="104.489963"><ele>706.42</ele><time>2026-02-28T18:53:24.000Z</time></trkpt>
        <trkpt lat="28.705971" lon="104.48998"><ele>705.9323</ele><time>2026-02-28T18:53:28.000Z</time></trkpt>
        <trkpt lat="28.706022" lon="104.489995"><ele>705.21106</ele><time>2026-02-28T18:53:33.000Z</time></trkpt>
        <trkpt lat="28.706067" lon="104.489998"><ele>704.7797</ele><time>2026-02-28T18:53:37.000Z</time></trkpt>
        <trkpt lat="28.70612" lon="104.489992"><ele>703.81323</ele><time>2026-02-28T18:53:42.000Z</time></trkpt>
        <trkpt lat="28.706175" lon="104.489967"><ele>702.0021</ele><time>2026-02-28T18:54:07.000Z</time></trkpt>
        <trkpt lat="28.706218" lon="104.489971"><ele>700.9247</ele><time>2026-02-28T18:54:13.000Z</time></trkpt>
        <trkpt lat="28.706262" lon="104.489941"><ele>698.2917</ele><time>2026-02-28T18:54:20.000Z</time></trkpt>
        <trkpt lat="28.706296" lon="104.48992"><ele>697.5558</ele><time>2026-02-28T18:54:23.000Z</time></trkpt>
        <trkpt lat="28.70634" lon="104.489884"><ele>696.89124</ele><time>2026-02-28T18:54:27.000Z</time></trkpt>
        <trkpt lat="28.706333" lon="104.489822"><ele>697.28815</ele><time>2026-02-28T18:54:40.000Z</time></trkpt>
        <trkpt lat="28.706311" lon="104.489774"><ele>697.1985</ele><time>2026-02-28T18:54:52.000Z</time></trkpt>
        <trkpt lat="28.706301" lon="104.489727"><ele>696.4702</ele><time>2026-02-28T18:54:58.000Z</time></trkpt>
        <trkpt lat="28.706319" lon="104.489687"><ele>696.1537</ele><time>2026-02-28T18:55:02.000Z</time></trkpt>
        <trkpt lat="28.706354" lon="104.489653"><ele>695.8436</ele><time>2026-02-28T18:55:06.000Z</time></trkpt>
        <trkpt lat="28.706393" lon="104.489619"><ele>695.40643</ele><time>2026-02-28T18:55:10.000Z</time></trkpt>
        <trkpt lat="28.706436" lon="104.489573"><ele>695.3568</ele><time>2026-02-28T18:55:16.000Z</time></trkpt>
        <trkpt lat="28.706461" lon="104.48954"><ele>695.5065</ele><time>2026-02-28T18:55:19.000Z</time></trkpt>
        <trkpt lat="28.706489" lon="104.489478"><ele>695.4847</ele><time>2026-02-28T18:55:25.000Z</time></trkpt>
        <trkpt lat="28.706503" lon="104.489419"><ele>695.758</ele><time>2026-02-28T18:55:29.000Z</time></trkpt>
        <trkpt lat="28.706531" lon="104.489358"><ele>696.74506</ele><time>2026-02-28T18:55:35.000Z</time></trkpt>
        <trkpt lat="28.70655" lon="104.489311"><ele>697.11163</ele><time>2026-02-28T18:55:40.000Z</time></trkpt>
        <trkpt lat="28.706566" lon="104.489257"><ele>697.234</ele><time>2026-02-28T18:55:50.000Z</time></trkpt>
        <trkpt lat="28.706565" lon="104.48921"><ele>697.13666</ele><time>2026-02-28T18:55:54.000Z</time></trkpt>
        <trkpt lat="28.706563" lon="104.489149"><ele>696.8737</ele><time>2026-02-28T18:55:58.000Z</time></trkpt>
        <trkpt lat="28.706561" lon="104.489074"><ele>696.0262</ele><time>2026-02-28T18:56:03.000Z</time></trkpt>
        <trkpt lat="28.706574" lon="104.489014"><ele>694.75964</ele><time>2026-02-28T18:56:07.000Z</time></trkpt>
        <trkpt lat="28.706588" lon="104.488947"><ele>693.057</ele><time>2026-02-28T18:56:12.000Z</time></trkpt>
        <trkpt lat="28.706578" lon="104.488888"><ele>688.79</ele><time>2026-02-28T18:56:31.000Z</time></trkpt>
        <trkpt lat="28.706564" lon="104.488859"><ele>687.54266</ele><time>2026-02-28T18:56:35.000Z</time></trkpt>
        <trkpt lat="28.706536" lon="104.48881"><ele>686.923</ele><time>2026-02-28T18:56:40.000Z</time></trkpt>
        <trkpt lat="28.7065" lon="104.488756"><ele>687.4134</ele><time>2026-02-28T18:56:45.000Z</time></trkpt>
        <trkpt lat="28.706465" lon="104.488705"><ele>687.76013</ele><time>2026-02-28T18:56:50.000Z</time></trkpt>
        <trkpt lat="28.706427" lon="104.488664"><ele>687.4077</ele><time>2026-02-28T18:56:54.000Z</time></trkpt>
        <trkpt lat="28.706387" lon="104.488622"><ele>687.9759</ele><time>2026-02-28T18:56:58.000Z</time></trkpt>
        <trkpt lat="28.706338" lon="104.488582"><ele>688.18933</ele><time>2026-02-28T18:57:03.000Z</time></trkpt>
        <trkpt lat="28.706305" lon="104.488527"><ele>687.4335</ele><time>2026-02-28T18:57:14.000Z</time></trkpt>
        <trkpt lat="28.706291" lon="104.488489"><ele>686.38214</ele><time>2026-02-28T18:57:18.000Z</time></trkpt>
        <trkpt lat="28.706273" lon="104.488438"><ele>685.8634</ele><time>2026-02-28T18:57:22.000Z</time></trkpt>
        <trkpt lat="28.706243" lon="104.488381"><ele>685.26263</ele><time>2026-02-28T18:57:27.000Z</time></trkpt>
        <trkpt lat="28.70621" lon="104.48834"><ele>685.4709</ele><time>2026-02-28T18:57:31.000Z</time></trkpt>
        <trkpt lat="28.706183" lon="104.488302"><ele>685.957</ele><time>2026-02-28T18:57:34.000Z</time></trkpt>
        <trkpt lat="28.70615" lon="104.488248"><ele>685.6173</ele><time>2026-02-28T18:57:39.000Z</time></trkpt>
        <trkpt lat="28.706125" lon="104.48819"><ele>685.018</ele><time>2026-02-28T18:57:43.000Z</time></trkpt>
        <trkpt lat="28.706096" lon="104.488137"><ele>683.951</ele><time>2026-02-28T18:57:48.000Z</time></trkpt>
        <trkpt lat="28.706063" lon="104.488085"><ele>682.8002</ele><time>2026-02-28T18:57:52.000Z</time></trkpt>
        <trkpt lat="28.706035" lon="104.48803"><ele>681.5546</ele><time>2026-02-28T18:57:56.000Z</time></trkpt>
        <trkpt lat="28.706018" lon="104.487976"><ele>680.2649</ele><time>2026-02-28T18:58:00.000Z</time></trkpt>
        <trkpt lat="28.706009" lon="104.487929"><ele>678.92725</ele><time>2026-02-28T18:58:03.000Z</time></trkpt>
        <trkpt lat="28.705993" lon="104.487869"><ele>677.51935</ele><time>2026-02-28T18:58:07.000Z</time></trkpt>
        <trkpt lat="28.70598" lon="104.487797"><ele>675.60516</ele><time>2026-02-28T18:58:12.000Z</time></trkpt>
        <trkpt lat="28.705969" lon="104.487737"><ele>674.4854</ele><time>2026-02-28T18:58:16.000Z</time></trkpt>
        <trkpt lat="28.705966" lon="104.48768"><ele>672.8455</ele><time>2026-02-28T18:58:20.000Z</time></trkpt>
        <trkpt lat="28.705958" lon="104.487623"><ele>671.89014</ele><time>2026-02-28T18:58:24.000Z</time></trkpt>
        <trkpt lat="28.705944" lon="104.487565"><ele>671.4014</ele><time>2026-02-28T18:58:28.000Z</time></trkpt>
        <trkpt lat="28.705936" lon="104.48751"><ele>670.19745</ele><time>2026-02-28T18:58:32.000Z</time></trkpt>
        <trkpt lat="28.705912" lon="104.487469"><ele>669.31006</ele><time>2026-02-28T18:58:36.000Z</time></trkpt>
        <trkpt lat="28.705931" lon="104.487508"><ele>670.55066</ele><time>2026-02-28T18:58:57.000Z</time></trkpt>
        <trkpt lat="28.705911" lon="104.487484"><ele>670.21954</ele><time>2026-02-28T18:59:04.000Z</time></trkpt>
        <trkpt lat="28.705868" lon="104.487435"><ele>669.56476</ele><time>2026-02-28T18:59:10.000Z</time></trkpt>
        <trkpt lat="28.705831" lon="104.487395"><ele>668.7711</ele><time>2026-02-28T18:59:15.000Z</time></trkpt>
        <trkpt lat="28.705783" lon="104.487376"><ele>668.8858</ele><time>2026-02-28T18:59:20.000Z</time></trkpt>
        <trkpt lat="28.705732" lon="104.48735"><ele>668.5273</ele><time>2026-02-28T18:59:26.000Z</time></trkpt>
        <trkpt lat="28.705707" lon="104.487303"><ele>667.39264</ele><time>2026-02-28T18:59:31.000Z</time></trkpt>
        <trkpt lat="28.705696" lon="104.487252"><ele>666.4605</ele><time>2026-02-28T18:59:35.000Z</time></trkpt>
        <trkpt lat="28.705692" lon="104.487191"><ele>665.29315</ele><time>2026-02-28T18:59:39.000Z</time></trkpt>
        <trkpt lat="28.705691" lon="104.487124"><ele>664.62244</ele><time>2026-02-28T18:59:43.000Z</time></trkpt>
        <trkpt lat="28.70569" lon="104.487057"><ele>663.9579</ele><time>2026-02-28T18:59:47.000Z</time></trkpt>
        <trkpt lat="28.705677" lon="104.486996"><ele>663.0467</ele><time>2026-02-28T18:59:51.000Z</time></trkpt>
        <trkpt lat="28.705661" lon="104.486939"><ele>662.2281</ele><time>2026-02-28T18:59:55.000Z</time></trkpt>
        <trkpt lat="28.705627" lon="104.486896"><ele>661.6542</ele><time>2026-02-28T18:59:59.000Z</time></trkpt>
        <trkpt lat="28.705586" lon="104.486858"><ele>661.0453</ele><time>2026-02-28T19:00:03.000Z</time></trkpt>
        <trkpt lat="28.705543" lon="104.48682"><ele>660.4189</ele><time>2026-02-28T19:00:07.000Z</time></trkpt>
        <trkpt lat="28.70553" lon="104.486764"><ele>660.17676</ele><time>2026-02-28T19:00:11.000Z</time></trkpt>
        <trkpt lat="28.705516" lon="104.486703"><ele>659.4216</ele><time>2026-02-28T19:00:15.000Z</time></trkpt>
        <trkpt lat="28.705503" lon="104.486642"><ele>658.4265</ele><time>2026-02-28T19:00:19.000Z</time></trkpt>
        <trkpt lat="28.705479" lon="104.486587"><ele>656.9583</ele><time>2026-02-28T19:00:23.000Z</time></trkpt>
        <trkpt lat="28.70545" lon="104.486537"><ele>655.4891</ele><time>2026-02-28T19:00:27.000Z</time></trkpt>
        <trkpt lat="28.705422" lon="104.486488"><ele>653.781</ele><time>2026-02-28T19:00:31.000Z</time></trkpt>
        <trkpt lat="28.705387" lon="104.486441"><ele>652.5909</ele><time>2026-02-28T19:00:35.000Z</time></trkpt>
        <trkpt lat="28.705347" lon="104.486393"><ele>652.1193</ele><time>2026-02-28T19:00:39.000Z</time></trkpt>
        <trkpt lat="28.705315" lon="104.486342"><ele>651.434</ele><time>2026-02-28T19:00:43.000Z</time></trkpt>
        <trkpt lat="28.705288" lon="104.486288"><ele>651.1766</ele><time>2026-02-28T19:00:47.000Z</time></trkpt>
        <trkpt lat="28.705268" lon="104.48623"><ele>652.399</ele><time>2026-02-28T19:00:51.000Z</time></trkpt>
        <trkpt lat="28.705252" lon="104.486171"><ele>652.47253</ele><time>2026-02-28T19:00:55.000Z</time></trkpt>
        <trkpt lat="28.705245" lon="104.486109"><ele>652.72253</ele><time>2026-02-28T19:00:59.000Z</time></trkpt>
        <trkpt lat="28.705242" lon="104.486047"><ele>652.5708</ele><time>2026-02-28T19:01:03.000Z</time></trkpt>
        <trkpt lat="28.705252" lon="104.485986"><ele>652.3752</ele><time>2026-02-28T19:01:07.000Z</time></trkpt>
        <trkpt lat="28.70527" lon="104.485917"><ele>652.72455</ele><time>2026-02-28T19:01:12.000Z</time></trkpt>
        <trkpt lat="28.705287" lon="104.485863"><ele>652.7501</ele><time>2026-02-28T19:01:16.000Z</time></trkpt>
        <trkpt lat="28.705306" lon="104.485811"><ele>652.9372</ele><time>2026-02-28T19:01:20.000Z</time></trkpt>
        <trkpt lat="28.705306" lon="104.485756"><ele>652.599</ele><time>2026-02-28T19:01:24.000Z</time></trkpt>
        <trkpt lat="28.705291" lon="104.485702"><ele>652.48785</ele><time>2026-02-28T19:01:28.000Z</time></trkpt>
        <trkpt lat="28.705267" lon="104.485643"><ele>652.5566</ele><time>2026-02-28T19:01:32.000Z</time></trkpt>
        <trkpt lat="28.705254" lon="104.485587"><ele>652.70374</ele><time>2026-02-28T19:01:36.000Z</time></trkpt>
        <trkpt lat="28.705243" lon="104.485521"><ele>653.15796</ele><time>2026-02-28T19:01:40.000Z</time></trkpt>
        <trkpt lat="28.705242" lon="104.485459"><ele>653.16077</ele><time>2026-02-28T19:01:44.000Z</time></trkpt>
        <trkpt lat="28.70524" lon="104.485401"><ele>652.48737</ele><time>2026-02-28T19:01:48.000Z</time></trkpt>
        <trkpt lat="28.705242" lon="104.485348"><ele>650.8526</ele><time>2026-02-28T19:01:52.000Z</time></trkpt>
        <trkpt lat="28.705227" lon="104.485297"><ele>649.65125</ele><time>2026-02-28T19:01:56.000Z</time></trkpt>
        <trkpt lat="28.705209" lon="104.485247"><ele>647.8176</ele><time>2026-02-28T19:02:00.000Z</time></trkpt>
        <trkpt lat="28.70521" lon="104.485201"><ele>646.6999</ele><time>2026-02-28T19:02:03.000Z</time></trkpt>
        <trkpt lat="28.705209" lon="104.485136"><ele>645.2439</ele><time>2026-02-28T19:02:07.000Z</time></trkpt>
        <trkpt lat="28.705204" lon="104.485078"><ele>643.7841</ele><time>2026-02-28T19:02:11.000Z</time></trkpt>
        <trkpt lat="28.705179" lon="104.485036"><ele>642.78064</ele><time>2026-02-28T19:02:15.000Z</time></trkpt>
        <trkpt lat="28.705137" lon="104.485008"><ele>641.6174</ele><time>2026-02-28T19:02:19.000Z</time></trkpt>
        <trkpt lat="28.705083" lon="104.485013"><ele>640.6974</ele><time>2026-02-28T19:02:24.000Z</time></trkpt>
        <trkpt lat="28.70503" lon="104.485025"><ele>639.92413</ele><time>2026-02-28T19:02:29.000Z</time></trkpt>
        <trkpt lat="28.704981" lon="104.485027"><ele>639.5557</ele><time>2026-02-28T19:02:35.000Z</time></trkpt>
        <trkpt lat="28.704972" lon="104.48499"><ele>639.5185</ele><time>2026-02-28T19:02:39.000Z</time></trkpt>
        <trkpt lat="28.704979" lon="104.48493"><ele>639.522</ele><time>2026-02-28T19:02:43.000Z</time></trkpt>
        <trkpt lat="28.705022" lon="104.484881"><ele>637.85</ele><time>2026-02-28T19:02:48.000Z</time></trkpt>
        <trkpt lat="28.70506" lon="104.484835"><ele>636.71844</ele><time>2026-02-28T19:02:52.000Z</time></trkpt>
        <trkpt lat="28.705087" lon="104.484783"><ele>635.2943</ele><time>2026-02-28T19:02:56.000Z</time></trkpt>
        <trkpt lat="28.705079" lon="104.484824"><ele>633.4188</ele><time>2026-02-28T19:03:13.000Z</time></trkpt>
        <trkpt lat="28.705047" lon="104.484871"><ele>635.9232</ele><time>2026-02-28T19:03:31.000Z</time></trkpt>
        <trkpt lat="28.705016" lon="104.484901"><ele>636.7269</ele><time>2026-02-28T19:03:36.000Z</time></trkpt>
        <trkpt lat="28.704991" lon="104.48495"><ele>637.8003</ele><time>2026-02-28T19:03:40.000Z</time></trkpt>
        <trkpt lat="28.705014" lon="104.485007"><ele>640.0191</ele><time>2026-02-28T19:03:45.000Z</time></trkpt>
        <trkpt lat="28.705064" lon="104.485013"><ele>641.8481</ele><time>2026-02-28T19:03:51.000Z</time></trkpt>
        <trkpt lat="28.705121" lon="104.48501"><ele>643.0169</ele><time>2026-02-28T19:03:57.000Z</time></trkpt>
        <trkpt lat="28.705175" lon="104.485018"><ele>643.9853</ele><time>2026-02-28T19:04:04.000Z</time></trkpt>
        <trkpt lat="28.705204" lon="104.485056"><ele>643.83124</ele><time>2026-02-28T19:04:10.000Z</time></trkpt>
        <trkpt lat="28.705229" lon="104.485099"><ele>644.0461</ele><time>2026-02-28T19:04:15.000Z</time></trkpt>
        <trkpt lat="28.705247" lon="104.485156"><ele>645.08636</ele><time>2026-02-28T19:04:21.000Z</time></trkpt>
        <trkpt lat="28.705251" lon="104.485204"><ele>645.7039</ele><time>2026-02-28T19:04:25.000Z</time></trkpt>
        <trkpt lat="28.705253" lon="104.485268"><ele>647.84033</ele><time>2026-02-28T19:04:31.000Z</time></trkpt>
        <trkpt lat="28.705259" lon="104.485327"><ele>649.20886</ele><time>2026-02-28T19:04:37.000Z</time></trkpt>
        <trkpt lat="28.70526" lon="104.485386"><ele>649.5998</ele><time>2026-02-28T19:04:43.000Z</time></trkpt>
        <trkpt lat="28.705258" lon="104.485443"><ele>651.31683</ele><time>2026-02-28T19:04:48.000Z</time></trkpt>
        <trkpt lat="28.70525" lon="104.485503"><ele>652.7539</ele><time>2026-02-28T19:04:53.000Z</time></trkpt>
        <trkpt lat="28.705245" lon="104.485562"><ele>653.61053</ele><time>2026-02-28T19:04:58.000Z</time></trkpt>
        <trkpt lat="28.705242" lon="104.48562"><ele>653.9358</ele><time>2026-02-28T19:05:03.000Z</time></trkpt>
        <trkpt lat="28.705255" lon="104.485678"><ele>654.412</ele><time>2026-02-28T19:05:08.000Z</time></trkpt>
        <trkpt lat="28.705284" lon="104.485738"><ele>653.98364</ele><time>2026-02-28T19:05:14.000Z</time></trkpt>
        <trkpt lat="28.7053" lon="104.48579"><ele>652.64197</ele><time>2026-02-28T19:05:19.000Z</time></trkpt>
        <trkpt lat="28.705295" lon="104.485853"><ele>652.1351</ele><time>2026-02-28T19:05:24.000Z</time></trkpt>
        <trkpt lat="28.705279" lon="104.485904"><ele>652.005</ele><time>2026-02-28T19:05:28.000Z</time></trkpt>
        <trkpt lat="28.705264" lon="104.485974"><ele>652.46326</ele><time>2026-02-28T19:05:35.000Z</time></trkpt>
        <trkpt lat="28.705258" lon="104.486032"><ele>652.492</ele><time>2026-02-28T19:05:40.000Z</time></trkpt>
        <trkpt lat="28.705242" lon="104.48608"><ele>652.461</ele><time>2026-02-28T19:05:44.000Z</time></trkpt>
        <trkpt lat="28.705246" lon="104.486134"><ele>652.5184</ele><time>2026-02-28T19:05:49.000Z</time></trkpt>
        <trkpt lat="28.705252" lon="104.48619"><ele>653.1891</ele><time>2026-02-28T19:05:54.000Z</time></trkpt>
        <trkpt lat="28.70527" lon="104.486239"><ele>653.74036</ele><time>2026-02-28T19:05:59.000Z</time></trkpt>
        <trkpt lat="28.705292" lon="104.486286"><ele>654.1576</ele><time>2026-02-28T19:06:04.000Z</time></trkpt>
        <trkpt lat="28.705317" lon="104.486344"><ele>654.211</ele><time>2026-02-28T19:06:24.000Z</time></trkpt>
        <trkpt lat="28.705339" lon="104.486374"><ele>654.03577</ele><time>2026-02-28T19:06:30.000Z</time></trkpt>
        <trkpt lat="28.705375" lon="104.486418"><ele>654.3096</ele><time>2026-02-28T19:06:35.000Z</time></trkpt>
        <trkpt lat="28.705413" lon="104.486467"><ele>654.1291</ele><time>2026-02-28T19:06:41.000Z</time></trkpt>
        <trkpt lat="28.705443" lon="104.486512"><ele>653.8031</ele><time>2026-02-28T19:06:47.000Z</time></trkpt>
        <trkpt lat="28.705471" lon="104.486561"><ele>654.5986</ele><time>2026-02-28T19:06:53.000Z</time></trkpt>
        <trkpt lat="28.705491" lon="104.486609"><ele>655.4754</ele><time>2026-02-28T19:06:58.000Z</time></trkpt>
        <trkpt lat="28.705513" lon="104.486657"><ele>656.2529</ele><time>2026-02-28T19:07:03.000Z</time></trkpt>
        <trkpt lat="28.705535" lon="104.486707"><ele>657.4899</ele><time>2026-02-28T19:07:08.000Z</time></trkpt>
        <trkpt lat="28.705563" lon="104.486759"><ele>659.515</ele><time>2026-02-28T19:07:20.000Z</time></trkpt>
        <trkpt lat="28.705561" lon="104.486807"><ele>659.81006</ele><time>2026-02-28T19:07:25.000Z</time></trkpt>
        <trkpt lat="28.705585" lon="104.486851"><ele>661.3765</ele><time>2026-02-28T19:07:29.000Z</time></trkpt>
        <trkpt lat="28.705607" lon="104.486906"><ele>662.4888</ele><time>2026-02-28T19:07:34.000Z</time></trkpt>
        <trkpt lat="28.705652" lon="104.486953"><ele>663.1563</ele><time>2026-02-28T19:07:41.000Z</time></trkpt>
        <trkpt lat="28.705677" lon="104.486998"><ele>662.8019</ele><time>2026-02-28T19:07:46.000Z</time></trkpt>
        <trkpt lat="28.705686" lon="104.487045"><ele>662.6953</ele><time>2026-02-28T19:07:50.000Z</time></trkpt>
        <trkpt lat="28.705691" lon="104.487109"><ele>662.5691</ele><time>2026-02-28T19:07:55.000Z</time></trkpt>
        <trkpt lat="28.705695" lon="104.487164"><ele>663.04834</ele><time>2026-02-28T19:07:59.000Z</time></trkpt>
        <trkpt lat="28.705698" lon="104.487227"><ele>663.91003</ele><time>2026-02-28T19:08:04.000Z</time></trkpt>
        <trkpt lat="28.705711" lon="104.487284"><ele>664.251</ele><time>2026-02-28T19:08:09.000Z</time></trkpt>
        <trkpt lat="28.705727" lon="104.487332"><ele>665.72156</ele><time>2026-02-28T19:08:13.000Z</time></trkpt>
        <trkpt lat="28.705741" lon="104.487382"><ele>666.78674</ele><time>2026-02-28T19:08:17.000Z</time></trkpt>
        <trkpt lat="28.705741" lon="104.487446"><ele>667.5889</ele><time>2026-02-28T19:08:22.000Z</time></trkpt>
        <trkpt lat="28.705728" lon="104.487493"><ele>667.6349</ele><time>2026-02-28T19:08:25.000Z</time></trkpt>
        <trkpt lat="28.705701" lon="104.487558"><ele>667.82056</ele><time>2026-02-28T19:08:31.000Z</time></trkpt>
        <trkpt lat="28.705678" lon="104.487606"><ele>669.08734</ele><time>2026-02-28T19:08:35.000Z</time></trkpt>
        <trkpt lat="28.705659" lon="104.487656"><ele>670.2958</ele><time>2026-02-28T19:08:39.000Z</time></trkpt>
        <trkpt lat="28.70565" lon="104.487709"><ele>670.9987</ele><time>2026-02-28T19:08:43.000Z</time></trkpt>
        <trkpt lat="28.705643" lon="104.487762"><ele>670.8887</ele><time>2026-02-28T19:08:47.000Z</time></trkpt>
        <trkpt lat="28.705658" lon="104.487826"><ele>671.80853</ele><time>2026-02-28T19:09:11.000Z</time></trkpt>
        <trkpt lat="28.705664" lon="104.487882"><ele>672.5072</ele><time>2026-02-28T19:09:29.000Z</time></trkpt>
        <trkpt lat="28.705666" lon="104.487936"><ele>673.04926</ele><time>2026-02-28T19:09:33.000Z</time></trkpt>
        <trkpt lat="28.705662" lon="104.487997"><ele>673.8811</ele><time>2026-02-28T19:09:38.000Z</time></trkpt>
        <trkpt lat="28.705665" lon="104.487973"><ele>674.0575</ele><time>2026-02-28T19:09:43.000Z</time></trkpt>
        <trkpt lat="28.705669" lon="104.487917"><ele>674.07324</ele><time>2026-02-28T19:09:47.000Z</time></trkpt>
        <trkpt lat="28.705665" lon="104.487855"><ele>673.8058</ele><time>2026-02-28T19:09:51.000Z</time></trkpt>
        <trkpt lat="28.705659" lon="104.487792"><ele>673.2717</ele><time>2026-02-28T19:09:55.000Z</time></trkpt>
        <trkpt lat="28.705657" lon="104.48773"><ele>672.728</ele><time>2026-02-28T19:09:59.000Z</time></trkpt>
        <trkpt lat="28.705661" lon="104.487672"><ele>672.2639</ele><time>2026-02-28T19:10:03.000Z</time></trkpt>
        <trkpt lat="28.705671" lon="104.487617"><ele>671.7582</ele><time>2026-02-28T19:10:07.000Z</time></trkpt>
        <trkpt lat="28.705686" lon="104.487564"><ele>671.2507</ele><time>2026-02-28T19:10:11.000Z</time></trkpt>
        <trkpt lat="28.705705" lon="104.487512"><ele>670.8723</ele><time>2026-02-28T19:10:15.000Z</time></trkpt>
        <trkpt lat="28.70573" lon="104.487459"><ele>670.2006</ele><time>2026-02-28T19:10:20.000Z</time></trkpt>
        <trkpt lat="28.705724" lon="104.487482"><ele>670.02203</ele><time>2026-02-28T19:10:24.000Z</time></trkpt>
        <trkpt lat="28.705706" lon="104.487535"><ele>670.7617</ele><time>2026-02-28T19:10:28.000Z</time></trkpt>
        <trkpt lat="28.705685" lon="104.487596"><ele>670.9804</ele><time>2026-02-28T19:10:32.000Z</time></trkpt>
        <trkpt lat="28.705668" lon="104.487656"><ele>671.48425</ele><time>2026-02-28T19:10:36.000Z</time></trkpt>
        <trkpt lat="28.705658" lon="104.487726"><ele>671.1096</ele><time>2026-02-28T19:10:52.000Z</time></trkpt>
        <trkpt lat="28.70566" lon="104.487764"><ele>671.4265</ele><time>2026-02-28T19:10:56.000Z</time></trkpt>
        <trkpt lat="28.705661" lon="104.487821"><ele>671.92505</ele><time>2026-02-28T19:11:00.000Z</time></trkpt>
        <trkpt lat="28.705663" lon="104.487886"><ele>672.3902</ele><time>2026-02-28T19:11:04.000Z</time></trkpt>
        <trkpt lat="28.705659" lon="104.487952"><ele>673.3298</ele><time>2026-02-28T19:11:08.000Z</time></trkpt>
        <trkpt lat="28.705648" lon="104.488015"><ele>674.17737</ele><time>2026-02-28T19:11:12.000Z</time></trkpt>
        <trkpt lat="28.705625" lon="104.488067"><ele>674.46826</ele><time>2026-02-28T19:11:16.000Z</time></trkpt>
        <trkpt lat="28.705597" lon="104.488118"><ele>674.3386</ele><time>2026-02-28T19:11:20.000Z</time></trkpt>
        <trkpt lat="28.705573" lon="104.488173"><ele>674.0997</ele><time>2026-02-28T19:11:24.000Z</time></trkpt>
        <trkpt lat="28.70557" lon="104.48823"><ele>673.9782</ele><time>2026-02-28T19:11:28.000Z</time></trkpt>
        <trkpt lat="28.705583" lon="104.488287"><ele>674.22186</ele><time>2026-02-28T19:11:33.000Z</time></trkpt>
        <trkpt lat="28.705606" lon="104.488334"><ele>674.66693</ele><time>2026-02-28T19:11:38.000Z</time></trkpt>
        <trkpt lat="28.705614" lon="104.488385"><ele>674.5412</ele><time>2026-02-28T19:11:43.000Z</time></trkpt>
        <trkpt lat="28.705646" lon="104.488426"><ele>674.79974</ele><time>2026-02-28T19:11:47.000Z</time></trkpt>
        <trkpt lat="28.705685" lon="104.488475"><ele>675.0688</ele><time>2026-02-28T19:11:52.000Z</time></trkpt>
        <trkpt lat="28.705727" lon="104.48852"><ele>676.12756</ele><time>2026-02-28T19:11:57.000Z</time></trkpt>
        <trkpt lat="28.705776" lon="104.488549"><ele>677.0823</ele><time>2026-02-28T19:12:02.000Z</time></trkpt>
        <trkpt lat="28.705825" lon="104.488587"><ele>678.3801</ele><time>2026-02-28T19:12:10.000Z</time></trkpt>
        <trkpt lat="28.705866" lon="104.488614"><ele>678.74036</ele><time>2026-02-28T19:12:15.000Z</time></trkpt>
        <trkpt lat="28.70591" lon="104.488659"><ele>679.2542</ele><time>2026-02-28T19:12:20.000Z</time></trkpt>
        <trkpt lat="28.705933" lon="104.488714"><ele>680.36523</ele><time>2026-02-28T19:12:24.000Z</time></trkpt>
        <trkpt lat="28.705937" lon="104.488775"><ele>681.11945</ele><time>2026-02-28T19:12:28.000Z</time></trkpt>
        <trkpt lat="28.705916" lon="104.488831"><ele>681.8332</ele><time>2026-02-28T19:12:32.000Z</time></trkpt>
        <trkpt lat="28.705891" lon="104.488879"><ele>682.48175</ele><time>2026-02-28T19:12:35.000Z</time></trkpt>
        <trkpt lat="28.70585" lon="104.48893"><ele>683.61725</ele><time>2026-02-28T19:12:39.000Z</time></trkpt>
        <trkpt lat="28.705812" lon="104.488962"><ele>684.8582</ele><time>2026-02-28T19:12:42.000Z</time></trkpt>
        <trkpt lat="28.705754" lon="104.488981"><ele>685.77203</ele><time>2026-02-28T19:12:47.000Z</time></trkpt>
        <trkpt lat="28.705713" lon="104.488988"><ele>686.5288</ele><time>2026-02-28T19:12:50.000Z</time></trkpt>
        <trkpt lat="28.705653" lon="104.489007"><ele>687.1544</ele><time>2026-02-28T19:12:55.000Z</time></trkpt>
        <trkpt lat="28.705592" lon="104.489017"><ele>687.181</ele><time>2026-02-28T19:13:00.000Z</time></trkpt>
        <trkpt lat="28.705551" lon="104.488996"><ele>686.79016</ele><time>2026-02-28T19:13:04.000Z</time></trkpt>
        <trkpt lat="28.705493" lon="104.488969"><ele>686.4192</ele><time>2026-02-28T19:13:09.000Z</time></trkpt>
        <trkpt lat="28.705451" lon="104.488933"><ele>686.0544</ele><time>2026-02-28T19:13:13.000Z</time></trkpt>
        <trkpt lat="28.705402" lon="104.488909"><ele>685.91595</ele><time>2026-02-28T19:13:17.000Z</time></trkpt>
        <trkpt lat="28.70535" lon="104.488889"><ele>686.38055</ele><time>2026-02-28T19:13:22.000Z</time></trkpt>
        <trkpt lat="28.705305" lon="104.488861"><ele>687.92444</ele><time>2026-02-28T19:13:28.000Z</time></trkpt>
        <trkpt lat="28.705267" lon="104.488866"><ele>689.3027</ele><time>2026-02-28T19:13:32.000Z</time></trkpt>
        <trkpt lat="28.705218" lon="104.488887"><ele>690.2879</ele><time>2026-02-28T19:13:37.000Z</time></trkpt>
        <trkpt lat="28.705171" lon="104.488918"><ele>690.94763</ele><time>2026-02-28T19:13:43.000Z</time></trkpt>
        <trkpt lat="28.705131" lon="104.488964"><ele>691.7933</ele><time>2026-02-28T19:13:49.000Z</time></trkpt>
        <trkpt lat="28.705111" lon="104.489007"><ele>692.7276</ele><time>2026-02-28T19:13:53.000Z</time></trkpt>
        <trkpt lat="28.705075" lon="104.489044"><ele>693.7125</ele><time>2026-02-28T19:13:58.000Z</time></trkpt>
        <trkpt lat="28.705034" lon="104.489081"><ele>693.7288</ele><time>2026-02-28T19:14:04.000Z</time></trkpt>
        <trkpt lat="28.704998" lon="104.489114"><ele>694.4256</ele><time>2026-02-28T19:14:09.000Z</time></trkpt>
        <trkpt lat="28.704971" lon="104.489158"><ele>695.47766</ele><time>2026-02-28T19:14:14.000Z</time></trkpt>
        <trkpt lat="28.704956" lon="104.489213"><ele>696.87537</ele><time>2026-02-28T19:14:20.000Z</time></trkpt>
        <trkpt lat="28.704936" lon="104.489253"><ele>698.62726</ele><time>2026-02-28T19:14:24.000Z</time></trkpt>
        <trkpt lat="28.704896" lon="104.489282"><ele>699.88104</ele><time>2026-02-28T19:14:28.000Z</time></trkpt>
        <trkpt lat="28.704852" lon="104.489281"><ele>700.5152</ele><time>2026-02-28T19:14:31.000Z</time></trkpt>
        <trkpt lat="28.704802" lon="104.489275"><ele>700.8211</ele><time>2026-02-28T19:14:34.000Z</time></trkpt>
        <trkpt lat="28.704747" lon="104.489264"><ele>700.5978</ele><time>2026-02-28T19:14:37.000Z</time></trkpt>
        <trkpt lat="28.704688" lon="104.48924"><ele>700.07666</ele><time>2026-02-28T19:14:41.000Z</time></trkpt>
        <trkpt lat="28.704647" lon="104.489213"><ele>699.3367</ele><time>2026-02-28T19:14:44.000Z</time></trkpt>
        <trkpt lat="28.704597" lon="104.489189"><ele>698.78357</ele><time>2026-02-28T19:14:48.000Z</time></trkpt>
        <trkpt lat="28.704543" lon="104.489183"><ele>698.4444</ele><time>2026-02-28T19:14:53.000Z</time></trkpt>
        <trkpt lat="28.704507" lon="104.489208"><ele>698.3304</ele><time>2026-02-28T19:14:57.000Z</time></trkpt>
        <trkpt lat="28.704469" lon="104.489248"><ele>698.083</ele><time>2026-02-28T19:15:02.000Z</time></trkpt>
        <trkpt lat="28.704438" lon="104.489305"><ele>698.00256</ele><time>2026-02-28T19:15:08.000Z</time></trkpt>
        <trkpt lat="28.704416" lon="104.489358"><ele>697.87</ele><time>2026-02-28T19:15:13.000Z</time></trkpt>
        <trkpt lat="28.70439" lon="104.489401"><ele>697.39484</ele><time>2026-02-28T19:15:17.000Z</time></trkpt>
        <trkpt lat="28.704363" lon="104.489448"><ele>697.3714</ele><time>2026-02-28T19:15:21.000Z</time></trkpt>
        <trkpt lat="28.704337" lon="104.489498"><ele>697.11597</ele><time>2026-02-28T19:15:25.000Z</time></trkpt>
        <trkpt lat="28.704301" lon="104.489558"><ele>696.5189</ele><time>2026-02-28T19:15:30.000Z</time></trkpt>
        <trkpt lat="28.704269" lon="104.489605"><ele>696.36096</ele><time>2026-02-28T19:15:34.000Z</time></trkpt>
        <trkpt lat="28.704231" lon="104.489647"><ele>696.43274</ele><time>2026-02-28T19:15:38.000Z</time></trkpt>
        <trkpt lat="28.704188" lon="104.489673"><ele>696.037</ele><time>2026-02-28T19:15:42.000Z</time></trkpt>
        <trkpt lat="28.704142" lon="104.489699"><ele>695.5292</ele><time>2026-02-28T19:15:46.000Z</time></trkpt>
        <trkpt lat="28.704092" lon="104.489701"><ele>694.6686</ele><time>2026-02-28T19:15:51.000Z</time></trkpt>
        <trkpt lat="28.704053" lon="104.489655"><ele>694.68774</ele><time>2026-02-28T19:16:00.000Z</time></trkpt>
        <trkpt lat="28.70409" lon="104.489687"><ele>695.18866</ele><time>2026-02-28T19:16:10.000Z</time></trkpt>
        <trkpt lat="28.704119" lon="104.489725"><ele>695.7987</ele><time>2026-02-28T19:16:14.000Z</time></trkpt>
        <trkpt lat="28.704135" lon="104.489784"><ele>696.04767</ele><time>2026-02-28T19:16:19.000Z</time></trkpt>
        <trkpt lat="28.704157" lon="104.489821"><ele>695.8848</ele><time>2026-02-28T19:16:22.000Z</time></trkpt>
        <trkpt lat="28.704191" lon="104.489872"><ele>695.84155</ele><time>2026-02-28T19:16:27.000Z</time></trkpt>
        <trkpt lat="28.704226" lon="104.48991"><ele>695.706</ele><time>2026-02-28T19:16:31.000Z</time></trkpt>
        <trkpt lat="28.704276" lon="104.489941"><ele>696.4637</ele><time>2026-02-28T19:16:36.000Z</time></trkpt>
        <trkpt lat="28.704317" lon="104.489951"><ele>696.81903</ele><time>2026-02-28T19:16:39.000Z</time></trkpt>
        <trkpt lat="28.704379" lon="104.489963"><ele>697.7422</ele><time>2026-02-28T19:16:44.000Z</time></trkpt>
        <trkpt lat="28.704438" lon="104.489971"><ele>698.65625</ele><time>2026-02-28T19:16:49.000Z</time></trkpt>
        <trkpt lat="28.704484" lon="104.489979"><ele>699.16656</ele><time>2026-02-28T19:16:53.000Z</time></trkpt>
        <trkpt lat="28.704535" lon="104.489999"><ele>699.40894</ele><time>2026-02-28T19:16:58.000Z</time></trkpt>
        <trkpt lat="28.704585" lon="104.490026"><ele>699.2938</ele><time>2026-02-28T19:17:03.000Z</time></trkpt>
        <trkpt lat="28.704628" lon="104.490037"><ele>699.36523</ele><time>2026-02-28T19:17:07.000Z</time></trkpt>
        <trkpt lat="28.704676" lon="104.49003"><ele>699.62024</ele><time>2026-02-28T19:17:11.000Z</time></trkpt>
        <trkpt lat="28.704732" lon="104.490017"><ele>700.1145</ele><time>2026-02-28T19:17:15.000Z</time></trkpt>
        <trkpt lat="28.704784" lon="104.490008"><ele>700.6366</ele><time>2026-02-28T19:17:19.000Z</time></trkpt>
        <trkpt lat="28.704838" lon="104.490003"><ele>701.6887</ele><time>2026-02-28T19:17:24.000Z</time></trkpt>
        <trkpt lat="28.704887" lon="104.49002"><ele>701.594</ele><time>2026-02-28T19:17:30.000Z</time></trkpt>
        <trkpt lat="28.704931" lon="104.490032"><ele>701.66003</ele><time>2026-02-28T19:17:34.000Z</time></trkpt>
        <trkpt lat="28.704977" lon="104.490043"><ele>701.4403</ele><time>2026-02-28T19:17:38.000Z</time></trkpt>
        <trkpt lat="28.705027" lon="104.490055"><ele>701.0185</ele><time>2026-02-28T19:17:42.000Z</time></trkpt>
        <trkpt lat="28.705077" lon="104.490067"><ele>700.56305</ele><time>2026-02-28T19:17:46.000Z</time></trkpt>
        <trkpt lat="28.705115" lon="104.490087"><ele>700.3511</ele><time>2026-02-28T19:17:49.000Z</time></trkpt>
        <trkpt lat="28.705157" lon="104.49013"><ele>699.91534</ele><time>2026-02-28T19:17:53.000Z</time></trkpt>
        <trkpt lat="28.705187" lon="104.490186"><ele>699.69165</ele><time>2026-02-28T19:17:57.000Z</time></trkpt>
        <trkpt lat="28.705215" lon="104.490225"><ele>699.5864</ele><time>2026-02-28T19:18:00.000Z</time></trkpt>
        <trkpt lat="28.705234" lon="104.490281"><ele>699.72485</ele><time>2026-02-28T19:18:04.000Z</time></trkpt>
        <trkpt lat="28.70525" lon="104.49034"><ele>699.6616</ele><time>2026-02-28T19:18:08.000Z</time></trkpt>
        <trkpt lat="28.705267" lon="104.490399"><ele>699.5962</ele><time>2026-02-28T19:18:12.000Z</time></trkpt>
        <trkpt lat="28.705286" lon="104.490443"><ele>699.6802</ele><time>2026-02-28T19:18:15.000Z</time></trkpt>
        <trkpt lat="28.705305" lon="104.490498"><ele>699.1703</ele><time>2026-02-28T19:18:19.000Z</time></trkpt>
        <trkpt lat="28.705322" lon="104.490561"><ele>698.25714</ele><time>2026-02-28T19:18:24.000Z</time></trkpt>
        <trkpt lat="28.705334" lon="104.490617"><ele>697.58435</ele><time>2026-02-28T19:18:28.000Z</time></trkpt>
        <trkpt lat="28.705336" lon="104.490671"><ele>697.1808</ele><time>2026-02-28T19:18:32.000Z</time></trkpt>
        <trkpt lat="28.705337" lon="104.490732"><ele>696.5319</ele><time>2026-02-28T19:18:37.000Z</time></trkpt>
        <trkpt lat="28.70535" lon="104.49078"><ele>696.2143</ele><time>2026-02-28T19:18:41.000Z</time></trkpt>
        <trkpt lat="28.705362" lon="104.490844"><ele>695.90985</ele><time>2026-02-28T19:18:46.000Z</time></trkpt>
        <trkpt lat="28.705374" lon="104.490899"><ele>696.0805</ele><time>2026-02-28T19:18:50.000Z</time></trkpt>
        <trkpt lat="28.705392" lon="104.490949"><ele>696.14874</ele><time>2026-02-28T19:18:54.000Z</time></trkpt>
        <trkpt lat="28.705402" lon="104.491005"><ele>696.3069</ele><time>2026-02-28T19:18:58.000Z</time></trkpt>
        <trkpt lat="28.705411" lon="104.491061"><ele>696.18933</ele><time>2026-02-28T19:19:02.000Z</time></trkpt>
        <trkpt lat="28.705425" lon="104.491113"><ele>696.53784</ele><time>2026-02-28T19:19:06.000Z</time></trkpt>
        <trkpt lat="28.705431" lon="104.491171"><ele>696.2338</ele><time>2026-02-28T19:19:10.000Z</time></trkpt>
        <trkpt lat="28.705438" lon="104.491234"><ele>697.1393</ele><time>2026-02-28T19:19:15.000Z</time></trkpt>
        <trkpt lat="28.705435" lon="104.49129"><ele>696.9577</ele><time>2026-02-28T19:19:20.000Z</time></trkpt>
        <trkpt lat="28.705445" lon="104.491336"><ele>696.8855</ele><time>2026-02-28T19:19:24.000Z</time></trkpt>
        <trkpt lat="28.705473" lon="104.491384"><ele>696.639</ele><time>2026-02-28T19:19:29.000Z</time></trkpt>
        <trkpt lat="28.705494" lon="104.491443"><ele>696.7334</ele><time>2026-02-28T19:19:34.000Z</time></trkpt>
        <trkpt lat="28.705512" lon="104.491499"><ele>697.03284</ele><time>2026-02-28T19:19:39.000Z</time></trkpt>
        <trkpt lat="28.705535" lon="104.491562"><ele>697.6588</ele><time>2026-02-28T19:19:45.000Z</time></trkpt>
        <trkpt lat="28.705555" lon="104.491618"><ele>698.49084</ele><time>2026-02-28T19:19:50.000Z</time></trkpt>
        <trkpt lat="28.705564" lon="104.49167"><ele>698.80945</ele><time>2026-02-28T19:19:54.000Z</time></trkpt>
        <trkpt lat="28.705547" lon="104.491733"><ele>699.0566</ele><time>2026-02-28T19:19:59.000Z</time></trkpt>
        <trkpt lat="28.705541" lon="104.491785"><ele>700.0843</ele><time>2026-02-28T19:20:03.000Z</time></trkpt>
        <trkpt lat="28.705533" lon="104.491839"><ele>701.2966</ele><time>2026-02-28T19:20:07.000Z</time></trkpt>
        <trkpt lat="28.70551" lon="104.491886"><ele>702.53625</ele><time>2026-02-28T19:20:11.000Z</time></trkpt>
        <trkpt lat="28.705463" lon="104.491933"><ele>704.1622</ele><time>2026-02-28T19:20:18.000Z</time></trkpt>
        <trkpt lat="28.705409" lon="104.491939"><ele>704.34406</ele><time>2026-02-28T19:20:23.000Z</time></trkpt>
        <trkpt lat="28.705362" lon="104.49194"><ele>704.40985</ele><time>2026-02-28T19:20:27.000Z</time></trkpt>
        <trkpt lat="28.705308" lon="104.491934"><ele>703.8585</ele><time>2026-02-28T19:20:31.000Z</time></trkpt>
        <trkpt lat="28.705258" lon="104.49192"><ele>703.08185</ele><time>2026-02-28T19:20:35.000Z</time></trkpt>
        <trkpt lat="28.705203" lon="104.491889"><ele>701.9714</ele><time>2026-02-28T19:20:40.000Z</time></trkpt>
        <trkpt lat="28.705151" lon="104.491865"><ele>701.0023</ele><time>2026-02-28T19:20:44.000Z</time></trkpt>
        <trkpt lat="28.7051" lon="104.491863"><ele>700.3219</ele><time>2026-02-28T19:20:47.000Z</time></trkpt>
        <trkpt lat="28.705042" lon="104.491897"><ele>700.2902</ele><time>2026-02-28T19:20:51.000Z</time></trkpt>
        <trkpt lat="28.705014" lon="104.491965"><ele>701.1382</ele><time>2026-02-28T19:20:55.000Z</time></trkpt>
        <trkpt lat="28.705018" lon="104.492042"><ele>702.12427</ele><time>2026-02-28T19:20:59.000Z</time></trkpt>
        <trkpt lat="28.705031" lon="104.492115"><ele>702.40436</ele><time>2026-02-28T19:21:03.000Z</time></trkpt>
        <trkpt lat="28.705062" lon="104.492173"><ele>701.72845</ele><time>2026-02-28T19:21:07.000Z</time></trkpt>
        <trkpt lat="28.70509" lon="104.492216"><ele>701.50464</ele><time>2026-02-28T19:21:10.000Z</time></trkpt>
        <trkpt lat="28.70511" lon="104.492268"><ele>702.28937</ele><time>2026-02-28T19:21:13.000Z</time></trkpt>
        <trkpt lat="28.705108" lon="104.492324"><ele>701.872</ele><time>2026-02-28T19:21:16.000Z</time></trkpt>
        <trkpt lat="28.705083" lon="104.492388"><ele>701.77014</ele><time>2026-02-28T19:21:20.000Z</time></trkpt>
        <trkpt lat="28.705026" lon="104.49241"><ele>702.02704</ele><time>2026-02-28T19:21:27.000Z</time></trkpt>
        <trkpt lat="28.704973" lon="104.492404"><ele>702.167</ele><time>2026-02-28T19:21:32.000Z</time></trkpt>
        <trkpt lat="28.704921" lon="104.492408"><ele>701.5511</ele><time>2026-02-28T19:21:37.000Z</time></trkpt>
        <trkpt lat="28.70488" lon="104.492419"><ele>700.84015</ele><time>2026-02-28T19:21:40.000Z</time></trkpt>
        <trkpt lat="28.704841" lon="104.492448"><ele>699.5512</ele><time>2026-02-28T19:21:43.000Z</time></trkpt>
        <trkpt lat="28.704814" lon="104.4925"><ele>698.48987</ele><time>2026-02-28T19:21:46.000Z</time></trkpt>
        <trkpt lat="28.704792" lon="104.492559"><ele>697.3703</ele><time>2026-02-28T19:21:49.000Z</time></trkpt>
        <trkpt lat="28.704783" lon="104.492638"><ele>696.8922</ele><time>2026-02-28T19:21:54.000Z</time></trkpt>
        <trkpt lat="28.704795" lon="104.492697"><ele>696.6271</ele><time>2026-02-28T19:21:58.000Z</time></trkpt>
        <trkpt lat="28.704814" lon="104.492749"><ele>696.90125</ele><time>2026-02-28T19:22:02.000Z</time></trkpt>
        <trkpt lat="28.704839" lon="104.492798"><ele>697.2682</ele><time>2026-02-28T19:22:06.000Z</time></trkpt>
        <trkpt lat="28.704868" lon="104.492849"><ele>698.0742</ele><time>2026-02-28T19:22:10.000Z</time></trkpt>
        <trkpt lat="28.704904" lon="104.492897"><ele>698.61816</ele><time>2026-02-28T19:22:14.000Z</time></trkpt>
        <trkpt lat="28.704941" lon="104.492942"><ele>698.55963</ele><time>2026-02-28T19:22:18.000Z</time></trkpt>
        <trkpt lat="28.704973" lon="104.492994"><ele>698.7108</ele><time>2026-02-28T19:22:22.000Z</time></trkpt>
        <trkpt lat="28.704999" lon="104.493037"><ele>699.14</ele><time>2026-02-28T19:22:25.000Z</time></trkpt>
        <trkpt lat="28.705033" lon="104.493093"><ele>699.6227</ele><time>2026-02-28T19:22:29.000Z</time></trkpt>
        <trkpt lat="28.705074" lon="104.493132"><ele>699.7572</ele><time>2026-02-28T19:22:33.000Z</time></trkpt>
        <trkpt lat="28.705125" lon="104.493159"><ele>699.23004</ele><time>2026-02-28T19:22:37.000Z</time></trkpt>
        <trkpt lat="28.705178" lon="104.493185"><ele>699.03503</ele><time>2026-02-28T19:22:41.000Z</time></trkpt>
        <trkpt lat="28.705229" lon="104.493212"><ele>699.19385</ele><time>2026-02-28T19:22:45.000Z</time></trkpt>
        <trkpt lat="28.705278" lon="104.493245"><ele>696.74927</ele><time>2026-02-28T19:23:00.000Z</time></trkpt>
        <trkpt lat="28.705295" lon="104.493269"><ele>696.4933</ele><time>2026-02-28T19:23:03.000Z</time></trkpt>
        <trkpt lat="28.705323" lon="104.493316"><ele>695.7223</ele><time>2026-02-28T19:23:07.000Z</time></trkpt>
        <trkpt lat="28.705354" lon="104.493367"><ele>695.42126</ele><time>2026-02-28T19:23:11.000Z</time></trkpt>
        <trkpt lat="28.705373" lon="104.493424"><ele>694.2544</ele><time>2026-02-28T19:23:15.000Z</time></trkpt>
        <trkpt lat="28.705367" lon="104.493485"><ele>693.2829</ele><time>2026-02-28T19:23:19.000Z</time></trkpt>
        <trkpt lat="28.705332" lon="104.493516"><ele>691.4621</ele><time>2026-02-28T19:23:23.000Z</time></trkpt>
        <trkpt lat="28.705353" lon="104.493497"><ele>693.3129</ele><time>2026-02-28T19:23:33.000Z</time></trkpt>
        <trkpt lat="28.705391" lon="104.493504"><ele>693.6818</ele><time>2026-02-28T19:23:37.000Z</time></trkpt>
        <trkpt lat="28.705437" lon="104.493532"><ele>693.7334</ele><time>2026-02-28T19:23:41.000Z</time></trkpt>
        <trkpt lat="28.705416" lon="104.493556"><ele>693.8152</ele><time>2026-02-28T19:23:49.000Z</time></trkpt>
        <trkpt lat="28.705415" lon="104.493604"><ele>691.59467</ele><time>2026-02-28T19:23:56.000Z</time></trkpt>
        <trkpt lat="28.705438" lon="104.493654"><ele>690.76105</ele><time>2026-02-28T19:24:03.000Z</time></trkpt>
        <trkpt lat="28.705448" lon="104.493703"><ele>690.2561</ele><time>2026-02-28T19:24:07.000Z</time></trkpt>
        <trkpt lat="28.705456" lon="104.493764"><ele>688.804</ele><time>2026-02-28T19:24:13.000Z</time></trkpt>
        <trkpt lat="28.705471" lon="104.493822"><ele>688.1442</ele><time>2026-02-28T19:24:18.000Z</time></trkpt>
        <trkpt lat="28.705498" lon="104.493864"><ele>687.6553</ele><time>2026-02-28T19:24:22.000Z</time></trkpt>
        <trkpt lat="28.705526" lon="104.493911"><ele>687.63556</ele><time>2026-02-28T19:24:26.000Z</time></trkpt>
        <trkpt lat="28.705556" lon="104.493959"><ele>687.8979</ele><time>2026-02-28T19:24:30.000Z</time></trkpt>
        <trkpt lat="28.705566" lon="104.494025"><ele>686.4398</ele><time>2026-02-28T19:24:40.000Z</time></trkpt>
        <trkpt lat="28.705592" lon="104.494062"><ele>685.6476</ele><time>2026-02-28T19:24:54.000Z</time></trkpt>
        <trkpt lat="28.705611" lon="104.494109"><ele>684.5783</ele><time>2026-02-28T19:25:00.000Z</time></trkpt>
        <trkpt lat="28.705627" lon="104.494169"><ele>683.843</ele><time>2026-02-28T19:25:07.000Z</time></trkpt>
        <trkpt lat="28.705633" lon="104.494228"><ele>683.53864</ele><time>2026-02-28T19:25:15.000Z</time></trkpt>
        <trkpt lat="28.705649" lon="104.494277"><ele>683.37604</ele><time>2026-02-28T19:25:23.000Z</time></trkpt>
        <trkpt lat="28.705663" lon="104.494335"><ele>682.234</ele><time>2026-02-28T19:25:31.000Z</time></trkpt>
        <trkpt lat="28.705683" lon="104.494378"><ele>682.2356</ele><time>2026-02-28T19:25:35.000Z</time></trkpt>
        <trkpt lat="28.705705" lon="104.494436"><ele>682.2456</ele><time>2026-02-28T19:25:40.000Z</time></trkpt>
        <trkpt lat="28.705732" lon="104.494485"><ele>681.6707</ele><time>2026-02-28T19:25:44.000Z</time></trkpt>
        <trkpt lat="28.705766" lon="104.494542"><ele>680.98413</ele><time>2026-02-28T19:25:49.000Z</time></trkpt>
        <trkpt lat="28.705793" lon="104.494588"><ele>680.61475</ele><time>2026-02-28T19:25:53.000Z</time></trkpt>
        <trkpt lat="28.705817" lon="104.494634"><ele>680.3572</ele><time>2026-02-28T19:25:57.000Z</time></trkpt>
        <trkpt lat="28.705828" lon="104.494698"><ele>679.60864</ele><time>2026-02-28T19:26:03.000Z</time></trkpt>
        <trkpt lat="28.705811" lon="104.494751"><ele>678.66254</ele><time>2026-02-28T19:26:08.000Z</time></trkpt>
        <trkpt lat="28.705786" lon="104.494804"><ele>677.2599</ele><time>2026-02-28T19:26:13.000Z</time></trkpt>
        <trkpt lat="28.705784" lon="104.494862"><ele>676.3934</ele><time>2026-02-28T19:26:20.000Z</time></trkpt>
        <trkpt lat="28.705795" lon="104.494911"><ele>675.56537</ele><time>2026-02-28T19:26:26.000Z</time></trkpt>
        <trkpt lat="28.705812" lon="104.494958"><ele>675.6883</ele><time>2026-02-28T19:26:30.000Z</time></trkpt>
        <trkpt lat="28.70582" lon="104.495011"><ele>675.3436</ele><time>2026-02-28T19:26:34.000Z</time></trkpt>
        <trkpt lat="28.705825" lon="104.495066"><ele>674.6715</ele><time>2026-02-28T19:26:38.000Z</time></trkpt>
        <trkpt lat="28.705813" lon="104.495117"><ele>674.86694</ele><time>2026-02-28T19:26:42.000Z</time></trkpt>
        <trkpt lat="28.705792" lon="104.495181"><ele>674.0202</ele><time>2026-02-28T19:26:48.000Z</time></trkpt>
        <trkpt lat="28.705775" lon="104.495234"><ele>673.68317</ele><time>2026-02-28T19:26:54.000Z</time></trkpt>
        <trkpt lat="28.705753" lon="104.495282"><ele>673.42944</ele><time>2026-02-28T19:26:59.000Z</time></trkpt>
        <trkpt lat="28.705759" lon="104.495335"><ele>672.8802</ele><time>2026-02-28T19:27:04.000Z</time></trkpt>
        <trkpt lat="28.70578" lon="104.49538"><ele>673.08813</ele><time>2026-02-28T19:27:08.000Z</time></trkpt>
        <trkpt lat="28.705792" lon="104.495437"><ele>672.4115</ele><time>2026-02-28T19:27:12.000Z</time></trkpt>
        <trkpt lat="28.705796" lon="104.495498"><ele>672.6455</ele><time>2026-02-28T19:27:17.000Z</time></trkpt>
        <trkpt lat="28.705787" lon="104.495554"><ele>671.64386</ele><time>2026-02-28T19:27:22.000Z</time></trkpt>
        <trkpt lat="28.705776" lon="104.495608"><ele>670.75494</ele><time>2026-02-28T19:27:27.000Z</time></trkpt>
        <trkpt lat="28.705758" lon="104.495657"><ele>670.14044</ele><time>2026-02-28T19:27:31.000Z</time></trkpt>
        <trkpt lat="28.70575" lon="104.495714"><ele>669.62616</ele><time>2026-02-28T19:27:35.000Z</time></trkpt>
        <trkpt lat="28.705744" lon="104.495779"><ele>668.7576</ele><time>2026-02-28T19:27:39.000Z</time></trkpt>
        <trkpt lat="28.705755" lon="104.495834"><ele>668.18176</ele><time>2026-02-28T19:27:43.000Z</time></trkpt>
        <trkpt lat="28.705785" lon="104.495891"><ele>666.8908</ele><time>2026-02-28T19:27:48.000Z</time></trkpt>
        <trkpt lat="28.705804" lon="104.495943"><ele>665.6007</ele><time>2026-02-28T19:27:53.000Z</time></trkpt>
        <trkpt lat="28.705818" lon="104.496007"><ele>663.1076</ele><time>2026-02-28T19:28:00.000Z</time></trkpt>
        <trkpt lat="28.705835" lon="104.496056"><ele>661.53546</ele><time>2026-02-28T19:28:06.000Z</time></trkpt>
        <trkpt lat="28.705816" lon="104.496102"><ele>661.2714</ele><time>2026-02-28T19:28:11.000Z</time></trkpt>
        <trkpt lat="28.705773" lon="104.496113"><ele>659.62085</ele><time>2026-02-28T19:28:15.000Z</time></trkpt>
        <trkpt lat="28.705775" lon="104.496137"><ele>658.7239</ele><time>2026-02-28T19:28:18.000Z</time></trkpt>
        <trkpt lat="28.705756" lon="104.496172"><ele>659.1926</ele><time>2026-02-28T19:28:21.000Z</time></trkpt>
        <trkpt lat="28.705731" lon="104.496223"><ele>659.479</ele><time>2026-02-28T19:28:25.000Z</time></trkpt>
        <trkpt lat="28.705699" lon="104.496292"><ele>659.6674</ele><time>2026-02-28T19:30:02.000Z</time></trkpt>
        <trkpt lat="28.705703" lon="104.496341"><ele>659.8482</ele><time>2026-02-28T19:30:12.000Z</time></trkpt>
        <trkpt lat="28.705698" lon="104.496411"><ele>658.99634</ele><time>2026-02-28T19:30:18.000Z</time></trkpt>
        <trkpt lat="28.705704" lon="104.496468"><ele>658.3352</ele><time>2026-02-28T19:30:23.000Z</time></trkpt>
        <trkpt lat="28.705723" lon="104.496515"><ele>657.1836</ele><time>2026-02-28T19:30:27.000Z</time></trkpt>
        <trkpt lat="28.705739" lon="104.496573"><ele>655.7458</ele><time>2026-02-28T19:30:32.000Z</time></trkpt>
        <trkpt lat="28.705748" lon="104.496629"><ele>654.83514</ele><time>2026-02-28T19:30:37.000Z</time></trkpt>
        <trkpt lat="28.705749" lon="104.496679"><ele>653.9834</ele><time>2026-02-28T19:30:41.000Z</time></trkpt>
        <trkpt lat="28.705752" lon="104.496752"><ele>653.1431</ele><time>2026-02-28T19:30:49.000Z</time></trkpt>
        <trkpt lat="28.705713" lon="104.49671"><ele>657.96765</ele><time>2026-02-28T19:32:51.000Z</time></trkpt>
        <trkpt lat="28.705698" lon="104.496734"><ele>658.10126</ele><time>2026-02-28T19:32:55.000Z</time></trkpt>
        <trkpt lat="28.705671" lon="104.496803"><ele>657.91797</ele><time>2026-02-28T19:33:01.000Z</time></trkpt>
        <trkpt lat="28.705639" lon="104.496861"><ele>657.8056</ele><time>2026-02-28T19:33:07.000Z</time></trkpt>
        <trkpt lat="28.705599" lon="104.496896"><ele>655.7212</ele><time>2026-02-28T19:33:14.000Z</time></trkpt>
        <trkpt lat="28.705571" lon="104.496932"><ele>656.8252</ele><time>2026-02-28T19:33:19.000Z</time></trkpt>
        <trkpt lat="28.705548" lon="104.496982"><ele>660.46686</ele><time>2026-02-28T19:33:26.000Z</time></trkpt>
        <trkpt lat="28.705531" lon="104.497027"><ele>662.28186</ele><time>2026-02-28T19:33:31.000Z</time></trkpt>
        <trkpt lat="28.705503" lon="104.49708"><ele>662.82117</ele><time>2026-02-28T19:33:39.000Z</time></trkpt>
        <trkpt lat="28.705477" lon="104.497132"><ele>661.8381</ele><time>2026-02-28T19:33:46.000Z</time></trkpt>
        <trkpt lat="28.705459" lon="104.497174"><ele>661.7815</ele><time>2026-02-28T19:33:50.000Z</time></trkpt>
        <trkpt lat="28.70542" lon="104.497217"><ele>662.6091</ele><time>2026-02-28T19:33:55.000Z</time></trkpt>
        <trkpt lat="28.705378" lon="104.497251"><ele>661.4038</ele><time>2026-02-28T19:34:00.000Z</time></trkpt>
        <trkpt lat="28.705334" lon="104.49729"><ele>660.9585</ele><time>2026-02-28T19:34:06.000Z</time></trkpt>
        <trkpt lat="28.705279" lon="104.497311"><ele>658.5349</ele><time>2026-02-28T19:34:16.000Z</time></trkpt>
        <trkpt lat="28.705245" lon="104.497345"><ele>657.81335</ele><time>2026-02-28T19:34:23.000Z</time></trkpt>
        <trkpt lat="28.705212" lon="104.497386"><ele>656.63574</ele><time>2026-02-28T19:34:28.000Z</time></trkpt>
        <trkpt lat="28.705167" lon="104.497437"><ele>654.03455</ele><time>2026-02-28T19:34:36.000Z</time></trkpt>
        <trkpt lat="28.705147" lon="104.497489"><ele>653.6833</ele><time>2026-02-28T19:34:43.000Z</time></trkpt>
        <trkpt lat="28.70511" lon="104.497532"><ele>654.32635</ele><time>2026-02-28T19:34:52.000Z</time></trkpt>
        <trkpt lat="28.705069" lon="104.497561"><ele>654.176</ele><time>2026-02-28T19:35:00.000Z</time></trkpt>
        <trkpt lat="28.705042" lon="104.497608"><ele>650.73553</ele><time>2026-02-28T19:35:07.000Z</time></trkpt>
        <trkpt lat="28.705037" lon="104.497663"><ele>649.68494</ele><time>2026-02-28T19:35:12.000Z</time></trkpt>
        <trkpt lat="28.70502" lon="104.497716"><ele>649.5703</ele><time>2026-02-28T19:35:17.000Z</time></trkpt>
        <trkpt lat="28.704989" lon="104.497765"><ele>647.23944</ele><time>2026-02-28T19:35:30.000Z</time></trkpt>
        <trkpt lat="28.704951" lon="104.497792"><ele>646.2591</ele><time>2026-02-28T19:35:36.000Z</time></trkpt>
        <trkpt lat="28.7049" lon="104.497823"><ele>645.7832</ele><time>2026-02-28T19:35:44.000Z</time></trkpt>
        <trkpt lat="28.704867" lon="104.497869"><ele>645.1655</ele><time>2026-02-28T19:35:50.000Z</time></trkpt>
        <trkpt lat="28.704845" lon="104.497927"><ele>643.43835</ele><time>2026-02-28T19:35:57.000Z</time></trkpt>
        <trkpt lat="28.704829" lon="104.497975"><ele>642.90155</ele><time>2026-02-28T19:36:01.000Z</time></trkpt>
        <trkpt lat="28.704814" lon="104.498033"><ele>642.4999</ele><time>2026-02-28T19:36:07.000Z</time></trkpt>
        <trkpt lat="28.704806" lon="104.498087"><ele>643.13043</ele><time>2026-02-28T19:36:13.000Z</time></trkpt>
        <trkpt lat="28.704795" lon="104.498138"><ele>643.6659</ele><time>2026-02-28T19:36:20.000Z</time></trkpt>
        <trkpt lat="28.704782" lon="104.49819"><ele>643.08405</ele><time>2026-02-28T19:36:28.000Z</time></trkpt>
        <trkpt lat="28.704758" lon="104.498244"><ele>641.9835</ele><time>2026-02-28T19:36:38.000Z</time></trkpt>
        <trkpt lat="28.704733" lon="104.498306"><ele>639.7737</ele><time>2026-02-28T19:36:47.000Z</time></trkpt>
        <trkpt lat="28.704728" lon="104.498361"><ele>640.1623</ele><time>2026-02-28T19:36:54.000Z</time></trkpt>
        <trkpt lat="28.70471" lon="104.498409"><ele>639.53314</ele><time>2026-02-28T19:37:02.000Z</time></trkpt>
        <trkpt lat="28.70468" lon="104.498458"><ele>637.3084</ele><time>2026-02-28T19:37:09.000Z</time></trkpt>
        <trkpt lat="28.70468" lon="104.498518"><ele>634.93756</ele><time>2026-02-28T19:37:15.000Z</time></trkpt>
        <trkpt lat="28.704655" lon="104.498569"><ele>632.01355</ele><time>2026-02-28T19:37:24.000Z</time></trkpt>
        <trkpt lat="28.704634" lon="104.498609"><ele>631.1754</ele><time>2026-02-28T19:37:30.000Z</time></trkpt>
        <trkpt lat="28.704608" lon="104.49866"><ele>629.1965</ele><time>2026-02-28T19:37:41.000Z</time></trkpt>
        <trkpt lat="28.704588" lon="104.498699"><ele>627.1647</ele><time>2026-02-28T19:37:47.000Z</time></trkpt>
        <trkpt lat="28.704553" lon="104.498749"><ele>628.0846</ele><time>2026-02-28T19:37:54.000Z</time></trkpt>
        <trkpt lat="28.704555" lon="104.498803"><ele>628.29535</ele><time>2026-02-28T19:38:00.000Z</time></trkpt>
        <trkpt lat="28.704553" lon="104.498855"><ele>628.2353</ele><time>2026-02-28T19:38:05.000Z</time></trkpt>
        <trkpt lat="28.704553" lon="104.498914"><ele>628.87</ele><time>2026-02-28T19:38:16.000Z</time></trkpt>
        <trkpt lat="28.704537" lon="104.49897"><ele>628.26764</ele><time>2026-02-28T19:38:23.000Z</time></trkpt>
        <trkpt lat="28.704523" lon="104.49903"><ele>624.7195</ele><time>2026-02-28T19:38:34.000Z</time></trkpt>
        <trkpt lat="28.704511" lon="104.499078"><ele>623.53534</ele><time>2026-02-28T19:38:39.000Z</time></trkpt>
        <trkpt lat="28.704521" lon="104.499136"><ele>621.7569</ele><time>2026-02-28T19:38:49.000Z</time></trkpt>
        <trkpt lat="28.704529" lon="104.499195"><ele>618.49677</ele><time>2026-02-28T19:38:59.000Z</time></trkpt>
        <trkpt lat="28.70452" lon="104.499249"><ele>616.4781</ele><time>2026-02-28T19:39:07.000Z</time></trkpt>
        <trkpt lat="28.704503" lon="104.499306"><ele>610.42175</ele><time>2026-02-28T19:39:17.000Z</time></trkpt>
        <trkpt lat="28.704496" lon="104.499357"><ele>606.66833</ele><time>2026-02-28T19:39:25.000Z</time></trkpt>
        <trkpt lat="28.704476" lon="104.499407"><ele>605.6287</ele><time>2026-02-28T19:39:31.000Z</time></trkpt>
        <trkpt lat="28.704464" lon="104.49947"><ele>604.00757</ele><time>2026-02-28T19:39:39.000Z</time></trkpt>
        <trkpt lat="28.704447" lon="104.499525"><ele>602.9178</ele><time>2026-02-28T19:39:47.000Z</time></trkpt>
        <trkpt lat="28.704425" lon="104.499574"><ele>602.1473</ele><time>2026-02-28T19:39:54.000Z</time></trkpt>
        <trkpt lat="28.704397" lon="104.499627"><ele>601.42786</ele><time>2026-02-28T19:40:03.000Z</time></trkpt>
        <trkpt lat="28.704413" lon="104.499681"><ele>599.268</ele><time>2026-02-28T19:40:16.000Z</time></trkpt>
        <trkpt lat="28.704425" lon="104.499731"><ele>597.9035</ele><time>2026-02-28T19:40:25.000Z</time></trkpt>
        <trkpt lat="28.70444" lon="104.49978"><ele>597.4914</ele><time>2026-02-28T19:40:31.000Z</time></trkpt>
        <trkpt lat="28.704437" lon="104.49984"><ele>596.2235</ele><time>2026-02-28T19:40:39.000Z</time></trkpt>
        <trkpt lat="28.704433" lon="104.499895"><ele>595.09174</ele><time>2026-02-28T19:40:47.000Z</time></trkpt>
        <trkpt lat="28.704481" lon="104.499885"><ele>591.9555</ele><time>2026-02-28T19:41:02.000Z</time></trkpt>
        <trkpt lat="28.704477" lon="104.499911"><ele>591.51013</ele><time>2026-02-28T19:41:05.000Z</time></trkpt>
        <trkpt lat="28.704509" lon="104.499958"><ele>591.9146</ele><time>2026-02-28T19:41:40.000Z</time></trkpt>
        <trkpt lat="28.704515" lon="104.500007"><ele>590.35803</ele><time>2026-02-28T19:41:49.000Z</time></trkpt>
        <trkpt lat="28.704495" lon="104.500055"><ele>589.5346</ele><time>2026-02-28T19:41:54.000Z</time></trkpt>
        <trkpt lat="28.70447" lon="104.500112"><ele>589.1881</ele><time>2026-02-28T19:42:00.000Z</time></trkpt>
        <trkpt lat="28.704451" lon="104.500169"><ele>589.07263</ele><time>2026-02-28T19:42:06.000Z</time></trkpt>
        <trkpt lat="28.704432" lon="104.500223"><ele>589.3364</ele><time>2026-02-28T19:42:11.000Z</time></trkpt>
        <trkpt lat="28.704416" lon="104.500283"><ele>590.09955</ele><time>2026-02-28T19:42:16.000Z</time></trkpt>
        <trkpt lat="28.704403" lon="104.500346"><ele>589.38934</ele><time>2026-02-28T19:42:27.000Z</time></trkpt>
        <trkpt lat="28.704397" lon="104.500376"><ele>588.8679</ele><time>2026-02-28T19:42:29.000Z</time></trkpt>
        <trkpt lat="28.704393" lon="104.500429"><ele>589.0809</ele><time>2026-02-28T19:42:33.000Z</time></trkpt>
        <trkpt lat="28.704383" lon="104.500503"><ele>588.8643</ele><time>2026-02-28T19:42:44.000Z</time></trkpt>
        <trkpt lat="28.704378" lon="104.50056"><ele>588.9073</ele><time>2026-02-28T19:42:49.000Z</time></trkpt>
        <trkpt lat="28.704374" lon="104.500609"><ele>589.66437</ele><time>2026-02-28T19:42:52.000Z</time></trkpt>
        <trkpt lat="28.704339" lon="104.500665"><ele>588.346</ele><time>2026-02-28T19:43:09.000Z</time></trkpt>
        <trkpt lat="28.704337" lon="104.500711"><ele>588.76215</ele><time>2026-02-28T19:43:15.000Z</time></trkpt>
        <trkpt lat="28.704331" lon="104.500773"><ele>588.95905</ele><time>2026-02-28T19:43:21.000Z</time></trkpt>
        <trkpt lat="28.704326" lon="104.500825"><ele>589.1502</ele><time>2026-02-28T19:43:25.000Z</time></trkpt>
        <trkpt lat="28.704319" lon="104.500886"><ele>588.6637</ele><time>2026-02-28T19:43:30.000Z</time></trkpt>
        <trkpt lat="28.704312" lon="104.500946"><ele>588.2071</ele><time>2026-02-28T19:43:35.000Z</time></trkpt>
        <trkpt lat="28.704305" lon="104.501"><ele>588.3846</ele><time>2026-02-28T19:43:40.000Z</time></trkpt>
        <trkpt lat="28.704283" lon="104.50106"><ele>591.43304</ele><time>2026-02-28T19:44:03.000Z</time></trkpt>
        <trkpt lat="28.70427" lon="104.501093"><ele>592.1398</ele><time>2026-02-28T19:44:07.000Z</time></trkpt>
        <trkpt lat="28.704254" lon="104.50115"><ele>591.9869</ele><time>2026-02-28T19:44:13.000Z</time></trkpt>
        <trkpt lat="28.704232" lon="104.501219"><ele>592.25366</ele><time>2026-02-28T19:44:21.000Z</time></trkpt>
        <trkpt lat="28.704235" lon="104.50127"><ele>592.01276</ele><time>2026-02-28T19:44:26.000Z</time></trkpt>
        <trkpt lat="28.704244" lon="104.50133"><ele>591.979</ele><time>2026-02-28T19:44:31.000Z</time></trkpt>
        <trkpt lat="28.704247" lon="104.501391"><ele>591.8823</ele><time>2026-02-28T19:44:36.000Z</time></trkpt>
        <trkpt lat="28.704241" lon="104.501455"><ele>590.9702</ele><time>2026-02-28T19:44:45.000Z</time></trkpt>
        <trkpt lat="28.704236" lon="104.501503"><ele>590.54156</ele><time>2026-02-28T19:44:52.000Z</time></trkpt>
        <trkpt lat="28.704245" lon="104.501565"><ele>596.4556</ele><time>2026-02-28T19:45:45.000Z</time></trkpt>
        <trkpt lat="28.704246" lon="104.501599"><ele>595.761</ele><time>2026-02-28T19:45:49.000Z</time></trkpt>
        <trkpt lat="28.704252" lon="104.501652"><ele>593.61035</ele><time>2026-02-28T19:45:53.000Z</time></trkpt>
        <trkpt lat="28.70425" lon="104.501718"><ele>590.5905</ele><time>2026-02-28T19:45:59.000Z</time></trkpt>
        <trkpt lat="28.704236" lon="104.501778"><ele>587.28925</ele><time>2026-02-28T19:46:21.000Z</time></trkpt>
        <trkpt lat="28.70423" lon="104.501818"><ele>587.492</ele><time>2026-02-28T19:46:27.000Z</time></trkpt>
        <trkpt lat="28.704209" lon="104.501872"><ele>588.3069</ele><time>2026-02-28T19:46:32.000Z</time></trkpt>
        <trkpt lat="28.704199" lon="104.501934"><ele>587.2897</ele><time>2026-02-28T19:46:38.000Z</time></trkpt>
        <trkpt lat="28.704197" lon="104.501987"><ele>586.77954</ele><time>2026-02-28T19:46:43.000Z</time></trkpt>
        <trkpt lat="28.704197" lon="104.502049"><ele>586.66046</ele><time>2026-02-28T19:46:50.000Z</time></trkpt>
        <trkpt lat="28.704195" lon="104.502108"><ele>585.6691</ele><time>2026-02-28T19:46:55.000Z</time></trkpt>
        <trkpt lat="28.704192" lon="104.50216"><ele>586.8311</ele><time>2026-02-28T19:46:59.000Z</time></trkpt>
        <trkpt lat="28.704182" lon="104.502225"><ele>585.9759</ele><time>2026-02-28T19:47:06.000Z</time></trkpt>
        <trkpt lat="28.704178" lon="104.502272"><ele>585.19037</ele><time>2026-02-28T19:47:10.000Z</time></trkpt>
        <trkpt lat="28.704164" lon="104.502331"><ele>584.30804</ele><time>2026-02-28T19:47:15.000Z</time></trkpt>
        <trkpt lat="28.704153" lon="104.502382"><ele>584.04913</ele><time>2026-02-28T19:47:19.000Z</time></trkpt>
        <trkpt lat="28.704138" lon="104.502445"><ele>583.6569</ele><time>2026-02-28T19:47:26.000Z</time></trkpt>
        <trkpt lat="28.704126" lon="104.502492"><ele>583.6967</ele><time>2026-02-28T19:47:30.000Z</time></trkpt>
        <trkpt lat="28.704101" lon="104.502542"><ele>583.4066</ele><time>2026-02-28T19:47:35.000Z</time></trkpt>
        <trkpt lat="28.704062" lon="104.502586"><ele>582.79816</ele><time>2026-02-28T19:47:40.000Z</time></trkpt>
        <trkpt lat="28.704055" lon="104.502641"><ele>582.00714</ele><time>2026-02-28T19:47:46.000Z</time></trkpt>
        <trkpt lat="28.704055" lon="104.502698"><ele>581.4354</ele><time>2026-02-28T19:47:56.000Z</time></trkpt>
        <trkpt lat="28.704047" lon="104.502743"><ele>581.4457</ele><time>2026-02-28T19:48:01.000Z</time></trkpt>
        <trkpt lat="28.704029" lon="104.502796"><ele>581.18536</ele><time>2026-02-28T19:48:05.000Z</time></trkpt>
        <trkpt lat="28.704009" lon="104.502848"><ele>581.1096</ele><time>2026-02-28T19:48:11.000Z</time></trkpt>
        <trkpt lat="28.703985" lon="104.502903"><ele>580.6175</ele><time>2026-02-28T19:48:16.000Z</time></trkpt>
        <trkpt lat="28.703968" lon="104.502959"><ele>580.3102</ele><time>2026-02-28T19:48:21.000Z</time></trkpt>
        <trkpt lat="28.703961" lon="104.50301"><ele>580.4326</ele><time>2026-02-28T19:48:25.000Z</time></trkpt>
        <trkpt lat="28.703949" lon="104.503071"><ele>580.71014</ele><time>2026-02-28T19:48:30.000Z</time></trkpt>
        <trkpt lat="28.703934" lon="104.503124"><ele>581.3084</ele><time>2026-02-28T19:48:34.000Z</time></trkpt>
        <trkpt lat="28.703925" lon="104.503181"><ele>581.72754</ele><time>2026-02-28T19:48:39.000Z</time></trkpt>
        <trkpt lat="28.703907" lon="104.503235"><ele>580.978</ele><time>2026-02-28T19:48:45.000Z</time></trkpt>
        <trkpt lat="28.70389" lon="104.503283"><ele>580.37006</ele><time>2026-02-28T19:48:51.000Z</time></trkpt>
        <trkpt lat="28.703883" lon="104.503333"><ele>579.80646</ele><time>2026-02-28T19:48:57.000Z</time></trkpt>
        <trkpt lat="28.703873" lon="104.503389"><ele>578.7196</ele><time>2026-02-28T19:49:04.000Z</time></trkpt>
        <trkpt lat="28.70386" lon="104.50344"><ele>577.7651</ele><time>2026-02-28T19:49:09.000Z</time></trkpt>
        <trkpt lat="28.703844" lon="104.503488"><ele>578.4943</ele><time>2026-02-28T19:49:13.000Z</time></trkpt>
        <trkpt lat="28.703802" lon="104.50353"><ele>579.02045</ele><time>2026-02-28T19:49:18.000Z</time></trkpt>
        <trkpt lat="28.703753" lon="104.503543"><ele>578.4295</ele><time>2026-02-28T19:49:23.000Z</time></trkpt>
        <trkpt lat="28.703704" lon="104.503558"><ele>577.58777</ele><time>2026-02-28T19:49:28.000Z</time></trkpt>
        <trkpt lat="28.703656" lon="104.503565"><ele>577.0183</ele><time>2026-02-28T19:49:33.000Z</time></trkpt>
        <trkpt lat="28.703617" lon="104.503595"><ele>577.19025</ele><time>2026-02-28T19:49:37.000Z</time></trkpt>
        <trkpt lat="28.703584" lon="104.503643"><ele>578.1102</ele><time>2026-02-28T19:49:42.000Z</time></trkpt>
        <trkpt lat="28.703548" lon="104.503681"><ele>577.6595</ele><time>2026-02-28T19:49:47.000Z</time></trkpt>
        <trkpt lat="28.703521" lon="104.503724"><ele>576.9648</ele><time>2026-02-28T19:49:53.000Z</time></trkpt>
        <trkpt lat="28.703494" lon="104.503764"><ele>575.4363</ele><time>2026-02-28T19:49:58.000Z</time></trkpt>
        <trkpt lat="28.70347" lon="104.503817"><ele>574.6811</ele><time>2026-02-28T19:50:03.000Z</time></trkpt>
        <trkpt lat="28.703444" lon="104.503872"><ele>574.4398</ele><time>2026-02-28T19:50:08.000Z</time></trkpt>
        <trkpt lat="28.703415" lon="104.503917"><ele>573.8831</ele><time>2026-02-28T19:50:13.000Z</time></trkpt>
        <trkpt lat="28.703377" lon="104.50396"><ele>573.21</ele><time>2026-02-28T19:50:21.000Z</time></trkpt>
        <trkpt lat="28.703357" lon="104.504002"><ele>572.33563</ele><time>2026-02-28T19:50:26.000Z</time></trkpt>
        <trkpt lat="28.703338" lon="104.50406"><ele>570.9285</ele><time>2026-02-28T19:50:33.000Z</time></trkpt>
        <trkpt lat="28.703316" lon="104.50411"><ele>570.63275</ele><time>2026-02-28T19:50:39.000Z</time></trkpt>
        <trkpt lat="28.703272" lon="104.504141"><ele>569.8505</ele><time>2026-02-28T19:50:47.000Z</time></trkpt>
        <trkpt lat="28.703248" lon="104.504184"><ele>568.5703</ele><time>2026-02-28T19:50:54.000Z</time></trkpt>
        <trkpt lat="28.703226" lon="104.504233"><ele>566.6401</ele><time>2026-02-28T19:51:03.000Z</time></trkpt>
        <trkpt lat="28.703205" lon="104.504279"><ele>564.6449</ele><time>2026-02-28T19:51:11.000Z</time></trkpt>
        <trkpt lat="28.703202" lon="104.504327"><ele>563.81146</ele><time>2026-02-28T19:51:17.000Z</time></trkpt>
        <trkpt lat="28.703196" lon="104.504383"><ele>562.64526</ele><time>2026-02-28T19:51:25.000Z</time></trkpt>
        <trkpt lat="28.703169" lon="104.50443"><ele>561.7085</ele><time>2026-02-28T19:51:33.000Z</time></trkpt>
        <trkpt lat="28.703143" lon="104.504476"><ele>559.87354</ele><time>2026-02-28T19:51:42.000Z</time></trkpt>
        <trkpt lat="28.703125" lon="104.504522"><ele>558.3038</ele><time>2026-02-28T19:51:50.000Z</time></trkpt>
        <trkpt lat="28.703096" lon="104.504567"><ele>557.2035</ele><time>2026-02-28T19:52:00.000Z</time></trkpt>
        <trkpt lat="28.703066" lon="104.504604"><ele>555.382</ele><time>2026-02-28T19:52:10.000Z</time></trkpt>
        <trkpt lat="28.703038" lon="104.504643"><ele>554.988</ele><time>2026-02-28T19:52:17.000Z</time></trkpt>
        <trkpt lat="28.702996" lon="104.504677"><ele>552.71045</ele><time>2026-02-28T19:52:28.000Z</time></trkpt>
        <trkpt lat="28.702965" lon="104.504711"><ele>550.89264</ele><time>2026-02-28T19:52:37.000Z</time></trkpt>
        <trkpt lat="28.702925" lon="104.50474"><ele>548.71375</ele><time>2026-02-28T19:52:47.000Z</time></trkpt>
        <trkpt lat="28.702881" lon="104.504758"><ele>547.5738</ele><time>2026-02-28T19:52:57.000Z</time></trkpt>
        <trkpt lat="28.702843" lon="104.504789"><ele>546.8737</ele><time>2026-02-28T19:53:06.000Z</time></trkpt>
        <trkpt lat="28.702802" lon="104.504816"><ele>545.3867</ele><time>2026-02-28T19:53:17.000Z</time></trkpt>
        <trkpt lat="28.702763" lon="104.504838"><ele>542.6355</ele><time>2026-02-28T19:53:26.000Z</time></trkpt>
        <trkpt lat="28.702741" lon="104.504887"><ele>542.45416</ele><time>2026-02-28T19:53:36.000Z</time></trkpt>
        <trkpt lat="28.702731" lon="104.50494"><ele>542.3554</ele><time>2026-02-28T19:53:44.000Z</time></trkpt>
        <trkpt lat="28.702681" lon="104.504944"><ele>540.9985</ele><time>2026-02-28T19:56:33.000Z</time></trkpt>
        <trkpt lat="28.70267" lon="104.504996"><ele>541.5575</ele><time>2026-02-28T19:57:08.000Z</time></trkpt>
        <trkpt lat="28.702658" lon="104.505041"><ele>541.5649</ele><time>2026-02-28T19:57:13.000Z</time></trkpt>
        <trkpt lat="28.702636" lon="104.505086"><ele>540.76776</ele><time>2026-02-28T19:57:18.000Z</time></trkpt>
        <trkpt lat="28.702625" lon="104.505138"><ele>540.5431</ele><time>2026-02-28T19:57:23.000Z</time></trkpt>
        <trkpt lat="28.702631" lon="104.505192"><ele>540.6297</ele><time>2026-02-28T19:57:29.000Z</time></trkpt>
        <trkpt lat="28.702613" lon="104.50524"><ele>540.95245</ele><time>2026-02-28T19:57:35.000Z</time></trkpt>
        <trkpt lat="28.702584" lon="104.505283"><ele>542.07904</ele><time>2026-02-28T19:57:41.000Z</time></trkpt>
        <trkpt lat="28.702555" lon="104.505344"><ele>542.76074</ele><time>2026-02-28T19:57:48.000Z</time></trkpt>
        <trkpt lat="28.702534" lon="104.505399"><ele>543.03986</ele><time>2026-02-28T19:57:53.000Z</time></trkpt>
        <trkpt lat="28.702497" lon="104.505439"><ele>544.126</ele><time>2026-02-28T19:57:59.000Z</time></trkpt>
        <trkpt lat="28.702458" lon="104.505464"><ele>544.49146</ele><time>2026-02-28T19:58:03.000Z</time></trkpt>
        <trkpt lat="28.702424" lon="104.505505"><ele>544.4064</ele><time>2026-02-28T19:58:08.000Z</time></trkpt>
        <trkpt lat="28.70241" lon="104.505562"><ele>544.0177</ele><time>2026-02-28T19:58:15.000Z</time></trkpt>
        <trkpt lat="28.702424" lon="104.505621"><ele>543.851</ele><time>2026-02-28T19:58:21.000Z</time></trkpt>
        <trkpt lat="28.702431" lon="104.505679"><ele>542.6023</ele><time>2026-02-28T19:58:26.000Z</time></trkpt>
        <trkpt lat="28.702417" lon="104.505739"><ele>542.43756</ele><time>2026-02-28T19:58:31.000Z</time></trkpt>
        <trkpt lat="28.702408" lon="104.5058"><ele>542.30853</ele><time>2026-02-28T19:58:35.000Z</time></trkpt>
        <trkpt lat="28.702401" lon="104.505869"><ele>542.18823</ele><time>2026-02-28T19:58:40.000Z</time></trkpt>
        <trkpt lat="28.702408" lon="104.505931"><ele>541.7149</ele><time>2026-02-28T19:58:45.000Z</time></trkpt>
        <trkpt lat="28.70241" lon="104.505981"><ele>541.2994</ele><time>2026-02-28T19:58:49.000Z</time></trkpt>
        <trkpt lat="28.702408" lon="104.506033"><ele>540.7945</ele><time>2026-02-28T19:58:53.000Z</time></trkpt>
        <trkpt lat="28.702403" lon="104.506093"><ele>539.2334</ele><time>2026-02-28T19:58:59.000Z</time></trkpt>
        <trkpt lat="28.702395" lon="104.50615"><ele>538.1352</ele><time>2026-02-28T19:59:05.000Z</time></trkpt>
        <trkpt lat="28.702388" lon="104.506205"><ele>536.1604</ele><time>2026-02-28T19:59:12.000Z</time></trkpt>
        <trkpt lat="28.702394" lon="104.506259"><ele>534.9248</ele><time>2026-02-28T19:59:22.000Z</time></trkpt>
        <trkpt lat="28.70241" lon="104.50631"><ele>533.6001</ele><time>2026-02-28T19:59:28.000Z</time></trkpt>
        <trkpt lat="28.702411" lon="104.506368"><ele>532.36755</ele><time>2026-02-28T19:59:35.000Z</time></trkpt>
        <trkpt lat="28.702415" lon="104.506426"><ele>530.7054</ele><time>2026-02-28T19:59:43.000Z</time></trkpt>
        <trkpt lat="28.702418" lon="104.506484"><ele>529.0235</ele><time>2026-02-28T19:59:51.000Z</time></trkpt>
        <trkpt lat="28.702425" lon="104.506532"><ele>527.7662</ele><time>2026-02-28T19:59:57.000Z</time></trkpt>
        <trkpt lat="28.702437" lon="104.506589"><ele>526.1911</ele><time>2026-02-28T20:00:05.000Z</time></trkpt>
        <trkpt lat="28.702444" lon="104.506646"><ele>524.24835</ele><time>2026-02-28T20:00:15.000Z</time></trkpt>
        <trkpt lat="28.70245" lon="104.5067"><ele>523.9838</ele><time>2026-02-28T20:00:22.000Z</time></trkpt>
        <trkpt lat="28.702444" lon="104.50676"><ele>522.8887</ele><time>2026-02-28T20:00:30.000Z</time></trkpt>
        <trkpt lat="28.702444" lon="104.506817"><ele>521.09106</ele><time>2026-02-28T20:00:39.000Z</time></trkpt>
        <trkpt lat="28.702437" lon="104.506874"><ele>519.3763</ele><time>2026-02-28T20:00:47.000Z</time></trkpt>
        <trkpt lat="28.702441" lon="104.506923"><ele>517.9427</ele><time>2026-02-28T20:00:53.000Z</time></trkpt>
        <trkpt lat="28.702435" lon="104.506974"><ele>516.63654</ele><time>2026-02-28T20:00:59.000Z</time></trkpt>
        <trkpt lat="28.702428" lon="104.507031"><ele>515.22394</ele><time>2026-02-28T20:01:07.000Z</time></trkpt>
        <trkpt lat="28.702441" lon="104.507085"><ele>514.35516</ele><time>2026-02-28T20:01:14.000Z</time></trkpt>
        <trkpt lat="28.702458" lon="104.50714"><ele>512.6655</ele><time>2026-02-28T20:01:21.000Z</time></trkpt>
        <trkpt lat="28.702479" lon="104.507186"><ele>511.28516</ele><time>2026-02-28T20:01:27.000Z</time></trkpt>
        <trkpt lat="28.702513" lon="104.50724"><ele>510.6451</ele><time>2026-02-28T20:01:39.000Z</time></trkpt>
        <trkpt lat="28.702529" lon="104.50729"><ele>509.0714</ele><time>2026-02-28T20:01:47.000Z</time></trkpt>
        <trkpt lat="28.702549" lon="104.507344"><ele>506.6951</ele><time>2026-02-28T20:01:55.000Z</time></trkpt>
        <trkpt lat="28.70256" lon="104.507403"><ele>504.03796</ele><time>2026-02-28T20:02:04.000Z</time></trkpt>
        <trkpt lat="28.702559" lon="104.507458"><ele>503.0927</ele><time>2026-02-28T20:02:11.000Z</time></trkpt>
        <trkpt lat="28.702552" lon="104.507512"><ele>501.82254</ele><time>2026-02-28T20:02:20.000Z</time></trkpt>
        <trkpt lat="28.70255" lon="104.507572"><ele>501.1644</ele><time>2026-02-28T20:02:28.000Z</time></trkpt>
        <trkpt lat="28.702554" lon="104.50763"><ele>499.14856</ele><time>2026-02-28T20:02:38.000Z</time></trkpt>
        <trkpt lat="28.70257" lon="104.507677"><ele>497.12766</ele><time>2026-02-28T20:02:46.000Z</time></trkpt>
        <trkpt lat="28.702554" lon="104.507732"><ele>496.13507</ele><time>2026-02-28T20:02:57.000Z</time></trkpt>
        <trkpt lat="28.702527" lon="104.507782"><ele>495.5489</ele><time>2026-02-28T20:03:07.000Z</time></trkpt>
        <trkpt lat="28.702567" lon="104.507811"><ele>495.0157</ele><time>2026-02-28T20:03:14.000Z</time></trkpt>
        <trkpt lat="28.702613" lon="104.50784"><ele>494.07858</ele><time>2026-02-28T20:03:20.000Z</time></trkpt>
        <trkpt lat="28.702654" lon="104.50788"><ele>492.02094</ele><time>2026-02-28T20:03:45.000Z</time></trkpt>
        <trkpt lat="28.702666" lon="104.50793"><ele>490.47522</ele><time>2026-02-28T20:03:54.000Z</time></trkpt>
        <trkpt lat="28.702675" lon="104.507992"><ele>489.5228</ele><time>2026-02-28T20:04:04.000Z</time></trkpt>
        <trkpt lat="28.702675" lon="104.50804"><ele>488.13962</ele><time>2026-02-28T20:04:10.000Z</time></trkpt>
        <trkpt lat="28.702679" lon="104.508094"><ele>487.14072</ele><time>2026-02-28T20:04:18.000Z</time></trkpt>
        <trkpt lat="28.702689" lon="104.508149"><ele>485.6232</ele><time>2026-02-28T20:04:26.000Z</time></trkpt>
        <trkpt lat="28.702694" lon="104.508203"><ele>485.09006</ele><time>2026-02-28T20:04:32.000Z</time></trkpt>
        <trkpt lat="28.702691" lon="104.508264"><ele>483.93024</ele><time>2026-02-28T20:04:39.000Z</time></trkpt>
        <trkpt lat="28.702686" lon="104.508313"><ele>484.776</ele><time>2026-02-28T20:04:43.000Z</time></trkpt>
        <trkpt lat="28.702679" lon="104.508386"><ele>483.39502</ele><time>2026-02-28T20:04:51.000Z</time></trkpt>
        <trkpt lat="28.702678" lon="104.508439"><ele>482.0099</ele><time>2026-02-28T20:04:57.000Z</time></trkpt>
        <trkpt lat="28.702679" lon="104.508489"><ele>480.6497</ele><time>2026-02-28T20:05:02.000Z</time></trkpt>
        <trkpt lat="28.702698" lon="104.508543"><ele>479.0617</ele><time>2026-02-28T20:05:09.000Z</time></trkpt>
        <trkpt lat="28.702718" lon="104.508583"><ele>478.5187</ele><time>2026-02-28T20:05:13.000Z</time></trkpt>
        <trkpt lat="28.702727" lon="104.508638"><ele>478.38528</ele><time>2026-02-28T20:05:18.000Z</time></trkpt>
        <trkpt lat="28.702723" lon="104.508701"><ele>476.93988</ele><time>2026-02-28T20:05:24.000Z</time></trkpt>
        <trkpt lat="28.702716" lon="104.508764"><ele>475.18292</ele><time>2026-02-28T20:05:31.000Z</time></trkpt>
        <trkpt lat="28.702714" lon="104.508813"><ele>473.88037</ele><time>2026-02-28T20:05:36.000Z</time></trkpt>
        <trkpt lat="28.702708" lon="104.508867"><ele>472.59528</ele><time>2026-02-28T20:05:41.000Z</time></trkpt>
        <trkpt lat="28.702702" lon="104.508925"><ele>471.20547</ele><time>2026-02-28T20:05:48.000Z</time></trkpt>
        <trkpt lat="28.702693" lon="104.508982"><ele>469.59863</ele><time>2026-02-28T20:05:54.000Z</time></trkpt>
        <trkpt lat="28.702683" lon="104.509041"><ele>467.67468</ele><time>2026-02-28T20:06:03.000Z</time></trkpt>
        <trkpt lat="28.702673" lon="104.509093"><ele>466.02332</ele><time>2026-02-28T20:06:12.000Z</time></trkpt>
        <trkpt lat="28.702671" lon="104.509152"><ele>464.71594</ele><time>2026-02-28T20:06:30.000Z</time></trkpt>
        <trkpt lat="28.702668" lon="104.509198"><ele>464.54578</ele><time>2026-02-28T20:06:36.000Z</time></trkpt>
        <trkpt lat="28.702656" lon="104.509256"><ele>463.41797</ele><time>2026-02-28T20:06:42.000Z</time></trkpt>
        <trkpt lat="28.702635" lon="104.509312"><ele>462.03064</ele><time>2026-02-28T20:06:49.000Z</time></trkpt>
        <trkpt lat="28.702622" lon="104.509368"><ele>460.0938</ele><time>2026-02-28T20:06:57.000Z</time></trkpt>
        <trkpt lat="28.702611" lon="104.509419"><ele>459.07092</ele><time>2026-02-28T20:07:03.000Z</time></trkpt>
        <trkpt lat="28.702596" lon="104.509472"><ele>457.50775</ele><time>2026-02-28T20:07:10.000Z</time></trkpt>
        <trkpt lat="28.702553" lon="104.509509"><ele>455.9508</ele><time>2026-02-28T20:07:19.000Z</time></trkpt>
        <trkpt lat="28.702506" lon="104.509498"><ele>456.2893</ele><time>2026-02-28T20:07:27.000Z</time></trkpt>
        <trkpt lat="28.702467" lon="104.509473"><ele>456.8798</ele><time>2026-02-28T20:07:33.000Z</time></trkpt>
        <trkpt lat="28.702422" lon="104.509485"><ele>457.47186</ele><time>2026-02-28T20:07:40.000Z</time></trkpt>
        <trkpt lat="28.702457" lon="104.509521"><ele>457.72543</ele><time>2026-02-28T20:07:53.000Z</time></trkpt>
        <trkpt lat="28.7025" lon="104.509546"><ele>457.3146</ele><time>2026-02-28T20:07:57.000Z</time></trkpt>
        <trkpt lat="28.702549" lon="104.509569"><ele>456.654</ele><time>2026-02-28T20:08:01.000Z</time></trkpt>
        <trkpt lat="28.702608" lon="104.509583"><ele>454.93738</ele><time>2026-02-28T20:08:06.000Z</time></trkpt>
        <trkpt lat="28.702664" lon="104.509595"><ele>452.77322</ele><time>2026-02-28T20:08:11.000Z</time></trkpt>
        <trkpt lat="28.702669" lon="104.509636"><ele>451.06638</ele><time>2026-02-28T20:08:15.000Z</time></trkpt>
        <trkpt lat="28.702645" lon="104.509694"><ele>448.821</ele><time>2026-02-28T20:08:21.000Z</time></trkpt>
        <trkpt lat="28.702623" lon="104.509747"><ele>447.45297</ele><time>2026-02-28T20:08:26.000Z</time></trkpt>
        <trkpt lat="28.702607" lon="104.509805"><ele>445.53882</ele><time>2026-02-28T20:08:33.000Z</time></trkpt>
        <trkpt lat="28.702577" lon="104.509844"><ele>443.98337</ele><time>2026-02-28T20:08:38.000Z</time></trkpt>
        <trkpt lat="28.702536" lon="104.509882"><ele>444.81433</ele><time>2026-02-28T20:08:52.000Z</time></trkpt>
        <trkpt lat="28.702564" lon="104.509852"><ele>445.9476</ele><time>2026-02-28T20:08:57.000Z</time></trkpt>
        <trkpt lat="28.702582" lon="104.509894"><ele>442.39734</ele><time>2026-02-28T20:09:11.000Z</time></trkpt>
        <trkpt lat="28.70261" lon="104.509936"><ele>441.22214</ele><time>2026-02-28T20:09:19.000Z</time></trkpt>
        <trkpt lat="28.702638" lon="104.509985"><ele>439.9468</ele><time>2026-02-28T20:09:26.000Z</time></trkpt>
        <trkpt lat="28.702642" lon="104.510039"><ele>438.53372</ele><time>2026-02-28T20:09:31.000Z</time></trkpt>
        <trkpt lat="28.702646" lon="104.510096"><ele>437.013</ele><time>2026-02-28T20:09:37.000Z</time></trkpt>
        <trkpt lat="28.702642" lon="104.51015"><ele>436.18134</ele><time>2026-02-28T20:09:43.000Z</time></trkpt>
        <trkpt lat="28.702662" lon="104.510201"><ele>434.04715</ele><time>2026-02-28T20:09:51.000Z</time></trkpt>
        <trkpt lat="28.702675" lon="104.510252"><ele>432.93314</ele><time>2026-02-28T20:09:58.000Z</time></trkpt>
        <trkpt lat="28.702657" lon="104.510302"><ele>431.47214</ele><time>2026-02-28T20:10:06.000Z</time></trkpt>
        <trkpt lat="28.702622" lon="104.510328"><ele>431.16254</ele><time>2026-02-28T20:10:10.000Z</time></trkpt>
        <trkpt lat="28.702582" lon="104.510361"><ele>431.23575</ele><time>2026-02-28T20:10:14.000Z</time></trkpt>
        <trkpt lat="28.702552" lon="104.510404"><ele>431.64197</ele><time>2026-02-28T20:10:18.000Z</time></trkpt>
        <trkpt lat="28.702528" lon="104.510461"><ele>430.68445</ele><time>2026-02-28T20:10:25.000Z</time></trkpt>
        <trkpt lat="28.702515" lon="104.510511"><ele>428.78217</ele><time>2026-02-28T20:10:34.000Z</time></trkpt>
        <trkpt lat="28.702482" lon="104.510547"><ele>427.30997</ele><time>2026-02-28T20:10:46.000Z</time></trkpt>
        <trkpt lat="28.702457" lon="104.510596"><ele>424.01593</ele><time>2026-02-28T20:11:04.000Z</time></trkpt>
        <trkpt lat="28.702473" lon="104.510647"><ele>423.76974</ele><time>2026-02-28T20:11:24.000Z</time></trkpt>
        <trkpt lat="28.702467" lon="104.51069"><ele>423.2552</ele><time>2026-02-28T20:11:29.000Z</time></trkpt>
        <trkpt lat="28.702461" lon="104.510757"><ele>421.09012</ele><time>2026-02-28T20:11:36.000Z</time></trkpt>
        <trkpt lat="28.70245" lon="104.51081"><ele>419.02658</ele><time>2026-02-28T20:11:42.000Z</time></trkpt>
        <trkpt lat="28.702438" lon="104.51086"><ele>417.86945</ele><time>2026-02-28T20:11:47.000Z</time></trkpt>
        <trkpt lat="28.702422" lon="104.510915"><ele>416.7695</ele><time>2026-02-28T20:11:53.000Z</time></trkpt>
        <trkpt lat="28.702402" lon="104.51097"><ele>414.57816</ele><time>2026-02-28T20:12:00.000Z</time></trkpt>
        <trkpt lat="28.702384" lon="104.511026"><ele>412.96722</ele><time>2026-02-28T20:12:06.000Z</time></trkpt>
        <trkpt lat="28.702373" lon="104.511079"><ele>411.55057</ele><time>2026-02-28T20:12:12.000Z</time></trkpt>
        <trkpt lat="28.702351" lon="104.511131"><ele>409.80185</ele><time>2026-02-28T20:12:19.000Z</time></trkpt>
        <trkpt lat="28.702329" lon="104.511178"><ele>409.06415</ele><time>2026-02-28T20:12:25.000Z</time></trkpt>
        <trkpt lat="28.702321" lon="104.511236"><ele>408.92484</ele><time>2026-02-28T20:12:30.000Z</time></trkpt>
        <trkpt lat="28.702305" lon="104.511286"><ele>408.23822</ele><time>2026-02-28T20:12:34.000Z</time></trkpt>
        <trkpt lat="28.702292" lon="104.511332"><ele>408.36832</ele><time>2026-02-28T20:12:37.000Z</time></trkpt>
        <trkpt lat="28.702272" lon="104.511402"><ele>408.75507</ele><time>2026-02-28T20:12:42.000Z</time></trkpt>
        <trkpt lat="28.702246" lon="104.511454"><ele>409.0073</ele><time>2026-02-28T20:12:46.000Z</time></trkpt>
        <trkpt lat="28.702223" lon="104.511501"><ele>409.63745</ele><time>2026-02-28T20:12:50.000Z</time></trkpt>
        <trkpt lat="28.702195" lon="104.511557"><ele>408.82162</ele><time>2026-02-28T20:12:55.000Z</time></trkpt>
        <trkpt lat="28.702164" lon="104.511599"><ele>408.37823</ele><time>2026-02-28T20:12:59.000Z</time></trkpt>
        <trkpt lat="28.702123" lon="104.511643"><ele>408.04218</ele><time>2026-02-28T20:13:04.000Z</time></trkpt>
        <trkpt lat="28.702093" lon="104.511687"><ele>407.79004</ele><time>2026-02-28T20:13:08.000Z</time></trkpt>
        <trkpt lat="28.702059" lon="104.511747"><ele>407.763</ele><time>2026-02-28T20:13:13.000Z</time></trkpt>
        <trkpt lat="28.702046" lon="104.511811"><ele>406.88776</ele><time>2026-02-28T20:13:19.000Z</time></trkpt>
        <trkpt lat="28.70204" lon="104.511862"><ele>405.70944</ele><time>2026-02-28T20:13:24.000Z</time></trkpt>
        <trkpt lat="28.702038" lon="104.511917"><ele>405.1026</ele><time>2026-02-28T20:13:30.000Z</time></trkpt>
        <trkpt lat="28.702028" lon="104.511967"><ele>404.5038</ele><time>2026-02-28T20:13:35.000Z</time></trkpt>
        <trkpt lat="28.702023" lon="104.512023"><ele>404.37524</ele><time>2026-02-28T20:13:41.000Z</time></trkpt>
        <trkpt lat="28.702028" lon="104.512077"><ele>403.2676</ele><time>2026-02-28T20:13:47.000Z</time></trkpt>
        <trkpt lat="28.702027" lon="104.512134"><ele>401.772</ele><time>2026-02-28T20:13:54.000Z</time></trkpt>
        <trkpt lat="28.702042" lon="104.512186"><ele>400.41354</ele><time>2026-02-28T20:14:00.000Z</time></trkpt>
        <trkpt lat="28.702057" lon="104.512241"><ele>399.12308</ele><time>2026-02-28T20:14:06.000Z</time></trkpt>
        <trkpt lat="28.702061" lon="104.512294"><ele>397.6252</ele><time>2026-02-28T20:14:12.000Z</time></trkpt>
        <trkpt lat="28.702057" lon="104.512351"><ele>396.793</ele><time>2026-02-28T20:14:18.000Z</time></trkpt>
        <trkpt lat="28.702044" lon="104.512413"><ele>395.43375</ele><time>2026-02-28T20:14:26.000Z</time></trkpt>
        <trkpt lat="28.702056" lon="104.51246"><ele>394.2263</ele><time>2026-02-28T20:14:32.000Z</time></trkpt>
        <trkpt lat="28.702054" lon="104.512515"><ele>393.1601</ele><time>2026-02-28T20:14:38.000Z</time></trkpt>
        <trkpt lat="28.702021" lon="104.512562"><ele>393.29114</ele><time>2026-02-28T20:14:44.000Z</time></trkpt>
        <trkpt lat="28.701976" lon="104.512585"><ele>392.4598</ele><time>2026-02-28T20:14:50.000Z</time></trkpt>
        <trkpt lat="28.701958" lon="104.512641"><ele>391.69305</ele><time>2026-02-28T20:15:00.000Z</time></trkpt>
        <trkpt lat="28.701928" lon="104.512678"><ele>391.12787</ele><time>2026-02-28T20:15:08.000Z</time></trkpt>
        <trkpt lat="28.701893" lon="104.512709"><ele>390.2502</ele><time>2026-02-28T20:15:13.000Z</time></trkpt>
        <trkpt lat="28.701872" lon="104.512765"><ele>387.8316</ele><time>2026-02-28T20:15:21.000Z</time></trkpt>
        <trkpt lat="28.701865" lon="104.512832"><ele>385.82358</ele><time>2026-02-28T20:15:32.000Z</time></trkpt>
        <trkpt lat="28.70188" lon="104.512887"><ele>384.49896</ele><time>2026-02-28T20:15:39.000Z</time></trkpt>
        <trkpt lat="28.701866" lon="104.512936"><ele>383.27597</ele><time>2026-02-28T20:15:46.000Z</time></trkpt>
        <trkpt lat="28.701856" lon="104.512986"><ele>381.90253</ele><time>2026-02-28T20:15:53.000Z</time></trkpt>
        <trkpt lat="28.701865" lon="104.513045"><ele>380.2444</ele><time>2026-02-28T20:16:01.000Z</time></trkpt>
        <trkpt lat="28.701856" lon="104.513095"><ele>378.87717</ele><time>2026-02-28T20:16:09.000Z</time></trkpt>
        <trkpt lat="28.701848" lon="104.51315"><ele>376.80896</ele><time>2026-02-28T20:16:19.000Z</time></trkpt>
        <trkpt lat="28.701848" lon="104.513206"><ele>375.18777</ele><time>2026-02-28T20:16:28.000Z</time></trkpt>
        <trkpt lat="28.701846" lon="104.513257"><ele>373.66934</ele><time>2026-02-28T20:16:34.000Z</time></trkpt>
        <trkpt lat="28.701848" lon="104.513312"><ele>371.68024</ele><time>2026-02-28T20:16:41.000Z</time></trkpt>
        <trkpt lat="28.701848" lon="104.513364"><ele>370.0155</ele><time>2026-02-28T20:16:48.000Z</time></trkpt>
        <trkpt lat="28.701855" lon="104.51342"><ele>368.1147</ele><time>2026-02-28T20:16:55.000Z</time></trkpt>
        <trkpt lat="28.70188" lon="104.513468"><ele>366.37592</ele><time>2026-02-28T20:17:03.000Z</time></trkpt>
        <trkpt lat="28.701883" lon="104.513523"><ele>364.78076</ele><time>2026-02-28T20:18:02.000Z</time></trkpt>
        <trkpt lat="28.70189" lon="104.513564"><ele>363.42014</ele><time>2026-02-28T20:18:09.000Z</time></trkpt>
        <trkpt lat="28.701885" lon="104.513623"><ele>361.34412</ele><time>2026-02-28T20:18:15.000Z</time></trkpt>
        <trkpt lat="28.701878" lon="104.513673"><ele>360.1486</ele><time>2026-02-28T20:18:19.000Z</time></trkpt>
        <trkpt lat="28.701916" lon="104.513679"><ele>358.5832</ele><time>2026-02-28T20:18:25.000Z</time></trkpt>
        <trkpt lat="28.701955" lon="104.513639"><ele>358.3683</ele><time>2026-02-28T20:18:29.000Z</time></trkpt>
        <trkpt lat="28.701993" lon="104.51359"><ele>358.1201</ele><time>2026-02-28T20:18:33.000Z</time></trkpt>
        <trkpt lat="28.702039" lon="104.513549"><ele>357.89713</ele><time>2026-02-28T20:18:38.000Z</time></trkpt>
        <trkpt lat="28.70208" lon="104.513511"><ele>357.80423</ele><time>2026-02-28T20:18:43.000Z</time></trkpt>
        <trkpt lat="28.70212" lon="104.513465"><ele>358.1606</ele><time>2026-02-28T20:18:47.000Z</time></trkpt>
        <trkpt lat="28.702167" lon="104.513471"><ele>358.40472</ele><time>2026-02-28T20:18:54.000Z</time></trkpt>
        <trkpt lat="28.702163" lon="104.513524"><ele>357.30453</ele><time>2026-02-28T20:18:59.000Z</time></trkpt>
        <trkpt lat="28.702169" lon="104.513614"><ele>356.37466</ele><time>2026-02-28T20:19:05.000Z</time></trkpt>
        <trkpt lat="28.702197" lon="104.513618"><ele>355.3287</ele><time>2026-02-28T20:19:09.000Z</time></trkpt>
        <trkpt lat="28.702253" lon="104.513599"><ele>354.6245</ele><time>2026-02-28T20:19:14.000Z</time></trkpt>
        <trkpt lat="28.70231" lon="104.513599"><ele>353.73035</ele><time>2026-02-28T20:19:18.000Z</time></trkpt>
        <trkpt lat="28.702366" lon="104.513618"><ele>352.78406</ele><time>2026-02-28T20:19:22.000Z</time></trkpt>
        <trkpt lat="28.702412" lon="104.51365"><ele>351.6523</ele><time>2026-02-28T20:19:26.000Z</time></trkpt>
        <trkpt lat="28.702452" lon="104.513681"><ele>350.3905</ele><time>2026-02-28T20:19:30.000Z</time></trkpt>
        <trkpt lat="28.702501" lon="104.513706"><ele>348.95688</ele><time>2026-02-28T20:19:35.000Z</time></trkpt>
        <trkpt lat="28.702547" lon="104.513711"><ele>347.79736</ele><time>2026-02-28T20:19:39.000Z</time></trkpt>
        <trkpt lat="28.702583" lon="104.513745"><ele>346.5286</ele><time>2026-02-28T20:19:44.000Z</time></trkpt>
        <trkpt lat="28.702597" lon="104.513798"><ele>345.38736</ele><time>2026-02-28T20:19:50.000Z</time></trkpt>
        <trkpt lat="28.702616" lon="104.513849"><ele>343.35187</ele><time>2026-02-28T20:19:59.000Z</time></trkpt>
        <trkpt lat="28.702632" lon="104.513899"><ele>342.53302</ele><time>2026-02-28T20:20:13.000Z</time></trkpt>
      </trkseg>
  </trk>
</gpx>